Time,TemperatureF,DewpointF,PressureIn,WindDirection,WindDirectionDegrees,WindSpeedMPH,WindSpeedGustMPH,Humidity,HourlyPrecipIn,Conditions,Clouds,dailyrainin,SoftwareType,DateUTC
2013-07-31 00:00:00,57.4,46.1,29.17,NE,45,0.0,0.0,66,0.00,,---,0.00,VWS V14.01,2013-07-31 04:00:00,
2013-07-31 00:01:00,57.4,46.1,29.17,NE,45,0.0,0.0,66,0.00,,---,0.00,VWS V14.01,2013-07-31 04:01:00,
2013-07-31 00:02:00,57.4,46.1,29.17,NE,45,0.0,0.0,66,0.00,,---,0.00,VWS V14.01,2013-07-31 04:02:00,
2013-07-31 00:03:00,57.2,46.0,29.17,NE,45,0.0,0.0,66,0.00,,---,0.00,VWS V14.01,2013-07-31 04:03:00,
2013-07-31 00:04:00,57.2,46.0,29.17,NE,45,0.0,0.0,66,0.00,,---,0.00,VWS V14.01,2013-07-31 04:04:00,
2013-07-31 00:05:00,57.2,46.0,29.17,NE,45,0.0,0.0,66,0.00,,---,0.00,VWS V14.01,2013-07-31 04:05:00,
2013-07-31 00:06:00,57.2,46.0,29.17,NE,45,0.0,0.0,66,0.00,,---,0.00,VWS V14.01,2013-07-31 04:06:00,
2013-07-31 00:07:00,57.2,46.0,29.17,NE,45,0.0,0.0,66,0.00,,---,0.00,VWS V14.01,2013-07-31 04:07:00,
2013-07-31 00:08:00,57.0,45.8,29.17,NE,45,0.0,0.0,66,0.00,,---,0.00,VWS V14.01,2013-07-31 04:08:00,
2013-07-31 00:09:00,57.0,45.8,29.17,NE,45,0.0,0.0,66,0.00,,---,0.00,VWS V14.01,2013-07-31 04:09:00,
2013-07-31 00:10:00,57.0,45.8,29.17,NE,45,0.0,0.0,66,0.00,,---,0.00,VWS V14.01,2013-07-31 04:10:00,
2013-07-31 00:11:00,57.0,45.8,29.17,NE,45,0.0,0.0,66,0.00,,---,0.00,VWS V14.01,2013-07-31 04:11:00,
2013-07-31 00:12:00,57.0,45.8,29.17,NE,45,0.0,0.0,66,0.00,,---,0.00,VWS V14.01,2013-07-31 04:12:00,
2013-07-31 00:13:00,56.8,45.6,29.17,NE,45,0.0,0.0,66,0.00,,---,0.00,VWS V14.01,2013-07-31 04:13:00,
2013-07-31 00:14:00,56.8,45.6,29.17,NE,45,0.0,0.0,66,0.00,,---,0.00,VWS V14.01,2013-07-31 04:14:00,
2013-07-31 00:15:00,56.8,45.6,29.17,NE,45,0.0,0.0,66,0.00,,---,0.00,VWS V14.01,2013-07-31 04:15:00,
2013-07-31 00:16:00,56.8,45.6,29.17,NE,45,0.0,0.0,66,0.00,,---,0.00,VWS V14.01,2013-07-31 04:16:00,
2013-07-31 00:17:00,56.8,45.6,29.17,NE,45,0.0,0.0,66,0.00,,---,0.00,VWS V14.01,2013-07-31 04:17:00,
2013-07-31 00:18:00,56.8,45.6,29.17,NE,45,0.0,0.0,66,0.00,,---,0.00,VWS V14.01,2013-07-31 04:18:00,
2013-07-31 00:19:00,56.8,45.6,29.17,NE,45,0.0,0.0,66,0.00,,---,0.00,VWS V14.01,2013-07-31 04:19:00,
2013-07-31 00:20:00,56.8,45.6,29.17,NE,45,0.0,0.0,66,0.00,,---,0.00,VWS V14.01,2013-07-31 04:20:00,
2013-07-31 00:21:00,56.8,45.6,29.17,NE,45,0.0,0.0,66,0.00,,---,0.00,VWS V14.01,2013-07-31 04:21:00,
2013-07-31 00:22:00,56.7,45.4,29.17,NE,45,0.0,0.0,66,0.00,,---,0.00,VWS V14.01,2013-07-31 04:22:00,
2013-07-31 00:23:00,56.7,45.4,29.17,NE,45,0.0,0.0,66,0.00,,---,0.00,VWS V14.01,2013-07-31 04:23:00,
2013-07-31 00:24:00,56.7,45.4,29.17,NE,45,0.0,0.0,66,0.00,,---,0.00,VWS V14.01,2013-07-31 04:24:00,
2013-07-31 00:25:00,56.7,45.4,29.17,NE,45,0.0,0.0,66,0.00,,---,0.00,VWS V14.01,2013-07-31 04:25:00,
2013-07-31 00:26:00,56.7,45.4,29.17,NE,45,0.0,0.0,66,0.00,,---,0.00,VWS V14.01,2013-07-31 04:26:00,
2013-07-31 00:27:00,56.7,45.4,29.17,NE,45,0.0,0.0,66,0.00,,---,0.00,VWS V14.01,2013-07-31 04:27:00,
2013-07-31 00:28:00,56.7,45.4,29.17,NE,45,0.0,0.0,66,0.00,,---,0.00,VWS V14.01,2013-07-31 04:28:00,
2013-07-31 00:29:00,56.7,45.4,29.17,NE,45,0.0,0.0,66,0.00,,---,0.00,VWS V14.01,2013-07-31 04:29:00,
2013-07-31 00:30:00,56.7,45.4,29.17,NE,45,0.0,0.0,66,0.00,,---,0.00,VWS V14.01,2013-07-31 04:30:00,
2013-07-31 00:31:00,56.5,45.3,29.17,NE,45,0.0,0.0,66,0.00,,---,0.00,VWS V14.01,2013-07-31 04:31:00,
2013-07-31 00:32:00,56.5,45.3,29.17,NE,45,0.0,0.0,66,0.00,,---,0.00,VWS V14.01,2013-07-31 04:32:00,
2013-07-31 00:33:00,56.5,45.3,29.17,NE,45,0.0,0.0,66,0.00,,---,0.00,VWS V14.01,2013-07-31 04:33:00,
2013-07-31 00:34:00,56.5,45.3,29.17,NE,45,0.0,0.0,66,0.00,,---,0.00,VWS V14.01,2013-07-31 04:34:00,
2013-07-31 00:35:00,56.5,45.3,29.17,NE,45,0.0,0.0,66,0.00,,---,0.00,VWS V14.01,2013-07-31 04:35:00,
2013-07-31 00:36:00,56.5,45.3,29.17,NE,45,0.0,0.0,66,0.00,,---,0.00,VWS V14.01,2013-07-31 04:36:00,
2013-07-31 00:37:00,56.5,45.3,29.17,NE,45,0.0,0.0,66,0.00,,---,0.00,VWS V14.01,2013-07-31 04:37:00,
2013-07-31 00:38:00,56.3,45.1,29.17,NE,45,0.0,0.0,66,0.00,,---,0.00,VWS V14.01,2013-07-31 04:38:00,
2013-07-31 00:39:00,56.3,45.1,29.17,NE,45,0.0,0.0,66,0.00,,---,0.00,VWS V14.01,2013-07-31 04:39:00,
2013-07-31 00:40:00,56.3,45.5,29.17,NE,45,0.0,0.0,67,0.00,,---,0.00,VWS V14.01,2013-07-31 04:40:00,
2013-07-31 00:41:00,56.3,45.5,29.17,NE,45,0.0,0.0,67,0.00,,---,0.00,VWS V14.01,2013-07-31 04:41:00,
2013-07-31 00:42:00,56.3,45.5,29.17,NE,45,0.0,0.0,67,0.00,,---,0.00,VWS V14.01,2013-07-31 04:42:00,
2013-07-31 00:43:00,56.1,45.3,29.17,NE,45,0.0,0.0,67,0.00,,---,0.00,VWS V14.01,2013-07-31 04:43:00,
2013-07-31 00:44:00,56.1,45.3,29.17,NE,45,0.0,0.0,67,0.00,,---,0.00,VWS V14.01,2013-07-31 04:44:00,
2013-07-31 00:45:00,56.1,45.3,29.17,NE,45,0.0,0.0,67,0.00,,---,0.00,VWS V14.01,2013-07-31 04:45:00,
2013-07-31 00:46:00,56.1,45.3,29.17,NE,45,0.0,0.0,67,0.00,,---,0.00,VWS V14.01,2013-07-31 04:46:00,
2013-07-31 00:47:00,55.9,44.8,29.17,NE,45,0.0,0.0,66,0.00,,---,0.00,VWS V14.01,2013-07-31 04:47:00,
2013-07-31 00:48:00,55.9,44.8,29.17,NE,45,0.0,0.0,66,0.00,,---,0.00,VWS V14.01,2013-07-31 04:48:00,
2013-07-31 00:49:00,55.9,44.8,29.17,NE,45,0.0,0.0,66,0.00,,---,0.00,VWS V14.01,2013-07-31 04:49:00,
2013-07-31 00:50:00,55.9,44.8,29.17,NE,45,0.0,0.0,66,0.00,,---,0.00,VWS V14.01,2013-07-31 04:50:00,
2013-07-31 00:51:00,55.9,44.8,29.17,NE,45,0.0,0.0,66,0.00,,---,0.00,VWS V14.01,2013-07-31 04:51:00,
2013-07-31 00:52:00,55.9,44.8,29.17,NE,45,0.0,0.0,66,0.00,,---,0.00,VWS V14.01,2013-07-31 04:52:00,
2013-07-31 00:53:00,55.9,44.8,29.17,NE,45,0.0,0.0,66,0.00,,---,0.00,VWS V14.01,2013-07-31 04:53:00,
2013-07-31 00:54:00,55.8,44.6,29.17,NE,45,0.0,0.0,66,0.00,,---,0.00,VWS V14.01,2013-07-31 04:54:00,
2013-07-31 00:55:00,55.8,44.6,29.17,NE,45,0.0,0.0,66,0.00,,---,0.00,VWS V14.01,2013-07-31 04:55:00,
2013-07-31 00:56:00,55.8,44.6,29.17,NE,45,0.0,0.0,66,0.00,,---,0.00,VWS V14.01,2013-07-31 04:56:00,
2013-07-31 00:57:00,55.8,44.6,29.17,NE,45,0.0,0.0,66,0.00,,---,0.00,VWS V14.01,2013-07-31 04:57:00,
2013-07-31 00:58:00,55.6,44.4,29.17,NE,45,0.0,0.0,66,0.00,,---,0.00,VWS V14.01,2013-07-31 04:58:00,
2013-07-31 00:59:00,55.6,44.4,29.17,NE,45,0.0,0.0,66,0.00,,---,0.00,VWS V14.01,2013-07-31 04:59:00,
2013-07-31 01:00:00,55.6,44.4,29.17,NE,45,0.0,0.0,66,0.00,,---,0.00,VWS V14.01,2013-07-31 05:00:00,
2013-07-31 01:01:00,55.6,44.4,29.17,NE,45,0.0,0.0,66,0.00,,---,0.00,VWS V14.01,2013-07-31 05:01:00,
2013-07-31 01:02:00,55.6,44.4,29.17,NE,45,0.0,0.0,66,0.00,,---,0.00,VWS V14.01,2013-07-31 05:02:00,
2013-07-31 01:03:00,55.6,44.4,29.17,NE,45,0.0,0.0,66,0.00,,---,0.00,VWS V14.01,2013-07-31 05:03:00,
2013-07-31 01:04:00,55.6,44.8,29.17,NE,45,0.0,0.0,67,0.00,,---,0.00,VWS V14.01,2013-07-31 05:04:00,
2013-07-31 01:05:00,55.6,44.8,29.17,NE,45,0.0,0.0,67,0.00,,---,0.00,VWS V14.01,2013-07-31 05:05:00,
2013-07-31 01:06:00,55.6,44.8,29.17,NE,45,0.0,0.0,67,0.00,,---,0.00,VWS V14.01,2013-07-31 05:06:00,
2013-07-31 01:07:00,55.6,44.8,29.17,NE,45,0.0,0.0,67,0.00,,---,0.00,VWS V14.01,2013-07-31 05:07:00,
2013-07-31 01:08:00,55.6,44.8,29.17,NE,45,0.0,0.0,67,0.00,,---,0.00,VWS V14.01,2013-07-31 05:08:00,
2013-07-31 01:09:00,55.6,44.8,29.17,NE,45,0.0,0.0,67,0.00,,---,0.00,VWS V14.01,2013-07-31 05:09:00,
2013-07-31 01:10:00,55.4,44.2,29.17,NE,45,0.0,0.0,66,0.00,,---,0.00,VWS V14.01,2013-07-31 05:10:00,
2013-07-31 01:11:00,55.4,44.2,29.17,NE,45,0.0,0.0,66,0.00,,---,0.00,VWS V14.01,2013-07-31 05:11:00,
2013-07-31 01:12:00,55.6,44.4,29.17,NE,45,0.0,0.0,66,0.00,,---,0.00,VWS V14.01,2013-07-31 05:12:00,
2013-07-31 01:13:00,55.4,44.2,29.17,NE,45,0.0,0.0,66,0.00,,---,0.00,VWS V14.01,2013-07-31 05:13:00,
2013-07-31 01:14:00,55.4,44.2,29.17,NE,45,0.0,0.0,66,0.00,,---,0.00,VWS V14.01,2013-07-31 05:14:00,
2013-07-31 01:15:00,55.4,44.2,29.17,NE,45,0.0,0.0,66,0.00,,---,0.00,VWS V14.01,2013-07-31 05:15:00,
2013-07-31 01:16:00,55.4,44.2,29.17,NE,45,0.0,0.0,66,0.00,,---,0.00,VWS V14.01,2013-07-31 05:16:00,
2013-07-31 01:17:00,55.4,44.2,29.17,NE,45,0.0,0.0,66,0.00,,---,0.00,VWS V14.01,2013-07-31 05:17:00,
2013-07-31 01:18:00,55.4,44.2,29.17,NE,45,0.0,0.0,66,0.00,,---,0.00,VWS V14.01,2013-07-31 05:18:00,
2013-07-31 01:19:00,55.4,44.6,29.17,NE,45,0.0,0.0,67,0.00,,---,0.00,VWS V14.01,2013-07-31 05:19:00,
2013-07-31 01:20:00,55.2,44.5,29.17,NE,45,0.0,0.0,67,0.00,,---,0.00,VWS V14.01,2013-07-31 05:20:00,
2013-07-31 01:21:00,55.2,44.5,29.17,NE,45,0.0,0.0,67,0.00,,---,0.00,VWS V14.01,2013-07-31 05:21:00,
2013-07-31 01:22:00,55.2,44.5,29.17,NE,45,0.0,0.0,67,0.00,,---,0.00,VWS V14.01,2013-07-31 05:22:00,
2013-07-31 01:23:00,55.2,44.5,29.17,NE,45,0.0,0.0,67,0.00,,---,0.00,VWS V14.01,2013-07-31 05:23:00,
2013-07-31 01:24:00,55.0,44.3,29.17,NE,45,0.0,0.0,67,0.00,,---,0.00,VWS V14.01,2013-07-31 05:24:00,
2013-07-31 01:25:00,55.0,44.3,29.17,NE,45,0.0,0.0,67,0.00,,---,0.00,VWS V14.01,2013-07-31 05:25:00,
2013-07-31 01:26:00,55.0,44.3,29.17,NE,45,0.0,0.0,67,0.00,,---,0.00,VWS V14.01,2013-07-31 05:26:00,
2013-07-31 01:27:00,54.9,44.1,29.17,NE,45,0.0,0.0,67,0.00,,---,0.00,VWS V14.01,2013-07-31 05:27:00,
2013-07-31 01:28:00,54.9,44.1,29.17,NE,45,0.0,0.0,67,0.00,,---,0.00,VWS V14.01,2013-07-31 05:28:00,
2013-07-31 01:29:00,54.9,44.1,29.17,NE,45,0.0,0.0,67,0.00,,---,0.00,VWS V14.01,2013-07-31 05:29:00,
2013-07-31 01:30:00,54.9,44.1,29.17,NE,45,0.0,0.0,67,0.00,,---,0.00,VWS V14.01,2013-07-31 05:30:00,
2013-07-31 01:31:00,54.9,44.1,29.17,NE,45,0.0,0.0,67,0.00,,---,0.00,VWS V14.01,2013-07-31 05:31:00,
2013-07-31 01:32:00,54.9,44.1,29.17,NE,45,0.0,0.0,67,0.00,,---,0.00,VWS V14.01,2013-07-31 05:32:00,
2013-07-31 01:33:00,54.9,44.5,29.17,NE,45,0.0,0.0,68,0.00,,---,0.00,VWS V14.01,2013-07-31 05:33:00,
2013-07-31 01:34:00,54.9,44.5,29.17,NE,45,0.0,0.0,68,0.00,,---,0.00,VWS V14.01,2013-07-31 05:34:00,
2013-07-31 01:35:00,54.9,44.5,29.17,NE,45,0.0,0.0,68,0.00,,---,0.00,VWS V14.01,2013-07-31 05:35:00,
2013-07-31 01:36:00,54.9,44.5,29.17,NE,45,0.0,0.0,68,0.00,,---,0.00,VWS V14.01,2013-07-31 05:36:00,
2013-07-31 01:37:00,54.7,44.3,29.17,NE,45,0.0,0.0,68,0.00,,---,0.00,VWS V14.01,2013-07-31 05:37:00,
2013-07-31 01:38:00,54.7,44.3,29.17,NE,45,0.0,0.0,68,0.00,,---,0.00,VWS V14.01,2013-07-31 05:38:00,
2013-07-31 01:39:00,54.7,44.3,29.17,NE,45,0.0,0.0,68,0.00,,---,0.00,VWS V14.01,2013-07-31 05:39:00,
2013-07-31 01:40:00,54.7,44.7,29.17,NE,45,0.0,0.0,69,0.00,,---,0.00,VWS V14.01,2013-07-31 05:40:00,
2013-07-31 01:41:00,54.7,44.7,29.17,NE,45,0.0,0.0,69,0.00,,---,0.00,VWS V14.01,2013-07-31 05:41:00,
2013-07-31 01:42:00,54.7,44.7,29.17,NE,45,0.0,0.0,69,0.00,,---,0.00,VWS V14.01,2013-07-31 05:42:00,
2013-07-31 01:43:00,54.7,44.7,29.17,NE,45,0.0,0.0,69,0.00,,---,0.00,VWS V14.01,2013-07-31 05:43:00,
2013-07-31 01:44:00,54.7,44.7,29.17,NE,45,0.0,0.0,69,0.00,,---,0.00,VWS V14.01,2013-07-31 05:44:00,
2013-07-31 01:45:00,54.7,44.7,29.17,NE,45,0.0,0.0,69,0.00,,---,0.00,VWS V14.01,2013-07-31 05:45:00,
2013-07-31 01:46:00,54.7,44.7,29.17,NE,45,0.0,0.0,69,0.00,,---,0.00,VWS V14.01,2013-07-31 05:46:00,
2013-07-31 01:47:00,54.5,44.5,29.17,NE,45,0.0,0.0,69,0.00,,---,0.00,VWS V14.01,2013-07-31 05:47:00,
2013-07-31 01:48:00,54.5,44.5,29.17,NE,45,0.0,0.0,69,0.00,,---,0.00,VWS V14.01,2013-07-31 05:48:00,
2013-07-31 01:49:00,54.7,44.7,29.17,NE,45,0.0,0.0,69,0.00,,---,0.00,VWS V14.01,2013-07-31 05:49:00,
2013-07-31 01:50:00,54.7,44.7,29.17,NE,45,0.0,0.0,69,0.00,,---,0.00,VWS V14.01,2013-07-31 05:50:00,
2013-07-31 01:51:00,54.7,44.7,29.17,NE,45,0.0,0.0,69,0.00,,---,0.00,VWS V14.01,2013-07-31 05:51:00,
2013-07-31 01:52:00,54.7,44.7,29.17,NE,45,0.0,0.0,69,0.00,,---,0.00,VWS V14.01,2013-07-31 05:52:00,
2013-07-31 01:53:00,54.7,44.7,29.17,NE,45,0.0,0.0,69,0.00,,---,0.00,VWS V14.01,2013-07-31 05:53:00,
2013-07-31 01:54:00,54.9,44.9,29.17,NE,45,0.0,0.0,69,0.00,,---,0.00,VWS V14.01,2013-07-31 05:54:00,
2013-07-31 01:55:00,54.9,44.9,29.17,NE,45,0.0,0.0,69,0.00,,---,0.00,VWS V14.01,2013-07-31 05:55:00,
2013-07-31 01:56:00,54.9,44.9,29.17,NE,45,0.0,0.0,69,0.00,,---,0.00,VWS V14.01,2013-07-31 05:56:00,
2013-07-31 01:57:00,54.9,44.9,29.17,NE,45,0.0,0.0,69,0.00,,---,0.00,VWS V14.01,2013-07-31 05:57:00,
2013-07-31 01:58:00,54.9,44.9,29.17,NE,45,0.0,0.0,69,0.00,,---,0.00,VWS V14.01,2013-07-31 05:58:00,
2013-07-31 01:59:00,54.9,44.9,29.17,NE,45,0.0,0.0,69,0.00,,---,0.00,VWS V14.01,2013-07-31 05:59:00,
2013-07-31 02:00:00,54.9,44.9,29.17,NE,45,0.0,0.0,69,0.00,,---,0.00,VWS V14.01,2013-07-31 06:00:00,
2013-07-31 02:01:00,54.9,44.9,29.17,NE,45,0.0,0.0,69,0.00,,---,0.00,VWS V14.01,2013-07-31 06:01:00,
2013-07-31 02:02:00,54.9,44.9,29.17,NE,45,0.0,0.0,69,0.00,,---,0.00,VWS V14.01,2013-07-31 06:02:00,
2013-07-31 02:03:00,54.9,44.9,29.17,NE,45,0.0,0.0,69,0.00,,---,0.00,VWS V14.01,2013-07-31 06:03:00,
2013-07-31 02:04:00,54.9,44.9,29.17,NE,45,0.0,0.0,69,0.00,,---,0.00,VWS V14.01,2013-07-31 06:04:00,
2013-07-31 02:05:00,54.9,44.9,29.17,NE,45,0.0,0.0,69,0.00,,---,0.00,VWS V14.01,2013-07-31 06:05:00,
2013-07-31 02:06:00,54.9,44.9,29.17,NE,45,0.0,0.0,69,0.00,,---,0.00,VWS V14.01,2013-07-31 06:06:00,
2013-07-31 02:07:00,54.9,44.9,29.17,NE,45,0.0,0.0,69,0.00,,---,0.00,VWS V14.01,2013-07-31 06:07:00,
2013-07-31 02:08:00,54.9,44.9,29.17,NE,45,0.0,0.0,69,0.00,,---,0.00,VWS V14.01,2013-07-31 06:08:00,
2013-07-31 02:09:00,54.9,44.9,29.17,NE,45,0.0,0.0,69,0.00,,---,0.00,VWS V14.01,2013-07-31 06:09:00,
2013-07-31 02:10:00,54.9,44.9,29.17,NE,45,0.0,0.0,69,0.00,,---,0.00,VWS V14.01,2013-07-31 06:10:00,
2013-07-31 02:11:00,54.9,44.9,29.17,NE,45,0.0,0.0,69,0.00,,---,0.00,VWS V14.01,2013-07-31 06:11:00,
2013-07-31 02:12:00,54.9,44.9,29.17,NE,45,0.0,0.0,69,0.00,,---,0.00,VWS V14.01,2013-07-31 06:12:00,
2013-07-31 02:13:00,54.9,44.9,29.17,NE,45,0.0,0.0,69,0.00,,---,0.00,VWS V14.01,2013-07-31 06:13:00,
2013-07-31 02:14:00,54.9,44.9,29.17,NE,45,0.0,0.0,69,0.00,,---,0.00,VWS V14.01,2013-07-31 06:14:00,
2013-07-31 02:15:00,54.9,44.9,29.17,NE,45,0.0,0.0,69,0.00,,---,0.00,VWS V14.01,2013-07-31 06:15:00,
2013-07-31 02:16:00,54.9,44.9,29.17,NE,45,0.0,0.0,69,0.00,,---,0.00,VWS V14.01,2013-07-31 06:16:00,
2013-07-31 02:17:00,54.9,44.9,29.17,NE,45,0.0,0.0,69,0.00,,---,0.00,VWS V14.01,2013-07-31 06:17:00,
2013-07-31 02:18:00,54.9,44.9,29.17,NE,45,0.0,0.0,69,0.00,,---,0.00,VWS V14.01,2013-07-31 06:18:00,
2013-07-31 02:19:00,54.9,44.9,29.17,NE,45,0.0,0.0,69,0.00,,---,0.00,VWS V14.01,2013-07-31 06:19:00,
2013-07-31 02:20:00,54.7,44.7,29.17,NE,45,0.0,0.0,69,0.00,,---,0.00,VWS V14.01,2013-07-31 06:20:00,
2013-07-31 02:21:00,54.7,44.7,29.17,NE,45,0.0,0.0,69,0.00,,---,0.00,VWS V14.01,2013-07-31 06:21:00,
2013-07-31 02:22:00,54.7,44.7,29.17,NE,45,0.0,0.0,69,0.00,,---,0.00,VWS V14.01,2013-07-31 06:22:00,
2013-07-31 02:23:00,54.7,44.7,29.17,NE,45,0.0,0.0,69,0.00,,---,0.00,VWS V14.01,2013-07-31 06:23:00,
2013-07-31 02:24:00,54.7,44.7,29.17,NE,45,0.0,0.0,69,0.00,,---,0.00,VWS V14.01,2013-07-31 06:24:00,
2013-07-31 02:25:00,54.7,44.7,29.17,NE,45,0.0,0.0,69,0.00,,---,0.00,VWS V14.01,2013-07-31 06:25:00,
2013-07-31 02:26:00,54.7,44.7,29.17,NE,45,0.0,0.0,69,0.00,,---,0.00,VWS V14.01,2013-07-31 06:26:00,
2013-07-31 02:27:00,54.7,44.7,29.17,NE,45,0.0,0.0,69,0.00,,---,0.00,VWS V14.01,2013-07-31 06:27:00,
2013-07-31 02:28:00,54.7,44.7,29.17,NE,45,0.0,0.0,69,0.00,,---,0.00,VWS V14.01,2013-07-31 06:28:00,
2013-07-31 02:29:00,54.7,44.7,29.17,NE,45,0.0,0.0,69,0.00,,---,0.00,VWS V14.01,2013-07-31 06:29:00,
2013-07-31 02:30:00,54.7,44.7,29.17,NE,45,0.0,0.0,69,0.00,,---,0.00,VWS V14.01,2013-07-31 06:30:00,
2013-07-31 02:31:00,54.7,44.7,29.17,NE,45,0.0,0.0,69,0.00,,---,0.00,VWS V14.01,2013-07-31 06:31:00,
2013-07-31 02:32:00,54.7,44.7,29.17,NE,45,0.0,0.0,69,0.00,,---,0.00,VWS V14.01,2013-07-31 06:32:00,
2013-07-31 02:33:00,54.7,44.7,29.17,NE,45,0.0,0.0,69,0.00,,---,0.00,VWS V14.01,2013-07-31 06:33:00,
2013-07-31 02:34:00,54.7,44.7,29.17,NE,45,0.0,0.0,69,0.00,,---,0.00,VWS V14.01,2013-07-31 06:34:00,
2013-07-31 02:35:00,54.7,44.7,29.17,NE,45,0.0,0.0,69,0.00,,---,0.00,VWS V14.01,2013-07-31 06:35:00,
2013-07-31 02:36:00,54.7,44.7,29.17,NE,45,0.0,0.0,69,0.00,,---,0.00,VWS V14.01,2013-07-31 06:36:00,
2013-07-31 02:37:00,54.7,44.7,29.17,NE,45,0.0,0.0,69,0.00,,---,0.00,VWS V14.01,2013-07-31 06:37:00,
2013-07-31 02:38:00,54.7,44.7,29.17,NE,45,0.0,0.0,69,0.00,,---,0.00,VWS V14.01,2013-07-31 06:38:00,
2013-07-31 02:39:00,54.7,44.7,29.17,NE,45,0.0,0.0,69,0.00,,---,0.00,VWS V14.01,2013-07-31 06:39:00,
2013-07-31 02:40:00,54.9,44.9,29.17,NE,45,0.0,0.0,69,0.00,,---,0.00,VWS V14.01,2013-07-31 06:40:00,
2013-07-31 02:41:00,54.9,44.9,29.17,NE,45,0.0,0.0,69,0.00,,---,0.00,VWS V14.01,2013-07-31 06:41:00,
2013-07-31 02:42:00,54.9,44.9,29.17,NE,45,0.0,0.0,69,0.00,,---,0.00,VWS V14.01,2013-07-31 06:42:00,
2013-07-31 02:43:00,54.9,44.9,29.17,NE,45,0.0,0.0,69,0.00,,---,0.00,VWS V14.01,2013-07-31 06:43:00,
2013-07-31 02:44:00,54.9,45.3,29.17,NE,45,0.0,0.0,70,0.00,,---,0.00,VWS V14.01,2013-07-31 06:44:00,
2013-07-31 02:45:00,54.9,45.3,29.17,NE,45,0.0,0.0,70,0.00,,---,0.00,VWS V14.01,2013-07-31 06:45:00,
2013-07-31 02:46:00,54.9,45.3,29.17,NE,45,0.0,0.0,70,0.00,,---,0.00,VWS V14.01,2013-07-31 06:46:00,
2013-07-31 02:47:00,54.9,45.3,29.17,NE,45,0.0,0.0,70,0.00,,---,0.00,VWS V14.01,2013-07-31 06:47:00,
2013-07-31 02:48:00,54.9,45.3,29.17,NE,45,0.0,0.0,70,0.00,,---,0.00,VWS V14.01,2013-07-31 06:48:00,
2013-07-31 02:49:00,55.0,45.5,29.17,NE,45,0.0,0.0,70,0.00,,---,0.00,VWS V14.01,2013-07-31 06:49:00,
2013-07-31 02:50:00,55.0,45.5,29.17,NE,45,0.0,0.0,70,0.00,,---,0.00,VWS V14.01,2013-07-31 06:50:00,
2013-07-31 02:51:00,55.0,45.5,29.17,NE,45,0.0,0.0,70,0.00,,---,0.00,VWS V14.01,2013-07-31 06:51:00,
2013-07-31 02:52:00,55.0,45.5,29.17,NE,45,0.0,0.0,70,0.00,,---,0.00,VWS V14.01,2013-07-31 06:52:00,
2013-07-31 02:53:00,55.0,45.5,29.17,NE,45,0.0,0.0,70,0.00,,---,0.00,VWS V14.01,2013-07-31 06:53:00,
2013-07-31 02:54:00,55.0,45.5,29.17,NE,45,0.0,0.0,70,0.00,,---,0.00,VWS V14.01,2013-07-31 06:54:00,
2013-07-31 02:55:00,55.0,45.5,29.17,NE,45,0.0,0.0,70,0.00,,---,0.00,VWS V14.01,2013-07-31 06:55:00,
2013-07-31 02:56:00,55.0,45.5,29.17,NE,45,0.0,0.0,70,0.00,,---,0.00,VWS V14.01,2013-07-31 06:56:00,
2013-07-31 02:57:00,55.0,45.5,29.17,NE,45,0.0,0.0,70,0.00,,---,0.00,VWS V14.01,2013-07-31 06:57:00,
2013-07-31 02:58:00,55.0,45.5,29.17,NE,45,0.0,0.0,70,0.00,,---,0.00,VWS V14.01,2013-07-31 06:58:00,
2013-07-31 02:59:00,55.0,45.5,29.17,NE,45,0.0,0.0,70,0.00,,---,0.00,VWS V14.01,2013-07-31 06:59:00,
2013-07-31 03:00:00,55.0,45.5,29.17,NE,45,0.0,0.0,70,0.00,,---,0.00,VWS V14.01,2013-07-31 07:00:00,
2013-07-31 03:01:00,54.9,45.3,29.17,NE,45,0.0,0.0,70,0.00,,---,0.00,VWS V14.01,2013-07-31 07:01:00,
2013-07-31 03:02:00,54.9,45.3,29.17,NE,45,0.0,0.0,70,0.00,,---,0.00,VWS V14.01,2013-07-31 07:02:00,
2013-07-31 03:03:00,55.0,45.5,29.17,NE,45,0.0,0.0,70,0.00,,---,0.00,VWS V14.01,2013-07-31 07:03:00,
2013-07-31 03:04:00,55.0,45.5,29.17,NE,45,0.0,0.0,70,0.00,,---,0.00,VWS V14.01,2013-07-31 07:04:00,
2013-07-31 03:05:00,54.9,45.3,29.17,NE,45,0.0,0.0,70,0.00,,---,0.00,VWS V14.01,2013-07-31 07:05:00,
2013-07-31 03:06:00,54.9,45.3,29.17,NE,45,0.0,0.0,70,0.00,,---,0.00,VWS V14.01,2013-07-31 07:06:00,
2013-07-31 03:07:00,54.9,45.3,29.17,NE,45,0.0,0.0,70,0.00,,---,0.00,VWS V14.01,2013-07-31 07:07:00,
2013-07-31 03:08:00,54.9,45.3,29.17,NE,45,0.0,0.0,70,0.00,,---,0.00,VWS V14.01,2013-07-31 07:08:00,
2013-07-31 03:09:00,54.9,45.3,29.17,NE,45,0.0,0.0,70,0.00,,---,0.00,VWS V14.01,2013-07-31 07:09:00,
2013-07-31 03:10:00,54.9,45.3,29.17,NE,45,0.0,0.0,70,0.00,,---,0.00,VWS V14.01,2013-07-31 07:10:00,
2013-07-31 03:11:00,54.9,45.3,29.17,NE,45,0.0,0.0,70,0.00,,---,0.00,VWS V14.01,2013-07-31 07:11:00,
2013-07-31 03:12:00,55.0,45.5,29.17,NE,45,0.0,0.0,70,0.00,,---,0.00,VWS V14.01,2013-07-31 07:12:00,
2013-07-31 03:13:00,55.0,45.5,29.17,NE,45,0.0,0.0,70,0.00,,---,0.00,VWS V14.01,2013-07-31 07:13:00,
2013-07-31 03:14:00,55.0,45.5,29.17,NE,45,0.0,0.0,70,0.00,,---,0.00,VWS V14.01,2013-07-31 07:14:00,
2013-07-31 03:15:00,55.2,46.0,29.17,NE,45,0.0,0.0,71,0.00,,---,0.00,VWS V14.01,2013-07-31 07:15:00,
2013-07-31 03:16:00,55.2,46.0,29.17,NE,45,0.0,0.0,71,0.00,,---,0.00,VWS V14.01,2013-07-31 07:16:00,
2013-07-31 03:17:00,55.2,46.0,29.17,NE,45,0.0,0.0,71,0.00,,---,0.00,VWS V14.01,2013-07-31 07:17:00,
2013-07-31 03:18:00,55.2,46.0,29.17,NE,45,0.0,0.0,71,0.00,,---,0.00,VWS V14.01,2013-07-31 07:18:00,
2013-07-31 03:19:00,55.2,46.0,29.17,NE,45,0.0,0.0,71,0.00,,---,0.00,VWS V14.01,2013-07-31 07:19:00,
2013-07-31 03:20:00,55.2,46.4,29.17,NE,45,0.0,0.0,72,0.00,,---,0.00,VWS V14.01,2013-07-31 07:20:00,
2013-07-31 03:21:00,55.2,46.4,29.17,NE,45,0.0,0.0,72,0.00,,---,0.00,VWS V14.01,2013-07-31 07:21:00,
2013-07-31 03:22:00,55.2,46.4,29.17,NE,45,0.0,0.0,72,0.00,,---,0.00,VWS V14.01,2013-07-31 07:22:00,
2013-07-31 03:23:00,55.2,46.4,29.17,NE,45,0.0,0.0,72,0.00,,---,0.00,VWS V14.01,2013-07-31 07:23:00,
2013-07-31 03:24:00,55.2,46.4,29.17,NE,45,0.0,0.0,72,0.00,,---,0.00,VWS V14.01,2013-07-31 07:24:00,
2013-07-31 03:25:00,55.2,46.4,29.17,NE,45,0.0,0.0,72,0.00,,---,0.00,VWS V14.01,2013-07-31 07:25:00,
2013-07-31 03:26:00,55.2,46.4,29.17,NE,45,0.0,0.0,72,0.00,,---,0.00,VWS V14.01,2013-07-31 07:26:00,
2013-07-31 03:27:00,55.2,46.4,29.17,NE,45,0.0,0.0,72,0.00,,---,0.00,VWS V14.01,2013-07-31 07:27:00,
2013-07-31 03:28:00,55.4,46.5,29.17,NE,45,0.0,0.0,72,0.00,,---,0.00,VWS V14.01,2013-07-31 07:28:00,
2013-07-31 03:29:00,55.4,46.5,29.17,NE,45,0.0,0.0,72,0.00,,---,0.00,VWS V14.01,2013-07-31 07:29:00,
2013-07-31 03:30:00,55.4,46.5,29.17,NE,45,0.0,0.0,72,0.00,,---,0.00,VWS V14.01,2013-07-31 07:30:00,
2013-07-31 03:31:00,55.4,46.5,29.17,NE,45,0.0,0.0,72,0.00,,---,0.00,VWS V14.01,2013-07-31 07:31:00,
2013-07-31 03:32:00,55.4,46.5,29.17,NE,45,0.0,0.0,72,0.00,,---,0.00,VWS V14.01,2013-07-31 07:32:00,
2013-07-31 03:33:00,55.4,46.5,29.17,NE,45,0.0,0.0,72,0.00,,---,0.00,VWS V14.01,2013-07-31 07:33:00,
2013-07-31 03:34:00,55.4,46.5,29.17,NE,45,0.0,0.0,72,0.00,,---,0.00,VWS V14.01,2013-07-31 07:34:00,
2013-07-31 03:35:00,55.2,46.4,29.17,NE,45,0.0,0.0,72,0.00,,---,0.00,VWS V14.01,2013-07-31 07:35:00,
2013-07-31 03:36:00,55.2,46.4,29.17,NE,45,0.0,0.0,72,0.00,,---,0.00,VWS V14.01,2013-07-31 07:36:00,
2013-07-31 03:37:00,55.2,46.4,29.17,NE,45,0.0,0.0,72,0.00,,---,0.00,VWS V14.01,2013-07-31 07:37:00,
2013-07-31 03:38:00,55.2,46.4,29.17,NE,45,0.0,0.0,72,0.00,,---,0.00,VWS V14.01,2013-07-31 07:38:00,
2013-07-31 03:39:00,55.2,46.4,29.17,NE,45,0.0,0.0,72,0.00,,---,0.00,VWS V14.01,2013-07-31 07:39:00,
2013-07-31 03:40:00,55.0,46.2,29.17,NE,45,0.0,0.0,72,0.00,,---,0.00,VWS V14.01,2013-07-31 07:40:00,
2013-07-31 03:41:00,55.0,46.2,29.17,NE,45,0.0,0.0,72,0.00,,---,0.00,VWS V14.01,2013-07-31 07:41:00,
2013-07-31 03:42:00,55.0,46.2,29.17,NE,45,0.0,0.0,72,0.00,,---,0.00,VWS V14.01,2013-07-31 07:42:00,
2013-07-31 03:43:00,54.9,46.0,29.17,NE,45,0.0,0.0,72,0.00,,---,0.00,VWS V14.01,2013-07-31 07:43:00,
2013-07-31 03:44:00,54.9,46.0,29.17,NNE,22,0.0,0.0,72,0.00,,---,0.00,VWS V14.01,2013-07-31 07:44:00,
2013-07-31 03:45:00,54.9,46.0,29.17,NNE,22,0.0,0.0,72,0.00,,---,0.00,VWS V14.01,2013-07-31 07:45:00,
2013-07-31 03:46:00,54.9,46.0,29.17,NNE,22,0.0,0.0,72,0.00,,---,0.00,VWS V14.01,2013-07-31 07:46:00,
2013-07-31 03:47:00,54.9,46.0,29.17,NNE,22,0.0,0.0,72,0.00,,---,0.00,VWS V14.01,2013-07-31 07:47:00,
2013-07-31 03:48:00,54.9,46.0,29.17,NNE,22,0.0,0.0,72,0.00,,---,0.00,VWS V14.01,2013-07-31 07:48:00,
2013-07-31 03:49:00,54.9,46.0,29.17,NNE,22,0.0,0.0,72,0.00,,---,0.00,VWS V14.01,2013-07-31 07:49:00,
2013-07-31 03:50:00,54.9,46.0,29.17,NNE,22,0.0,0.0,72,0.00,,---,0.00,VWS V14.01,2013-07-31 07:50:00,
2013-07-31 03:51:00,54.9,46.0,29.17,North,0,0.0,0.0,72,0.00,,---,0.00,VWS V14.01,2013-07-31 07:51:00,
2013-07-31 03:52:00,55.0,46.2,29.17,North,0,0.0,0.0,72,0.00,,---,0.00,VWS V14.01,2013-07-31 07:52:00,
2013-07-31 03:53:00,55.0,46.2,29.17,North,0,0.0,0.0,72,0.00,,---,0.00,VWS V14.01,2013-07-31 07:53:00,
2013-07-31 03:54:00,55.0,46.6,29.17,North,0,0.0,0.0,73,0.00,,---,0.00,VWS V14.01,2013-07-31 07:54:00,
2013-07-31 03:55:00,55.0,46.5,29.17,North,0,0.0,0.0,73,0.00,,---,0.00,VWS V14.01,2013-07-31 07:55:00,
2013-07-31 03:56:00,55.0,46.6,29.17,North,0,0.0,0.0,73,0.00,,---,0.00,VWS V14.01,2013-07-31 07:56:00,
2013-07-31 03:57:00,55.0,46.6,29.17,North,0,0.0,0.0,73,0.00,,---,0.00,VWS V14.01,2013-07-31 07:57:00,
2013-07-31 03:58:00,55.2,46.4,29.17,North,0,0.0,0.0,72,0.00,,---,0.00,VWS V14.01,2013-07-31 07:58:00,
2013-07-31 03:59:00,55.2,46.4,29.17,North,0,0.0,0.0,72,0.00,,---,0.00,VWS V14.01,2013-07-31 07:59:00,
2013-07-31 04:00:00,55.2,46.4,29.17,North,0,0.0,0.0,72,0.00,,---,0.00,VWS V14.01,2013-07-31 08:00:00,
2013-07-31 04:01:00,55.2,46.4,29.17,North,0,0.0,0.0,72,0.00,,---,0.00,VWS V14.01,2013-07-31 08:01:00,
2013-07-31 04:02:00,55.2,46.4,29.17,North,0,0.0,0.0,72,0.00,,---,0.00,VWS V14.01,2013-07-31 08:02:00,
2013-07-31 04:03:00,55.0,46.2,29.17,NNE,22,0.0,0.0,72,0.00,,---,0.00,VWS V14.01,2013-07-31 08:03:00,
2013-07-31 04:04:00,55.0,46.2,29.17,NNE,22,0.0,0.0,72,0.00,,---,0.00,VWS V14.01,2013-07-31 08:04:00,
2013-07-31 04:05:00,55.0,46.2,29.17,NNE,22,0.0,0.0,72,0.00,,---,0.00,VWS V14.01,2013-07-31 08:05:00,
2013-07-31 04:06:00,55.0,46.2,29.17,NE,45,0.0,0.0,72,0.00,,---,0.00,VWS V14.01,2013-07-31 08:06:00,
2013-07-31 04:07:00,55.0,46.2,29.17,NE,45,0.0,0.0,72,0.00,,---,0.00,VWS V14.01,2013-07-31 08:07:00,
2013-07-31 04:08:00,54.9,46.0,29.17,NE,45,0.0,0.0,72,0.00,,---,0.00,VWS V14.01,2013-07-31 08:08:00,
2013-07-31 04:09:00,54.9,46.0,29.17,ENE,68,0.0,0.0,72,0.00,,---,0.00,VWS V14.01,2013-07-31 08:09:00,
2013-07-31 04:10:00,54.9,46.0,29.17,ENE,68,0.0,0.0,72,0.00,,---,0.00,VWS V14.01,2013-07-31 08:10:00,
2013-07-31 04:11:00,54.9,46.0,29.17,ENE,68,0.0,0.0,72,0.00,,---,0.00,VWS V14.01,2013-07-31 08:11:00,
2013-07-31 04:12:00,54.9,46.0,29.17,ENE,68,0.0,0.0,72,0.00,,---,0.00,VWS V14.01,2013-07-31 08:12:00,
2013-07-31 04:13:00,54.9,46.0,29.17,ENE,68,0.0,0.0,72,0.00,,---,0.00,VWS V14.01,2013-07-31 08:13:00,
2013-07-31 04:14:00,54.9,46.0,29.17,ENE,68,0.0,0.0,72,0.00,,---,0.00,VWS V14.01,2013-07-31 08:14:00,
2013-07-31 04:15:00,54.7,45.8,29.17,ENE,68,0.0,0.0,72,0.00,,---,0.00,VWS V14.01,2013-07-31 08:15:00,
2013-07-31 04:16:00,54.7,45.8,29.17,ENE,68,0.0,0.0,72,0.00,,---,0.00,VWS V14.01,2013-07-31 08:16:00,
2013-07-31 04:17:00,54.7,45.8,29.17,NE,45,0.0,0.0,72,0.00,,---,0.00,VWS V14.01,2013-07-31 08:17:00,
2013-07-31 04:18:00,54.7,45.8,29.17,NNE,22,0.0,0.0,72,0.00,,---,0.00,VWS V14.01,2013-07-31 08:18:00,
2013-07-31 04:19:00,54.7,45.8,29.17,NNE,22,0.0,0.0,72,0.00,,---,0.00,VWS V14.01,2013-07-31 08:19:00,
2013-07-31 04:20:00,54.7,45.8,29.17,NNE,22,0.0,0.0,72,0.00,,---,0.00,VWS V14.01,2013-07-31 08:20:00,
2013-07-31 04:21:00,54.7,45.8,29.17,NNE,22,0.0,0.0,72,0.00,,---,0.00,VWS V14.01,2013-07-31 08:21:00,
2013-07-31 04:22:00,54.7,45.8,29.17,NNE,22,0.0,0.0,72,0.00,,---,0.00,VWS V14.01,2013-07-31 08:22:00,
2013-07-31 04:23:00,54.7,45.8,29.17,NNE,22,0.0,0.0,72,0.00,,---,0.00,VWS V14.01,2013-07-31 08:23:00,
2013-07-31 04:24:00,54.7,45.8,29.17,NNE,22,0.0,0.0,72,0.00,,---,0.00,VWS V14.01,2013-07-31 08:24:00,
2013-07-31 04:25:00,54.7,45.8,29.17,NNE,22,0.0,0.0,72,0.00,,---,0.00,VWS V14.01,2013-07-31 08:25:00,
2013-07-31 04:26:00,54.7,45.8,29.17,NNE,22,0.0,0.0,72,0.00,,---,0.00,VWS V14.01,2013-07-31 08:26:00,
2013-07-31 04:27:00,54.7,45.8,29.17,NNE,22,0.0,0.0,72,0.00,,---,0.00,VWS V14.01,2013-07-31 08:27:00,
2013-07-31 04:28:00,54.7,45.8,29.17,NNE,22,0.0,0.0,72,0.00,,---,0.00,VWS V14.01,2013-07-31 08:28:00,
2013-07-31 04:29:00,54.7,45.8,29.17,NNE,22,0.0,0.0,72,0.00,,---,0.00,VWS V14.01,2013-07-31 08:29:00,
2013-07-31 04:30:00,54.7,45.8,29.17,NNE,22,0.0,0.0,72,0.00,,---,0.00,VWS V14.01,2013-07-31 08:30:00,
2013-07-31 04:31:00,54.7,45.8,29.17,NNE,22,0.0,0.0,72,0.00,,---,0.00,VWS V14.01,2013-07-31 08:31:00,
2013-07-31 04:32:00,54.7,45.8,29.17,NNE,22,0.0,0.0,72,0.00,,---,0.00,VWS V14.01,2013-07-31 08:32:00,
2013-07-31 04:33:00,54.5,45.7,29.17,ENE,68,0.0,0.0,72,0.00,,---,0.00,VWS V14.01,2013-07-31 08:33:00,
2013-07-31 04:34:00,54.5,45.7,29.17,ENE,68,0.0,0.0,72,0.00,,---,0.00,VWS V14.01,2013-07-31 08:34:00,
2013-07-31 04:35:00,54.7,45.8,29.17,ENE,68,0.0,0.0,72,0.00,,---,0.00,VWS V14.01,2013-07-31 08:35:00,
2013-07-31 04:36:00,54.7,45.8,29.17,ENE,68,0.0,0.0,72,0.00,,---,0.00,VWS V14.01,2013-07-31 08:36:00,
2013-07-31 04:37:00,54.7,45.8,29.17,ESE,112,0.0,0.0,72,0.00,,---,0.00,VWS V14.01,2013-07-31 08:37:00,
2013-07-31 04:38:00,54.7,45.8,29.17,ESE,112,0.0,0.0,72,0.00,,---,0.00,VWS V14.01,2013-07-31 08:38:00,
2013-07-31 04:39:00,54.7,45.8,29.17,ESE,112,0.0,0.0,72,0.00,,---,0.00,VWS V14.01,2013-07-31 08:39:00,
2013-07-31 04:40:00,54.7,45.8,29.17,ESE,112,0.0,0.0,72,0.00,,---,0.00,VWS V14.01,2013-07-31 08:40:00,
2013-07-31 04:41:00,54.7,45.8,29.17,East,90,0.0,0.0,72,0.00,,---,0.00,VWS V14.01,2013-07-31 08:41:00,
2013-07-31 04:42:00,54.7,45.8,29.17,East,90,0.0,0.0,72,0.00,,---,0.00,VWS V14.01,2013-07-31 08:42:00,
2013-07-31 04:43:00,54.7,45.8,29.17,East,90,0.0,0.0,72,0.00,,---,0.00,VWS V14.01,2013-07-31 08:43:00,
2013-07-31 04:44:00,54.5,45.7,29.17,ESE,112,0.0,0.0,72,0.00,,---,0.00,VWS V14.01,2013-07-31 08:44:00,
2013-07-31 04:45:00,54.5,45.7,29.17,ENE,68,0.0,0.0,72,0.00,,---,0.00,VWS V14.01,2013-07-31 08:45:00,
2013-07-31 04:46:00,54.5,45.7,29.17,ENE,68,0.0,0.0,72,0.00,,---,0.00,VWS V14.01,2013-07-31 08:46:00,
2013-07-31 04:47:00,54.5,45.7,29.17,ENE,68,0.0,0.0,72,0.00,,---,0.00,VWS V14.01,2013-07-31 08:47:00,
2013-07-31 04:48:00,54.5,45.7,29.17,ENE,68,0.0,0.0,72,0.00,,---,0.00,VWS V14.01,2013-07-31 08:48:00,
2013-07-31 04:49:00,54.5,45.7,29.17,ENE,68,0.0,0.0,72,0.00,,---,0.00,VWS V14.01,2013-07-31 08:49:00,
2013-07-31 04:50:00,54.5,45.7,29.20,ENE,68,0.0,0.0,72,0.00,,---,0.00,VWS V14.01,2013-07-31 08:50:00,
2013-07-31 04:51:00,54.5,45.7,29.20,ENE,68,0.0,0.0,72,0.00,,---,0.00,VWS V14.01,2013-07-31 08:51:00,
2013-07-31 04:52:00,54.5,45.7,29.20,ENE,68,0.0,0.0,72,0.00,,---,0.00,VWS V14.01,2013-07-31 08:52:00,
2013-07-31 04:53:00,54.5,45.7,29.20,ENE,68,0.0,0.0,72,0.00,,---,0.00,VWS V14.01,2013-07-31 08:53:00,
2013-07-31 04:54:00,54.3,45.5,29.20,ENE,68,0.0,0.0,72,0.00,,---,0.00,VWS V14.01,2013-07-31 08:54:00,
2013-07-31 04:55:00,54.3,45.5,29.20,ENE,68,0.0,0.0,72,0.00,,---,0.00,VWS V14.01,2013-07-31 08:55:00,
2013-07-31 04:56:00,54.3,45.5,29.20,ENE,68,0.0,0.0,72,0.00,,---,0.00,VWS V14.01,2013-07-31 08:56:00,
2013-07-31 04:57:00,54.3,45.5,29.20,ENE,68,0.0,0.0,72,0.00,,---,0.00,VWS V14.01,2013-07-31 08:57:00,
2013-07-31 04:58:00,54.3,45.5,29.20,ENE,68,0.0,0.0,72,0.00,,---,0.00,VWS V14.01,2013-07-31 08:58:00,
2013-07-31 04:59:00,54.3,45.5,29.20,ENE,68,0.0,0.0,72,0.00,,---,0.00,VWS V14.01,2013-07-31 08:59:00,
2013-07-31 05:00:00,54.3,45.5,29.20,ENE,68,0.0,0.0,72,0.00,,---,0.00,VWS V14.01,2013-07-31 09:00:00,
2013-07-31 05:01:00,54.3,45.5,29.20,ENE,68,0.0,0.0,72,0.00,,---,0.00,VWS V14.01,2013-07-31 09:01:00,
2013-07-31 05:02:00,54.3,45.5,29.20,ENE,68,0.0,0.0,72,0.00,,---,0.00,VWS V14.01,2013-07-31 09:02:00,
2013-07-31 05:03:00,54.3,45.9,29.20,ENE,68,0.0,0.0,73,0.00,,---,0.00,VWS V14.01,2013-07-31 09:03:00,
2013-07-31 05:04:00,54.3,45.9,29.20,ENE,68,0.0,0.0,73,0.00,,---,0.00,VWS V14.01,2013-07-31 09:04:00,
2013-07-31 05:05:00,54.1,45.7,29.20,ENE,68,0.0,0.0,73,0.00,,---,0.00,VWS V14.01,2013-07-31 09:05:00,
2013-07-31 05:06:00,54.1,45.7,29.20,ENE,68,0.0,0.0,73,0.00,,---,0.00,VWS V14.01,2013-07-31 09:06:00,
2013-07-31 05:07:00,54.1,45.7,29.20,ENE,68,0.0,0.0,73,0.00,,---,0.00,VWS V14.01,2013-07-31 09:07:00,
2013-07-31 05:08:00,54.1,45.7,29.20,ENE,68,0.0,0.0,73,0.00,,---,0.00,VWS V14.01,2013-07-31 09:08:00,
2013-07-31 05:09:00,54.1,45.7,29.20,ENE,68,0.0,0.0,73,0.00,,---,0.00,VWS V14.01,2013-07-31 09:09:00,
2013-07-31 05:10:00,54.1,45.7,29.20,ENE,68,0.0,0.0,73,0.00,,---,0.00,VWS V14.01,2013-07-31 09:10:00,
2013-07-31 05:11:00,54.1,45.7,29.20,ENE,68,0.0,0.0,73,0.00,,---,0.00,VWS V14.01,2013-07-31 09:11:00,
2013-07-31 05:12:00,54.1,45.7,29.20,ENE,68,0.0,0.0,73,0.00,,---,0.00,VWS V14.01,2013-07-31 09:12:00,
2013-07-31 05:13:00,54.1,45.7,29.20,ENE,68,0.0,0.0,73,0.00,,---,0.00,VWS V14.01,2013-07-31 09:13:00,
2013-07-31 05:14:00,54.1,45.7,29.20,ENE,68,0.0,0.0,73,0.00,,---,0.00,VWS V14.01,2013-07-31 09:14:00,
2013-07-31 05:15:00,54.1,45.7,29.20,ENE,68,0.0,0.0,73,0.00,,---,0.00,VWS V14.01,2013-07-31 09:15:00,
2013-07-31 05:16:00,54.1,45.7,29.20,ENE,68,0.0,0.0,73,0.00,,---,0.00,VWS V14.01,2013-07-31 09:16:00,
2013-07-31 05:17:00,54.1,45.7,29.20,ENE,68,0.0,0.0,73,0.00,,---,0.00,VWS V14.01,2013-07-31 09:17:00,
2013-07-31 05:18:00,54.1,45.7,29.20,ENE,68,0.0,0.0,73,0.00,,---,0.00,VWS V14.01,2013-07-31 09:18:00,
2013-07-31 05:19:00,54.1,45.7,29.20,ENE,68,0.0,0.0,73,0.00,,---,0.00,VWS V14.01,2013-07-31 09:19:00,
2013-07-31 05:20:00,54.1,45.7,29.20,ENE,68,0.0,0.0,73,0.00,,---,0.00,VWS V14.01,2013-07-31 09:20:00,
2013-07-31 05:21:00,54.1,45.7,29.20,ENE,68,0.0,0.0,73,0.00,,---,0.00,VWS V14.01,2013-07-31 09:21:00,
2013-07-31 05:22:00,54.1,45.7,29.20,ENE,68,0.0,0.0,73,0.00,,---,0.00,VWS V14.01,2013-07-31 09:22:00,
2013-07-31 05:23:00,54.1,45.7,29.20,ENE,68,0.0,0.0,73,0.00,,---,0.00,VWS V14.01,2013-07-31 09:23:00,
2013-07-31 05:24:00,54.1,45.7,29.20,ENE,68,0.0,0.0,73,0.00,,---,0.00,VWS V14.01,2013-07-31 09:24:00,
2013-07-31 05:25:00,54.1,45.7,29.20,ENE,68,0.0,0.0,73,0.00,,---,0.00,VWS V14.01,2013-07-31 09:25:00,
2013-07-31 05:26:00,54.1,45.7,29.20,ENE,68,0.0,0.0,73,0.00,,---,0.00,VWS V14.01,2013-07-31 09:26:00,
2013-07-31 05:27:00,54.1,45.7,29.20,ENE,68,0.0,0.0,73,0.00,,---,0.00,VWS V14.01,2013-07-31 09:27:00,
2013-07-31 05:28:00,54.1,45.7,29.20,ENE,68,0.0,0.0,73,0.00,,---,0.00,VWS V14.01,2013-07-31 09:28:00,
2013-07-31 05:29:00,54.1,45.7,29.20,ENE,68,0.0,0.0,73,0.00,,---,0.00,VWS V14.01,2013-07-31 09:29:00,
2013-07-31 05:30:00,54.1,45.7,29.20,ENE,68,0.0,0.0,73,0.00,,---,0.00,VWS V14.01,2013-07-31 09:30:00,
2013-07-31 05:31:00,54.1,45.7,29.20,ENE,68,0.0,0.0,73,0.00,,---,0.00,VWS V14.01,2013-07-31 09:31:00,
2013-07-31 05:32:00,54.1,45.7,29.20,ENE,68,0.0,0.0,73,0.00,,---,0.00,VWS V14.01,2013-07-31 09:32:00,
2013-07-31 05:33:00,54.0,45.2,29.20,ENE,68,0.0,0.0,72,0.00,,---,0.00,VWS V14.01,2013-07-31 09:33:00,
2013-07-31 05:34:00,54.0,45.2,29.20,ENE,68,0.0,0.0,72,0.00,,---,0.00,VWS V14.01,2013-07-31 09:34:00,
2013-07-31 05:35:00,54.0,45.5,29.20,ENE,68,0.0,0.0,73,0.00,,---,0.00,VWS V14.01,2013-07-31 09:35:00,
2013-07-31 05:36:00,54.0,45.5,29.20,ENE,68,0.0,0.0,73,0.00,,---,0.00,VWS V14.01,2013-07-31 09:36:00,
2013-07-31 05:37:00,54.0,45.5,29.20,ENE,68,0.0,0.0,73,0.00,,---,0.00,VWS V14.01,2013-07-31 09:37:00,
2013-07-31 05:38:00,54.0,45.5,29.20,ENE,68,0.0,0.0,73,0.00,,---,0.00,VWS V14.01,2013-07-31 09:38:00,
2013-07-31 05:39:00,54.0,45.5,29.20,ENE,68,0.0,0.0,73,0.00,,---,0.00,VWS V14.01,2013-07-31 09:39:00,
2013-07-31 05:40:00,53.8,45.3,29.20,ENE,68,0.0,0.0,73,0.00,,---,0.00,VWS V14.01,2013-07-31 09:40:00,
2013-07-31 05:41:00,53.8,45.3,29.20,ENE,68,0.0,0.0,73,0.00,,---,0.00,VWS V14.01,2013-07-31 09:41:00,
2013-07-31 05:42:00,53.8,45.3,29.20,ENE,68,0.0,0.0,73,0.00,,---,0.00,VWS V14.01,2013-07-31 09:42:00,
2013-07-31 05:43:00,53.8,45.3,29.20,ENE,68,0.0,0.0,73,0.00,,---,0.00,VWS V14.01,2013-07-31 09:43:00,
2013-07-31 05:44:00,53.8,45.3,29.20,ENE,68,0.0,0.0,73,0.00,,---,0.00,VWS V14.01,2013-07-31 09:44:00,
2013-07-31 05:45:00,53.8,45.3,29.20,ENE,68,0.0,0.0,73,0.00,,---,0.00,VWS V14.01,2013-07-31 09:45:00,
2013-07-31 05:46:00,53.8,45.3,29.20,ENE,68,0.0,0.0,73,0.00,,---,0.00,VWS V14.01,2013-07-31 09:46:00,
2013-07-31 05:47:00,53.8,45.3,29.20,ENE,68,0.0,0.0,73,0.00,,---,0.00,VWS V14.01,2013-07-31 09:47:00,
2013-07-31 05:48:00,53.8,45.3,29.20,ENE,68,0.0,0.0,73,0.00,,---,0.00,VWS V14.01,2013-07-31 09:48:00,
2013-07-31 05:49:00,53.8,45.3,29.20,ENE,68,0.0,0.0,73,0.00,,---,0.00,VWS V14.01,2013-07-31 09:49:00,
2013-07-31 05:50:00,53.8,45.3,29.20,ENE,68,0.0,0.0,73,0.00,,---,0.00,VWS V14.01,2013-07-31 09:50:00,
2013-07-31 05:51:00,53.8,45.3,29.20,ENE,68,0.0,0.0,73,0.00,,---,0.00,VWS V14.01,2013-07-31 09:51:00,
2013-07-31 05:52:00,53.6,45.2,29.20,ENE,68,0.0,0.0,73,0.00,,---,0.00,VWS V14.01,2013-07-31 09:52:00,
2013-07-31 05:53:00,53.6,45.2,29.20,ENE,68,0.0,0.0,73,0.00,,---,0.00,VWS V14.01,2013-07-31 09:53:00,
2013-07-31 05:54:00,53.6,45.2,29.20,ENE,68,0.0,0.0,73,0.00,,---,0.00,VWS V14.01,2013-07-31 09:54:00,
2013-07-31 05:55:00,53.6,45.2,29.20,ENE,68,0.0,0.0,73,0.00,,---,0.00,VWS V14.01,2013-07-31 09:55:00,
2013-07-31 05:56:00,53.8,45.3,29.20,ENE,68,0.0,0.0,73,0.00,,---,0.00,VWS V14.01,2013-07-31 09:56:00,
2013-07-31 05:57:00,53.8,45.3,29.20,ENE,68,0.0,0.0,73,0.00,,---,0.00,VWS V14.01,2013-07-31 09:57:00,
2013-07-31 05:58:00,53.8,45.3,29.20,ENE,68,0.0,0.0,73,0.00,,---,0.00,VWS V14.01,2013-07-31 09:58:00,
2013-07-31 05:59:00,53.8,45.3,29.20,ENE,68,0.0,0.0,73,0.00,,---,0.00,VWS V14.01,2013-07-31 09:59:00,
2013-07-31 06:00:00,53.8,45.3,29.20,ENE,68,0.0,0.0,73,0.00,,---,0.00,VWS V14.01,2013-07-31 10:00:00,
2013-07-31 06:01:00,53.8,45.3,29.20,ENE,68,0.0,0.0,73,0.00,,---,0.00,VWS V14.01,2013-07-31 10:01:00,
2013-07-31 06:02:00,53.8,45.3,29.20,ENE,68,0.0,0.0,73,0.00,,---,0.00,VWS V14.01,2013-07-31 10:02:00,
2013-07-31 06:03:00,53.8,45.3,29.20,ENE,68,0.0,0.0,73,0.00,,---,0.00,VWS V14.01,2013-07-31 10:03:00,
2013-07-31 06:04:00,53.8,45.3,29.20,ENE,68,0.0,0.0,73,0.00,,---,0.00,VWS V14.01,2013-07-31 10:04:00,
2013-07-31 06:05:00,53.8,45.3,29.20,ENE,68,0.0,0.0,73,0.00,,---,0.00,VWS V14.01,2013-07-31 10:05:00,
2013-07-31 06:06:00,53.8,45.3,29.20,ENE,68,0.0,0.0,73,0.00,,---,0.00,VWS V14.01,2013-07-31 10:06:00,
2013-07-31 06:07:00,53.8,45.3,29.20,ENE,68,0.0,0.0,73,0.00,,---,0.00,VWS V14.01,2013-07-31 10:07:00,
2013-07-31 06:08:00,53.8,45.3,29.20,ENE,68,0.0,0.0,73,0.00,,---,0.00,VWS V14.01,2013-07-31 10:08:00,
2013-07-31 06:09:00,53.8,45.3,29.20,ENE,68,0.0,0.0,73,0.00,,---,0.00,VWS V14.01,2013-07-31 10:09:00,
2013-07-31 06:10:00,53.8,45.3,29.20,ENE,68,0.0,0.0,73,0.00,,---,0.00,VWS V14.01,2013-07-31 10:10:00,
2013-07-31 06:11:00,53.8,45.3,29.20,ENE,68,0.0,0.0,73,0.00,,---,0.00,VWS V14.01,2013-07-31 10:11:00,
2013-07-31 06:12:00,53.8,45.3,29.20,ENE,68,0.0,0.0,73,0.00,,---,0.00,VWS V14.01,2013-07-31 10:12:00,
2013-07-31 06:13:00,53.8,45.3,29.20,ENE,68,0.0,0.0,73,0.00,,---,0.00,VWS V14.01,2013-07-31 10:13:00,
2013-07-31 06:14:00,53.8,45.3,29.20,ENE,68,0.0,0.0,73,0.00,,---,0.00,VWS V14.01,2013-07-31 10:14:00,
2013-07-31 06:15:00,53.8,45.3,29.20,ENE,68,0.0,0.0,73,0.00,,---,0.00,VWS V14.01,2013-07-31 10:15:00,
2013-07-31 06:16:00,53.8,45.3,29.20,ENE,68,0.0,0.0,73,0.00,,---,0.00,VWS V14.01,2013-07-31 10:16:00,
2013-07-31 06:17:00,53.6,45.2,29.20,ENE,68,0.0,0.0,73,0.00,,---,0.00,VWS V14.01,2013-07-31 10:17:00,
2013-07-31 06:18:00,53.6,45.2,29.20,ENE,68,0.0,0.0,73,0.00,,---,0.00,VWS V14.01,2013-07-31 10:18:00,
2013-07-31 06:19:00,53.6,45.2,29.20,ENE,68,0.0,0.0,73,0.00,,---,0.00,VWS V14.01,2013-07-31 10:19:00,
2013-07-31 06:20:00,53.6,45.2,29.20,ENE,68,0.0,0.0,73,0.00,,---,0.00,VWS V14.01,2013-07-31 10:20:00,
2013-07-31 06:21:00,53.8,45.3,29.23,ENE,68,0.0,0.0,73,0.00,,---,0.00,VWS V14.01,2013-07-31 10:21:00,
2013-07-31 06:22:00,53.8,45.3,29.23,ENE,68,0.0,0.0,73,0.00,,---,0.00,VWS V14.01,2013-07-31 10:22:00,
2013-07-31 06:23:00,53.8,45.3,29.23,ENE,68,0.0,0.0,73,0.00,,---,0.00,VWS V14.01,2013-07-31 10:23:00,
2013-07-31 06:24:00,53.8,45.3,29.23,ENE,68,0.0,0.0,73,0.00,,---,0.00,VWS V14.01,2013-07-31 10:24:00,
2013-07-31 06:25:00,53.8,45.3,29.23,ENE,68,0.0,0.0,73,0.00,,---,0.00,VWS V14.01,2013-07-31 10:25:00,
2013-07-31 06:26:00,53.8,45.7,29.23,ENE,68,0.0,0.0,74,0.00,,---,0.00,VWS V14.01,2013-07-31 10:26:00,
2013-07-31 06:27:00,53.8,45.7,29.23,ENE,68,0.0,0.0,74,0.00,,---,0.00,VWS V14.01,2013-07-31 10:27:00,
2013-07-31 06:28:00,53.8,45.7,29.23,ENE,68,0.0,0.0,74,0.00,,---,0.00,VWS V14.01,2013-07-31 10:28:00,
2013-07-31 06:29:00,53.8,45.7,29.23,ENE,68,0.0,0.0,74,0.00,,---,0.00,VWS V14.01,2013-07-31 10:29:00,
2013-07-31 06:30:00,54.0,45.5,29.23,ENE,68,0.0,0.0,73,0.00,,---,0.00,VWS V14.01,2013-07-31 10:30:00,
2013-07-31 06:31:00,54.0,45.9,29.23,ENE,68,0.0,0.0,74,0.00,,---,0.00,VWS V14.01,2013-07-31 10:31:00,
2013-07-31 06:32:00,54.0,45.9,29.23,ENE,68,0.0,0.0,74,0.00,,---,0.00,VWS V14.01,2013-07-31 10:32:00,
2013-07-31 06:33:00,54.1,46.0,29.23,ENE,68,0.0,0.0,74,0.00,,---,0.00,VWS V14.01,2013-07-31 10:33:00,
2013-07-31 06:34:00,54.1,46.0,29.23,ENE,68,0.0,0.0,74,0.00,,---,0.00,VWS V14.01,2013-07-31 10:34:00,
2013-07-31 06:35:00,54.1,46.0,29.23,ENE,68,0.0,0.0,74,0.00,,---,0.00,VWS V14.01,2013-07-31 10:35:00,
2013-07-31 06:36:00,54.1,46.0,29.23,ENE,68,0.0,0.0,74,0.00,,---,0.00,VWS V14.01,2013-07-31 10:36:00,
2013-07-31 06:37:00,54.1,46.0,29.23,ENE,68,0.0,0.0,74,0.00,,---,0.00,VWS V14.01,2013-07-31 10:37:00,
2013-07-31 06:38:00,54.1,46.0,29.23,ENE,68,0.0,0.0,74,0.00,,---,0.00,VWS V14.01,2013-07-31 10:38:00,
2013-07-31 06:39:00,54.1,46.0,29.23,ENE,68,0.0,0.0,74,0.00,,---,0.00,VWS V14.01,2013-07-31 10:39:00,
2013-07-31 06:40:00,54.3,46.2,29.23,ENE,68,0.0,0.0,74,0.00,,---,0.00,VWS V14.01,2013-07-31 10:40:00,
2013-07-31 06:41:00,54.3,46.2,29.23,ENE,68,0.0,0.0,74,0.00,,---,0.00,VWS V14.01,2013-07-31 10:41:00,
2013-07-31 06:42:00,54.3,46.2,29.23,ENE,68,0.0,0.0,74,0.00,,---,0.00,VWS V14.01,2013-07-31 10:42:00,
2013-07-31 06:43:00,54.3,46.2,29.23,ENE,68,0.0,0.0,74,0.00,,---,0.00,VWS V14.01,2013-07-31 10:43:00,
2013-07-31 06:44:00,54.5,46.4,29.23,ENE,68,0.0,0.0,74,0.00,,---,0.00,VWS V14.01,2013-07-31 10:44:00,
2013-07-31 06:45:00,54.5,46.4,29.23,ENE,68,0.0,0.0,74,0.00,,---,0.00,VWS V14.01,2013-07-31 10:45:00,
2013-07-31 06:46:00,54.5,46.4,29.23,ENE,68,0.0,0.0,74,0.00,,---,0.00,VWS V14.01,2013-07-31 10:46:00,
2013-07-31 06:47:00,54.5,46.4,29.23,ENE,68,0.0,0.0,74,0.00,,---,0.00,VWS V14.01,2013-07-31 10:47:00,
2013-07-31 06:48:00,54.5,46.4,29.23,ENE,68,0.0,0.0,74,0.00,,---,0.00,VWS V14.01,2013-07-31 10:48:00,
2013-07-31 06:49:00,54.5,46.4,29.23,ENE,68,0.0,0.0,74,0.00,,---,0.00,VWS V14.01,2013-07-31 10:49:00,
2013-07-31 06:50:00,54.5,46.4,29.23,ENE,68,0.0,0.0,74,0.00,,---,0.00,VWS V14.01,2013-07-31 10:50:00,
2013-07-31 06:51:00,54.9,47.1,29.23,ENE,68,0.0,0.0,75,0.00,,---,0.00,VWS V14.01,2013-07-31 10:51:00,
2013-07-31 06:52:00,54.9,47.1,29.23,ENE,68,0.0,0.0,75,0.00,,---,0.00,VWS V14.01,2013-07-31 10:52:00,
2013-07-31 06:53:00,54.9,46.7,29.23,ENE,68,0.0,0.0,74,0.00,,---,0.00,VWS V14.01,2013-07-31 10:53:00,
2013-07-31 06:54:00,54.7,46.6,29.23,ENE,68,0.0,0.0,74,0.00,,---,0.00,VWS V14.01,2013-07-31 10:54:00,
2013-07-31 06:55:00,54.7,46.6,29.23,ENE,68,0.0,0.0,74,0.00,,---,0.00,VWS V14.01,2013-07-31 10:55:00,
2013-07-31 06:56:00,54.9,46.7,29.23,ENE,68,0.0,0.0,74,0.00,,---,0.00,VWS V14.01,2013-07-31 10:56:00,
2013-07-31 06:57:00,54.9,46.7,29.23,ENE,68,0.0,0.0,74,0.00,,---,0.00,VWS V14.01,2013-07-31 10:57:00,
2013-07-31 06:58:00,54.9,46.7,29.23,ENE,68,0.0,0.0,74,0.00,,---,0.00,VWS V14.01,2013-07-31 10:58:00,
2013-07-31 06:59:00,54.9,46.7,29.23,ENE,68,0.0,0.0,74,0.00,,---,0.00,VWS V14.01,2013-07-31 10:59:00,
2013-07-31 07:00:00,54.9,46.4,29.23,ENE,68,0.0,0.0,73,0.00,,---,0.00,VWS V14.01,2013-07-31 11:00:00,
2013-07-31 07:01:00,54.9,46.4,29.23,ENE,68,0.0,0.0,73,0.00,,---,0.00,VWS V14.01,2013-07-31 11:01:00,
2013-07-31 07:02:00,54.9,46.4,29.23,ENE,68,0.0,0.0,73,0.00,,---,0.00,VWS V14.01,2013-07-31 11:02:00,
2013-07-31 07:03:00,55.0,46.9,29.23,SE,135,0.0,0.0,74,0.00,,---,0.00,VWS V14.01,2013-07-31 11:03:00,
2013-07-31 07:04:00,55.0,46.9,29.23,ESE,112,2.0,2.0,74,0.00,,---,0.00,VWS V14.01,2013-07-31 11:04:00,
2013-07-31 07:05:00,55.0,46.5,29.23,ESE,112,0.0,2.0,73,0.00,,---,0.00,VWS V14.01,2013-07-31 11:05:00,
2013-07-31 07:06:00,55.0,46.6,29.23,SE,135,0.0,0.0,73,0.00,,---,0.00,VWS V14.01,2013-07-31 11:06:00,
2013-07-31 07:07:00,55.2,46.7,29.23,SE,135,0.0,0.0,73,0.00,,---,0.00,VWS V14.01,2013-07-31 11:07:00,
2013-07-31 07:08:00,55.2,46.7,29.23,ESE,112,0.9,0.9,73,0.00,,---,0.00,VWS V14.01,2013-07-31 11:08:00,
2013-07-31 07:09:00,55.2,46.7,29.23,ESE,112,2.0,2.0,73,0.00,,---,0.00,VWS V14.01,2013-07-31 11:09:00,
2013-07-31 07:10:00,55.2,46.7,29.23,ESE,112,2.0,2.0,73,0.00,,---,0.00,VWS V14.01,2013-07-31 11:10:00,
2013-07-31 07:11:00,55.2,46.7,29.23,ESE,112,0.0,2.0,73,0.00,,---,0.00,VWS V14.01,2013-07-31 11:11:00,
2013-07-31 07:12:00,55.2,46.7,29.23,ESE,112,0.0,0.0,73,0.00,,---,0.00,VWS V14.01,2013-07-31 11:12:00,
2013-07-31 07:13:00,55.2,46.7,29.23,ESE,112,0.0,0.0,73,0.00,,---,0.00,VWS V14.01,2013-07-31 11:13:00,
2013-07-31 07:14:00,55.2,46.7,29.23,ESE,112,0.0,0.0,73,0.00,,---,0.00,VWS V14.01,2013-07-31 11:14:00,
2013-07-31 07:15:00,55.2,46.7,29.23,ESE,112,0.0,0.0,73,0.00,,---,0.00,VWS V14.01,2013-07-31 11:15:00,
2013-07-31 07:16:00,55.4,46.9,29.23,ESE,112,0.0,0.0,73,0.00,,---,0.00,VWS V14.01,2013-07-31 11:16:00,
2013-07-31 07:17:00,55.6,47.1,29.23,ESE,112,0.0,0.0,73,0.00,,---,0.00,VWS V14.01,2013-07-31 11:17:00,
2013-07-31 07:18:00,55.6,47.1,29.23,ESE,112,0.0,0.0,73,0.00,,---,0.00,VWS V14.01,2013-07-31 11:18:00,
2013-07-31 07:19:00,55.6,46.7,29.23,ESE,112,0.0,0.0,72,0.00,,---,0.00,VWS V14.01,2013-07-31 11:19:00,
2013-07-31 07:20:00,55.6,46.7,29.23,ESE,112,0.0,0.0,72,0.00,,---,0.00,VWS V14.01,2013-07-31 11:20:00,
2013-07-31 07:21:00,55.6,46.7,29.23,ESE,112,0.0,0.0,72,0.00,,---,0.00,VWS V14.01,2013-07-31 11:21:00,
2013-07-31 07:22:00,55.6,46.7,29.23,ESE,112,0.0,0.0,72,0.00,,---,0.00,VWS V14.01,2013-07-31 11:22:00,
2013-07-31 07:23:00,55.9,47.1,29.23,ESE,112,0.0,0.0,72,0.00,,---,0.00,VWS V14.01,2013-07-31 11:23:00,
2013-07-31 07:24:00,55.9,47.1,29.23,ESE,112,0.0,0.0,72,0.00,,---,0.00,VWS V14.01,2013-07-31 11:24:00,
2013-07-31 07:25:00,55.9,47.1,29.23,ESE,112,0.0,0.0,72,0.00,,---,0.00,VWS V14.01,2013-07-31 11:25:00,
2013-07-31 07:26:00,55.9,47.1,29.23,ESE,112,0.0,0.0,72,0.00,,---,0.00,VWS V14.01,2013-07-31 11:26:00,
2013-07-31 07:27:00,55.9,47.1,29.23,ESE,112,0.0,0.0,72,0.00,,---,0.00,VWS V14.01,2013-07-31 11:27:00,
2013-07-31 07:28:00,56.3,47.4,29.23,ESE,112,0.0,0.0,72,0.00,,---,0.00,VWS V14.01,2013-07-31 11:28:00,
2013-07-31 07:29:00,56.3,47.4,29.23,ESE,112,0.0,0.0,72,0.00,,---,0.00,VWS V14.01,2013-07-31 11:29:00,
2013-07-31 07:30:00,56.1,47.2,29.23,ESE,112,0.0,0.0,72,0.00,,---,0.00,VWS V14.01,2013-07-31 11:30:00,
2013-07-31 07:31:00,56.1,47.2,29.23,ESE,112,0.0,0.0,72,0.00,,---,0.00,VWS V14.01,2013-07-31 11:31:00,
2013-07-31 07:32:00,56.1,47.2,29.23,ESE,112,0.0,0.0,72,0.00,,---,0.00,VWS V14.01,2013-07-31 11:32:00,
2013-07-31 07:33:00,56.3,47.4,29.23,ESE,112,0.0,0.0,72,0.00,,---,0.00,VWS V14.01,2013-07-31 11:33:00,
2013-07-31 07:34:00,56.3,47.4,29.23,ESE,112,0.0,0.0,72,0.00,,---,0.00,VWS V14.01,2013-07-31 11:34:00,
2013-07-31 07:35:00,56.5,47.6,29.23,ESE,112,0.0,0.0,72,0.00,,---,0.00,VWS V14.01,2013-07-31 11:35:00,
2013-07-31 07:36:00,56.5,47.6,29.23,ESE,112,0.0,0.0,72,0.00,,---,0.00,VWS V14.01,2013-07-31 11:36:00,
2013-07-31 07:37:00,56.5,47.6,29.23,ESE,112,0.0,0.0,72,0.00,,---,0.00,VWS V14.01,2013-07-31 11:37:00,
2013-07-31 07:38:00,56.5,47.6,29.23,ESE,112,0.0,0.0,72,0.00,,---,0.00,VWS V14.01,2013-07-31 11:38:00,
2013-07-31 07:39:00,56.5,47.6,29.23,ESE,112,0.0,0.0,72,0.00,,---,0.00,VWS V14.01,2013-07-31 11:39:00,
2013-07-31 07:40:00,56.7,47.8,29.23,ESE,112,0.0,0.0,72,0.00,,---,0.00,VWS V14.01,2013-07-31 11:40:00,
2013-07-31 07:41:00,56.7,47.8,29.23,ESE,112,0.0,0.0,72,0.00,,---,0.00,VWS V14.01,2013-07-31 11:41:00,
2013-07-31 07:42:00,56.8,47.9,29.23,ESE,112,0.0,0.0,72,0.00,,---,0.00,VWS V14.01,2013-07-31 11:42:00,
2013-07-31 07:43:00,56.8,47.9,29.23,ESE,112,0.0,0.0,72,0.00,,---,0.00,VWS V14.01,2013-07-31 11:43:00,
2013-07-31 07:44:00,57.0,48.1,29.23,ESE,112,0.0,0.0,72,0.00,,---,0.00,VWS V14.01,2013-07-31 11:44:00,
2013-07-31 07:45:00,57.0,48.1,29.23,ESE,112,0.0,0.0,72,0.00,,---,0.00,VWS V14.01,2013-07-31 11:45:00,
2013-07-31 07:46:00,57.2,48.3,29.23,ESE,112,0.0,0.0,72,0.00,,---,0.00,VWS V14.01,2013-07-31 11:46:00,
2013-07-31 07:47:00,57.2,48.6,29.23,ESE,112,0.0,0.0,73,0.00,,---,0.00,VWS V14.01,2013-07-31 11:47:00,
2013-07-31 07:48:00,57.2,48.6,29.23,ESE,112,0.0,0.0,73,0.00,,---,0.00,VWS V14.01,2013-07-31 11:48:00,
2013-07-31 07:49:00,57.2,48.3,29.23,ESE,112,0.0,0.0,72,0.00,,---,0.00,VWS V14.01,2013-07-31 11:49:00,
2013-07-31 07:50:00,57.2,48.3,29.23,ESE,112,0.0,0.0,72,0.00,,---,0.00,VWS V14.01,2013-07-31 11:50:00,
2013-07-31 07:51:00,57.4,48.4,29.23,ESE,112,0.0,0.0,72,0.00,,---,0.00,VWS V14.01,2013-07-31 11:51:00,
2013-07-31 07:52:00,57.4,48.4,29.23,ESE,112,0.0,0.0,72,0.00,,---,0.00,VWS V14.01,2013-07-31 11:52:00,
2013-07-31 07:53:00,57.6,48.6,29.23,ESE,112,0.0,0.0,72,0.00,,---,0.00,VWS V14.01,2013-07-31 11:53:00,
2013-07-31 07:54:00,57.7,48.8,29.23,ESE,112,0.0,0.0,72,0.00,,---,0.00,VWS V14.01,2013-07-31 11:54:00,
2013-07-31 07:55:00,57.7,48.8,29.23,ESE,112,0.0,0.0,72,0.00,,---,0.00,VWS V14.01,2013-07-31 11:55:00,
2013-07-31 07:56:00,57.9,49.0,29.23,ESE,112,0.0,0.0,72,0.00,,---,0.00,VWS V14.01,2013-07-31 11:56:00,
2013-07-31 07:57:00,57.9,49.0,29.23,ESE,112,0.0,0.0,72,0.00,,---,0.00,VWS V14.01,2013-07-31 11:57:00,
2013-07-31 07:58:00,58.5,49.8,29.23,ESE,112,0.0,0.0,73,0.00,,---,0.00,VWS V14.01,2013-07-31 11:58:00,
2013-07-31 07:59:00,58.5,49.8,29.23,ESE,112,0.0,0.0,73,0.00,,---,0.00,VWS V14.01,2013-07-31 11:59:00,
2013-07-31 08:00:00,59.0,50.4,29.23,ESE,112,1.3,1.3,73,0.00,,---,0.00,VWS V14.01,2013-07-31 12:00:00,
2013-07-31 08:01:00,59.0,50.4,29.23,ESE,112,0.0,1.3,73,0.00,,---,0.00,VWS V14.01,2013-07-31 12:01:00,
2013-07-31 08:02:00,59.4,50.7,29.23,ESE,112,0.0,0.0,73,0.00,,---,0.00,VWS V14.01,2013-07-31 12:02:00,
2013-07-31 08:03:00,59.9,51.2,29.23,ESE,112,0.0,0.0,73,0.00,,---,0.00,VWS V14.01,2013-07-31 12:03:00,
2013-07-31 08:04:00,59.9,51.2,29.23,ESE,112,0.0,0.0,73,0.00,,---,0.00,VWS V14.01,2013-07-31 12:04:00,
2013-07-31 08:05:00,60.3,51.6,29.23,ESE,112,0.0,0.0,73,0.00,,---,0.00,VWS V14.01,2013-07-31 12:05:00,
2013-07-31 08:06:00,60.3,51.6,29.23,ESE,112,0.0,0.0,73,0.00,,---,0.00,VWS V14.01,2013-07-31 12:06:00,
2013-07-31 08:07:00,60.4,51.8,29.23,ESE,112,0.0,0.0,73,0.00,,---,0.00,VWS V14.01,2013-07-31 12:07:00,
2013-07-31 08:08:00,61.2,52.5,29.23,ESE,112,0.0,0.0,73,0.00,,---,0.00,VWS V14.01,2013-07-31 12:08:00,
2013-07-31 08:09:00,61.2,52.5,29.23,ESE,112,0.0,0.0,73,0.00,,---,0.00,VWS V14.01,2013-07-31 12:09:00,
2013-07-31 08:10:00,61.9,53.1,29.23,ESE,112,0.0,0.0,73,0.00,,---,0.00,VWS V14.01,2013-07-31 12:10:00,
2013-07-31 08:11:00,61.9,53.1,29.23,ESE,112,0.0,0.0,73,0.00,,---,0.00,VWS V14.01,2013-07-31 12:11:00,
2013-07-31 08:12:00,61.9,52.8,29.23,ESE,112,0.0,0.0,72,0.00,,---,0.00,VWS V14.01,2013-07-31 12:12:00,
2013-07-31 08:13:00,61.9,52.8,29.23,ESE,112,0.0,0.0,72,0.00,,---,0.00,VWS V14.01,2013-07-31 12:13:00,
2013-07-31 08:14:00,62.2,53.1,29.23,ESE,112,0.0,0.0,72,0.00,,---,0.00,VWS V14.01,2013-07-31 12:14:00,
2013-07-31 08:15:00,62.2,53.1,29.23,ESE,112,0.0,0.0,72,0.00,,---,0.00,VWS V14.01,2013-07-31 12:15:00,
2013-07-31 08:16:00,63.1,54.0,29.23,ESE,112,0.0,0.0,72,0.00,,---,0.00,VWS V14.01,2013-07-31 12:16:00,
2013-07-31 08:17:00,63.7,54.5,29.23,ESE,112,0.0,0.0,72,0.00,,---,0.00,VWS V14.01,2013-07-31 12:17:00,
2013-07-31 08:18:00,63.7,54.5,29.23,ESE,112,0.0,0.0,72,0.00,,---,0.00,VWS V14.01,2013-07-31 12:18:00,
2013-07-31 08:19:00,63.7,54.5,29.23,ESE,112,0.0,0.0,72,0.00,,---,0.00,VWS V14.01,2013-07-31 12:19:00,
2013-07-31 08:20:00,63.7,54.5,29.23,ESE,112,0.0,0.0,72,0.00,,---,0.00,VWS V14.01,2013-07-31 12:20:00,
2013-07-31 08:21:00,64.6,54.6,29.23,ESE,112,0.0,0.0,70,0.00,,---,0.00,VWS V14.01,2013-07-31 12:21:00,
2013-07-31 08:22:00,64.6,54.6,29.23,ESE,112,0.0,0.0,70,0.00,,---,0.00,VWS V14.01,2013-07-31 12:22:00,
2013-07-31 08:23:00,64.8,54.4,29.23,ESE,112,0.9,0.9,69,0.00,,---,0.00,VWS V14.01,2013-07-31 12:23:00,
2013-07-31 08:24:00,64.9,54.5,29.23,ESE,112,0.0,0.9,69,0.00,,---,0.00,VWS V14.01,2013-07-31 12:24:00,
2013-07-31 08:25:00,64.9,54.5,29.23,ESE,112,0.0,0.0,69,0.00,,---,0.00,VWS V14.01,2013-07-31 12:25:00,
2013-07-31 08:26:00,65.5,55.0,29.23,ESE,112,0.0,0.0,69,0.00,,---,0.00,VWS V14.01,2013-07-31 12:26:00,
2013-07-31 08:27:00,65.5,55.0,29.23,ESE,112,0.0,0.0,69,0.00,,---,0.00,VWS V14.01,2013-07-31 12:27:00,
2013-07-31 08:28:00,65.7,55.2,29.23,ESE,112,0.0,0.0,69,0.00,,---,0.00,VWS V14.01,2013-07-31 12:28:00,
2013-07-31 08:29:00,65.7,55.2,29.23,ESE,112,0.0,0.0,69,0.00,,---,0.00,VWS V14.01,2013-07-31 12:29:00,
2013-07-31 08:30:00,66.7,56.3,29.23,ESE,112,0.0,0.0,69,0.00,,---,0.00,VWS V14.01,2013-07-31 12:30:00,
2013-07-31 08:31:00,66.9,56.0,29.23,ESE,112,0.0,0.0,68,0.00,,---,0.00,VWS V14.01,2013-07-31 12:31:00,
2013-07-31 08:32:00,66.9,56.0,29.23,ESE,112,0.0,0.0,68,0.00,,---,0.00,VWS V14.01,2013-07-31 12:32:00,
2013-07-31 08:33:00,67.6,56.7,29.23,ESE,112,0.0,0.0,68,0.00,,---,0.00,VWS V14.01,2013-07-31 12:33:00,
2013-07-31 08:34:00,67.6,56.7,29.23,ESE,112,0.0,0.0,68,0.00,,---,0.00,VWS V14.01,2013-07-31 12:34:00,
2013-07-31 08:35:00,67.8,56.1,29.23,ESE,112,0.0,0.0,66,0.00,,---,0.00,VWS V14.01,2013-07-31 12:35:00,
2013-07-31 08:36:00,67.8,56.1,29.20,ESE,112,0.0,0.0,66,0.00,,---,0.00,VWS V14.01,2013-07-31 12:36:00,
2013-07-31 08:37:00,68.2,56.0,29.20,ESE,112,0.0,0.0,65,0.00,,---,0.00,VWS V14.01,2013-07-31 12:37:00,
2013-07-31 08:38:00,68.2,56.0,29.20,ESE,112,0.0,0.0,65,0.00,,---,0.00,VWS V14.01,2013-07-31 12:38:00,
2013-07-31 08:39:00,68.0,55.4,29.20,ESE,112,0.0,0.0,64,0.00,,---,0.00,VWS V14.01,2013-07-31 12:39:00,
2013-07-31 08:40:00,68.0,55.4,29.20,ESE,112,0.0,0.0,64,0.00,,---,0.00,VWS V14.01,2013-07-31 12:40:00,
2013-07-31 08:41:00,68.5,55.9,29.20,ESE,112,0.0,0.0,64,0.00,,---,0.00,VWS V14.01,2013-07-31 12:41:00,
2013-07-31 08:42:00,68.9,56.2,29.20,ESE,112,0.0,0.0,64,0.00,,---,0.00,VWS V14.01,2013-07-31 12:42:00,
2013-07-31 08:43:00,68.9,56.2,29.20,ESE,112,0.0,0.0,64,0.00,,---,0.00,VWS V14.01,2013-07-31 12:43:00,
2013-07-31 08:44:00,68.5,55.0,29.20,ESE,112,2.0,2.0,62,0.00,,---,0.00,VWS V14.01,2013-07-31 12:44:00,
2013-07-31 08:45:00,68.5,55.0,29.20,ESE,112,1.1,2.0,62,0.00,,---,0.00,VWS V14.01,2013-07-31 12:45:00,
2013-07-31 08:46:00,69.3,55.7,29.20,ESE,112,0.0,1.1,62,0.00,,---,0.00,VWS V14.01,2013-07-31 12:46:00,
2013-07-31 08:47:00,70.2,56.5,29.20,ESE,112,0.0,0.0,62,0.00,,---,0.00,VWS V14.01,2013-07-31 12:47:00,
2013-07-31 08:48:00,70.2,56.5,29.20,ESE,112,0.0,0.0,62,0.00,,---,0.00,VWS V14.01,2013-07-31 12:48:00,
2013-07-31 08:49:00,70.3,56.3,29.20,ESE,112,1.3,1.3,61,0.00,,---,0.00,VWS V14.01,2013-07-31 12:49:00,
2013-07-31 08:50:00,70.3,56.3,29.20,ESE,112,0.0,1.3,61,0.00,,---,0.00,VWS V14.01,2013-07-31 12:50:00,
2013-07-31 08:51:00,71.1,57.0,29.20,ESE,112,0.0,0.0,61,0.00,,---,0.00,VWS V14.01,2013-07-31 12:51:00,
2013-07-31 08:52:00,71.1,57.0,29.20,ESE,112,0.0,0.0,61,0.00,,---,0.00,VWS V14.01,2013-07-31 12:52:00,
2013-07-31 08:53:00,71.2,56.7,29.20,ESE,112,0.0,0.0,60,0.00,,---,0.00,VWS V14.01,2013-07-31 12:53:00,
2013-07-31 08:54:00,71.2,56.7,29.20,ESE,112,0.0,0.0,60,0.00,,---,0.00,VWS V14.01,2013-07-31 12:54:00,
2013-07-31 08:55:00,71.8,56.2,29.20,ESE,112,0.0,0.0,58,0.00,,---,0.00,VWS V14.01,2013-07-31 12:55:00,
2013-07-31 08:56:00,71.8,55.8,29.20,ESE,112,0.0,0.0,57,0.00,,---,0.00,VWS V14.01,2013-07-31 12:56:00,
2013-07-31 08:57:00,71.8,55.8,29.20,ESE,112,0.0,0.0,57,0.00,,---,0.00,VWS V14.01,2013-07-31 12:57:00,
2013-07-31 08:58:00,72.5,57.4,29.20,ESE,112,0.0,0.0,59,0.00,,---,0.00,VWS V14.01,2013-07-31 12:58:00,
2013-07-31 08:59:00,72.1,55.6,29.20,ESE,112,0.0,0.0,56,0.00,,---,0.00,VWS V14.01,2013-07-31 12:59:00,
2013-07-31 09:00:00,72.1,55.6,29.20,ESE,112,0.0,0.0,56,0.00,,---,0.00,VWS V14.01,2013-07-31 13:00:00,
2013-07-31 09:01:00,72.7,56.1,29.20,ESE,112,0.0,0.0,56,0.00,,---,0.00,VWS V14.01,2013-07-31 13:01:00,
2013-07-31 09:02:00,72.7,56.1,29.20,ESE,112,0.0,0.0,56,0.00,,---,0.00,VWS V14.01,2013-07-31 13:02:00,
2013-07-31 09:03:00,73.2,56.1,29.20,ESE,112,0.0,0.0,55,0.00,,---,0.00,VWS V14.01,2013-07-31 13:03:00,
2013-07-31 09:04:00,73.8,56.1,29.20,ESE,112,1.3,1.6,54,0.00,,---,0.00,VWS V14.01,2013-07-31 13:04:00,
2013-07-31 09:05:00,73.8,56.1,29.20,ESE,112,1.3,1.6,54,0.00,,---,0.00,VWS V14.01,2013-07-31 13:05:00,
2013-07-31 09:06:00,73.8,56.1,29.20,ESE,112,0.0,1.3,54,0.00,,---,0.00,VWS V14.01,2013-07-31 13:06:00,
2013-07-31 09:07:00,73.9,55.8,29.20,ESE,112,0.0,0.0,53,0.00,,---,0.00,VWS V14.01,2013-07-31 13:07:00,
2013-07-31 09:08:00,73.9,55.8,29.20,ESE,112,0.0,0.0,53,0.00,,---,0.00,VWS V14.01,2013-07-31 13:08:00,
2013-07-31 09:09:00,73.9,55.8,29.20,ESE,112,0.0,0.0,53,0.00,,---,0.00,VWS V14.01,2013-07-31 13:09:00,
2013-07-31 09:10:00,74.5,55.7,29.20,ESE,112,0.0,0.0,52,0.00,,---,0.00,VWS V14.01,2013-07-31 13:10:00,
2013-07-31 09:11:00,74.5,55.7,29.20,ESE,112,0.0,0.0,52,0.00,,---,0.00,VWS V14.01,2013-07-31 13:11:00,
2013-07-31 09:12:00,75.4,57.1,29.20,ESE,112,0.0,0.0,53,0.00,,---,0.00,VWS V14.01,2013-07-31 13:12:00,
2013-07-31 09:13:00,75.4,57.1,29.20,ESE,112,0.0,0.0,53,0.00,,---,0.00,VWS V14.01,2013-07-31 13:13:00,
2013-07-31 09:14:00,75.2,55.3,29.20,ESE,112,0.0,0.0,50,0.00,,---,0.00,VWS V14.01,2013-07-31 13:14:00,
2013-07-31 09:15:00,75.2,55.3,29.20,ESE,112,0.0,0.0,50,0.00,,---,0.00,VWS V14.01,2013-07-31 13:15:00,
2013-07-31 09:16:00,75.9,56.5,29.20,ESE,112,0.0,0.0,51,0.00,,---,0.00,VWS V14.01,2013-07-31 13:16:00,
2013-07-31 09:17:00,75.9,55.4,29.20,ESE,112,0.0,0.0,49,0.00,,---,0.00,VWS V14.01,2013-07-31 13:17:00,
2013-07-31 09:18:00,75.9,55.4,29.20,ESE,112,0.0,0.0,49,0.00,,---,0.00,VWS V14.01,2013-07-31 13:18:00,
2013-07-31 09:19:00,75.9,54.8,29.20,ESE,112,0.0,0.0,48,0.00,,---,0.00,VWS V14.01,2013-07-31 13:19:00,
2013-07-31 09:20:00,75.9,54.8,29.20,ESE,112,0.0,0.0,48,0.00,,---,0.00,VWS V14.01,2013-07-31 13:20:00,
2013-07-31 09:21:00,76.8,56.8,29.20,ESE,112,0.0,0.0,50,0.00,,---,0.00,VWS V14.01,2013-07-31 13:21:00,
2013-07-31 09:22:00,76.8,56.8,29.20,ESE,112,0.0,0.0,50,0.00,,---,0.00,VWS V14.01,2013-07-31 13:22:00,
2013-07-31 09:23:00,77.2,55.4,29.20,ESE,112,0.0,0.0,47,0.00,,---,0.00,VWS V14.01,2013-07-31 13:23:00,
2013-07-31 09:24:00,76.5,53.6,29.20,ESE,112,2.5,2.5,45,0.00,,---,0.00,VWS V14.01,2013-07-31 13:24:00,
2013-07-31 09:25:00,76.5,53.6,29.20,ESE,112,2.0,2.5,45,0.00,,---,0.00,VWS V14.01,2013-07-31 13:25:00,
2013-07-31 09:26:00,77.0,55.2,29.20,ESE,112,0.0,2.0,47,0.00,,---,0.00,VWS V14.01,2013-07-31 13:26:00,
2013-07-31 09:27:00,77.0,55.2,29.20,ESE,112,2.5,2.5,47,0.00,,---,0.00,VWS V14.01,2013-07-31 13:27:00,
2013-07-31 09:28:00,77.4,54.4,29.20,West,270,2.5,2.5,45,0.00,,---,0.00,VWS V14.01,2013-07-31 13:28:00,
2013-07-31 09:29:00,77.5,55.2,29.20,WSW,248,1.6,1.6,46,0.00,,---,0.00,VWS V14.01,2013-07-31 13:29:00,
2013-07-31 09:30:00,77.5,55.2,29.20,WSW,248,1.6,1.6,46,0.00,,---,0.00,VWS V14.01,2013-07-31 13:30:00,
2013-07-31 09:31:00,77.5,55.2,29.20,WSW,248,2.5,2.5,46,0.00,,---,0.00,VWS V14.01,2013-07-31 13:31:00,
2013-07-31 09:32:00,78.1,55.6,29.20,West,270,1.3,2.5,46,0.00,,---,0.00,VWS V14.01,2013-07-31 13:32:00,
2013-07-31 09:33:00,78.3,55.2,29.20,NW,315,1.1,1.3,45,0.00,,---,0.00,VWS V14.01,2013-07-31 13:33:00,
2013-07-31 09:34:00,78.6,55.5,29.20,West,270,0.9,1.1,45,0.00,,---,0.00,VWS V14.01,2013-07-31 13:34:00,
2013-07-31 09:35:00,78.6,55.5,29.20,West,270,0.9,1.1,45,0.00,,---,0.00,VWS V14.01,2013-07-31 13:35:00,
2013-07-31 09:36:00,78.6,55.5,29.20,WSW,248,1.6,1.6,45,0.00,,---,0.00,VWS V14.01,2013-07-31 13:36:00,
2013-07-31 09:37:00,78.8,56.9,29.20,WSW,248,2.5,2.5,47,0.00,,---,0.00,VWS V14.01,2013-07-31 13:37:00,
2013-07-31 09:38:00,78.8,56.9,29.20,South,180,0.0,2.5,47,0.00,,---,0.00,VWS V14.01,2013-07-31 13:38:00,
2013-07-31 09:39:00,79.3,56.2,29.20,WNW,292,0.9,0.9,45,0.00,,---,0.00,VWS V14.01,2013-07-31 13:39:00,
2013-07-31 09:40:00,78.6,53.0,29.20,WNW,292,0.9,0.9,41,0.00,,---,0.00,VWS V14.01,2013-07-31 13:40:00,
2013-07-31 09:41:00,78.6,53.0,29.20,WNW,292,0.0,0.9,41,0.00,,---,0.00,VWS V14.01,2013-07-31 13:41:00,
2013-07-31 09:42:00,78.4,53.5,29.20,WNW,292,0.0,0.0,42,0.00,,---,0.00,VWS V14.01,2013-07-31 13:42:00,
2013-07-31 09:43:00,78.4,53.5,29.20,WNW,292,0.0,0.0,42,0.00,,---,0.00,VWS V14.01,2013-07-31 13:43:00,
2013-07-31 09:44:00,79.2,53.5,29.20,WNW,292,0.0,0.0,41,0.00,,---,0.00,VWS V14.01,2013-07-31 13:44:00,
2013-07-31 09:45:00,79.2,53.5,29.20,WNW,292,0.0,0.0,41,0.00,,---,0.00,VWS V14.01,2013-07-31 13:45:00,
2013-07-31 09:46:00,79.7,55.9,29.20,WNW,292,0.0,0.0,44,0.00,,---,0.00,VWS V14.01,2013-07-31 13:46:00,
2013-07-31 09:47:00,79.7,55.9,29.20,WNW,292,1.1,1.1,44,0.00,,---,0.00,VWS V14.01,2013-07-31 13:47:00,
2013-07-31 09:48:00,80.4,56.5,29.20,WNW,292,0.0,1.1,44,0.00,,---,0.00,VWS V14.01,2013-07-31 13:48:00,
2013-07-31 09:49:00,80.4,55.2,29.20,WNW,292,0.0,0.0,42,0.00,,---,0.00,VWS V14.01,2013-07-31 13:49:00,
2013-07-31 09:50:00,80.4,55.2,29.20,WNW,292,0.0,0.0,42,0.00,,---,0.00,VWS V14.01,2013-07-31 13:50:00,
2013-07-31 09:51:00,80.1,54.3,29.20,WNW,292,0.0,0.0,41,0.00,,---,0.00,VWS V14.01,2013-07-31 13:51:00,
2013-07-31 09:52:00,80.1,54.3,29.20,WNW,292,2.0,2.0,41,0.00,,---,0.00,VWS V14.01,2013-07-31 13:52:00,
2013-07-31 09:53:00,80.4,54.6,29.20,WNW,292,0.0,2.0,41,0.00,,---,0.00,VWS V14.01,2013-07-31 13:53:00,
2013-07-31 09:54:00,79.7,53.9,29.20,WNW,292,0.0,0.0,41,0.00,,---,0.00,VWS V14.01,2013-07-31 13:54:00,
2013-07-31 09:55:00,79.7,53.9,29.20,SW,225,2.7,2.7,41,0.00,,---,0.00,VWS V14.01,2013-07-31 13:55:00,
2013-07-31 09:56:00,79.9,54.8,29.20,NNW,338,1.1,2.7,42,0.00,,---,0.00,VWS V14.01,2013-07-31 13:56:00,
2013-07-31 09:57:00,79.9,54.8,29.20,WNW,292,2.5,2.5,42,0.00,,---,0.00,VWS V14.01,2013-07-31 13:57:00,
2013-07-31 09:58:00,79.9,54.8,29.20,SW,225,1.1,2.5,42,0.00,,---,0.00,VWS V14.01,2013-07-31 13:58:00,
2013-07-31 09:59:00,81.0,54.4,29.20,ESE,112,0.0,1.6,40,0.00,,---,0.00,VWS V14.01,2013-07-31 13:59:00,
2013-07-31 10:00:00,81.0,54.4,29.20,ESE,112,0.0,1.6,40,0.00,,---,0.00,VWS V14.01,2013-07-31 14:00:00,
2013-07-31 10:01:00,80.8,53.5,29.20,West,270,2.5,2.5,39,0.00,,---,0.00,VWS V14.01,2013-07-31 14:01:00,
2013-07-31 10:02:00,80.8,53.5,29.20,WNW,292,0.0,2.5,39,0.00,,---,0.00,VWS V14.01,2013-07-31 14:02:00,
2013-07-31 10:03:00,80.8,53.5,29.20,WNW,292,0.0,0.0,39,0.00,,---,0.00,VWS V14.01,2013-07-31 14:03:00,
2013-07-31 10:04:00,80.8,53.5,29.20,NW,315,1.3,1.3,39,0.00,,---,0.00,VWS V14.01,2013-07-31 14:04:00,
2013-07-31 10:05:00,79.5,51.0,29.20,NNW,338,0.0,1.3,37,0.00,,---,0.00,VWS V14.01,2013-07-31 14:05:00,
2013-07-31 10:06:00,79.5,51.0,29.20,WNW,292,2.5,2.5,37,0.00,,---,0.00,VWS V14.01,2013-07-31 14:06:00,
2013-07-31 10:07:00,79.7,50.4,29.20,ESE,112,0.0,2.5,36,0.00,,---,0.00,VWS V14.01,2013-07-31 14:07:00,
2013-07-31 10:08:00,79.7,50.4,29.20,WSW,248,1.3,1.3,36,0.00,,---,0.00,VWS V14.01,2013-07-31 14:08:00,
2013-07-31 10:09:00,79.7,53.3,29.20,WNW,292,3.6,3.6,40,0.00,,---,0.00,VWS V14.01,2013-07-31 14:09:00,
2013-07-31 10:10:00,79.7,53.3,29.20,WSW,248,2.9,3.6,40,0.00,,---,0.00,VWS V14.01,2013-07-31 14:10:00,
2013-07-31 10:11:00,79.7,53.3,29.20,WSW,248,2.5,2.9,40,0.00,,---,0.00,VWS V14.01,2013-07-31 14:11:00,
2013-07-31 10:12:00,80.4,51.0,29.20,West,270,2.7,2.7,36,0.00,,---,0.00,VWS V14.01,2013-07-31 14:12:00,
2013-07-31 10:13:00,80.4,51.0,29.20,SSE,158,1.1,2.7,36,0.00,,---,0.00,VWS V14.01,2013-07-31 14:13:00,
2013-07-31 10:14:00,81.0,53.0,29.20,SE,135,1.3,1.3,38,0.00,,---,0.00,VWS V14.01,2013-07-31 14:14:00,
2013-07-31 10:15:00,81.0,53.0,29.20,WSW,248,1.6,1.6,38,0.00,,---,0.00,VWS V14.01,2013-07-31 14:15:00,
2013-07-31 10:16:00,81.5,52.7,29.20,SSE,158,0.0,1.6,37,0.00,,---,0.00,VWS V14.01,2013-07-31 14:16:00,
2013-07-31 10:17:00,81.5,52.0,29.20,West,270,2.0,2.0,36,0.00,,---,0.00,VWS V14.01,2013-07-31 14:17:00,
2013-07-31 10:18:00,81.5,52.0,29.20,SW,225,2.0,2.0,36,0.00,,---,0.00,VWS V14.01,2013-07-31 14:18:00,
2013-07-31 10:19:00,81.5,52.7,29.20,WNW,292,2.5,2.5,37,0.00,,---,0.00,VWS V14.01,2013-07-31 14:19:00,
2013-07-31 10:20:00,81.5,52.7,29.20,WNW,292,2.5,2.5,37,0.00,,---,0.00,VWS V14.01,2013-07-31 14:20:00,
2013-07-31 10:21:00,81.9,51.5,29.20,WNW,292,0.0,2.5,35,0.00,,---,0.00,VWS V14.01,2013-07-31 14:21:00,
2013-07-31 10:22:00,81.9,51.5,29.20,WSW,248,3.1,3.1,35,0.00,,---,0.00,VWS V14.01,2013-07-31 14:22:00,
2013-07-31 10:23:00,81.1,51.7,29.20,NNW,338,2.2,3.1,36,0.00,,---,0.00,VWS V14.01,2013-07-31 14:23:00,
2013-07-31 10:24:00,81.3,51.1,29.20,NNW,338,2.5,2.5,35,0.00,,---,0.00,VWS V14.01,2013-07-31 14:24:00,
2013-07-31 10:25:00,81.3,51.1,29.20,NNW,338,1.3,2.5,35,0.00,,---,0.00,VWS V14.01,2013-07-31 14:25:00,
2013-07-31 10:26:00,81.5,51.2,29.20,NNW,338,0.0,1.3,35,0.00,,---,0.00,VWS V14.01,2013-07-31 14:26:00,
2013-07-31 10:27:00,81.5,51.2,29.20,NNW,338,0.0,0.0,35,0.00,,---,0.00,VWS V14.01,2013-07-31 14:27:00,
2013-07-31 10:28:00,81.1,51.7,29.20,NNE,22,0.9,0.9,36,0.00,,---,0.00,VWS V14.01,2013-07-31 14:28:00,
2013-07-31 10:29:00,81.9,50.8,29.20,SSE,158,1.1,1.1,34,0.00,,---,0.00,VWS V14.01,2013-07-31 14:29:00,
2013-07-31 10:30:00,81.9,50.8,29.20,SSW,202,0.0,1.1,34,0.00,,---,0.00,VWS V14.01,2013-07-31 14:30:00,
2013-07-31 10:31:00,81.9,50.8,29.20,WSW,248,2.0,2.0,34,0.00,,---,0.00,VWS V14.01,2013-07-31 14:31:00,
2013-07-31 10:32:00,82.4,51.2,29.20,South,180,2.7,2.7,34,0.00,,---,0.00,VWS V14.01,2013-07-31 14:32:00,
2013-07-31 10:33:00,83.1,52.7,29.20,SW,225,0.0,2.7,35,0.00,,---,0.00,VWS V14.01,2013-07-31 14:33:00,
2013-07-31 10:34:00,83.1,52.7,29.20,NNW,338,0.9,2.0,35,0.00,,---,0.00,VWS V14.01,2013-07-31 14:34:00,
2013-07-31 10:35:00,83.1,52.7,29.20,NNW,338,0.9,2.0,35,0.00,,---,0.00,VWS V14.01,2013-07-31 14:35:00,
2013-07-31 10:36:00,83.1,52.7,29.20,NNW,338,0.0,0.9,35,0.00,,---,0.00,VWS V14.01,2013-07-31 14:36:00,
2013-07-31 10:37:00,82.9,51.7,29.20,NNW,338,2.7,2.7,34,0.00,,---,0.00,VWS V14.01,2013-07-31 14:37:00,
2013-07-31 10:38:00,82.9,51.7,29.20,WNW,292,2.0,2.7,34,0.00,,---,0.00,VWS V14.01,2013-07-31 14:38:00,
2013-07-31 10:39:00,82.6,51.4,29.20,West,270,0.0,0.0,34,0.00,,---,0.00,VWS V14.01,2013-07-31 14:39:00,
2013-07-31 10:40:00,82.6,51.4,29.20,West,270,0.0,0.0,34,0.00,,---,0.00,VWS V14.01,2013-07-31 14:40:00,
2013-07-31 10:41:00,82.6,50.6,29.20,NNW,338,0.0,0.0,33,0.00,,---,0.00,VWS V14.01,2013-07-31 14:41:00,
2013-07-31 10:42:00,82.2,49.5,29.20,ENE,68,1.1,1.1,32,0.00,,---,0.00,VWS V14.01,2013-07-31 14:42:00,
2013-07-31 10:43:00,82.2,49.5,29.20,WNW,292,2.7,2.7,32,0.00,,---,0.00,VWS V14.01,2013-07-31 14:43:00,
2013-07-31 10:44:00,82.6,48.9,29.20,NNE,22,3.6,3.6,31,0.00,,---,0.00,VWS V14.01,2013-07-31 14:44:00,
2013-07-31 10:45:00,82.6,48.9,29.20,NNE,22,3.6,3.6,31,0.00,,---,0.00,VWS V14.01,2013-07-31 14:45:00,
2013-07-31 10:46:00,82.9,49.2,29.20,NW,315,1.6,3.6,31,0.00,,---,0.00,VWS V14.01,2013-07-31 14:46:00,
2013-07-31 10:47:00,82.9,49.2,29.20,WNW,292,0.0,2.5,31,0.00,,---,0.00,VWS V14.01,2013-07-31 14:47:00,
2013-07-31 10:48:00,82.9,49.2,29.20,WSW,248,2.7,2.7,31,0.00,,---,0.00,VWS V14.01,2013-07-31 14:48:00,
2013-07-31 10:49:00,82.8,49.9,29.20,WSW,248,1.6,1.6,32,0.00,,---,0.00,VWS V14.01,2013-07-31 14:49:00,
2013-07-31 10:50:00,82.8,49.9,29.20,WSW,248,0.0,1.6,32,0.00,,---,0.00,VWS V14.01,2013-07-31 14:50:00,
2013-07-31 10:51:00,82.6,48.9,29.20,West,270,2.0,2.0,31,0.00,,---,0.00,VWS V14.01,2013-07-31 14:51:00,
2013-07-31 10:52:00,82.6,48.9,29.20,SSW,202,1.6,2.0,31,0.00,,---,0.00,VWS V14.01,2013-07-31 14:52:00,
2013-07-31 10:53:00,82.8,49.1,29.20,SSW,202,0.0,1.6,31,0.00,,---,0.00,VWS V14.01,2013-07-31 14:53:00,
2013-07-31 10:54:00,83.1,48.5,29.20,North,0,0.0,0.0,30,0.00,,---,0.00,VWS V14.01,2013-07-31 14:54:00,
2013-07-31 10:55:00,83.1,48.5,29.20,North,0,0.0,0.0,30,0.00,,---,0.00,VWS V14.01,2013-07-31 14:55:00,
2013-07-31 10:56:00,83.1,47.6,29.20,East,90,2.9,2.9,29,0.00,,---,0.00,VWS V14.01,2013-07-31 14:56:00,
2013-07-31 10:57:00,83.1,47.6,29.20,North,0,0.0,2.9,29,0.00,,---,0.00,VWS V14.01,2013-07-31 14:57:00,
2013-07-31 10:58:00,82.8,47.3,29.20,SW,225,4.0,4.0,29,0.00,,---,0.00,VWS V14.01,2013-07-31 14:58:00,
2013-07-31 10:59:00,82.8,47.3,29.20,NW,315,1.1,2.5,29,0.00,,---,0.00,VWS V14.01,2013-07-31 14:59:00,
2013-07-31 11:00:00,82.8,47.3,29.20,NW,315,1.1,2.5,29,0.00,,---,0.00,VWS V14.01,2013-07-31 15:00:00,
2013-07-31 11:01:00,82.8,47.3,29.20,WNW,292,1.3,2.9,29,0.00,,---,0.00,VWS V14.01,2013-07-31 15:01:00,
2013-07-31 11:02:00,83.8,49.1,29.20,SSW,202,2.9,2.9,30,0.00,,---,0.00,VWS V14.01,2013-07-31 15:02:00,
2013-07-31 11:03:00,83.7,49.0,29.20,WSW,248,4.3,4.3,30,0.00,,---,0.00,VWS V14.01,2013-07-31 15:03:00,
2013-07-31 11:04:00,83.7,49.0,29.20,WSW,248,4.3,4.3,30,0.00,,---,0.00,VWS V14.01,2013-07-31 15:04:00,
2013-07-31 11:05:00,82.9,47.5,29.17,WSW,248,2.7,4.3,29,0.00,,---,0.00,VWS V14.01,2013-07-31 15:05:00,
2013-07-31 11:06:00,82.9,47.5,29.17,NNW,338,1.3,2.7,29,0.00,,---,0.00,VWS V14.01,2013-07-31 15:06:00,
2013-07-31 11:07:00,83.1,47.6,29.17,West,270,0.0,1.3,29,0.00,,---,0.00,VWS V14.01,2013-07-31 15:07:00,
2013-07-31 11:08:00,83.1,47.6,29.17,SW,225,2.0,2.0,29,0.00,,---,0.00,VWS V14.01,2013-07-31 15:08:00,
2013-07-31 11:09:00,83.1,47.6,29.17,WSW,248,2.2,2.2,29,0.00,,---,0.00,VWS V14.01,2013-07-31 15:09:00,
2013-07-31 11:10:00,83.8,48.2,29.17,SSW,202,2.7,2.7,29,0.00,,---,0.00,VWS V14.01,2013-07-31 15:10:00,
2013-07-31 11:11:00,83.8,48.2,29.17,WSW,248,4.0,4.0,29,0.00,,---,0.00,VWS V14.01,2013-07-31 15:11:00,
2013-07-31 11:12:00,83.7,48.1,29.17,WNW,292,2.0,4.0,29,0.00,,---,0.00,VWS V14.01,2013-07-31 15:12:00,
2013-07-31 11:13:00,83.7,48.1,29.17,SE,135,2.7,2.7,29,0.00,,---,0.00,VWS V14.01,2013-07-31 15:13:00,
2013-07-31 11:14:00,83.7,48.1,29.17,WNW,292,2.0,2.0,29,0.00,,---,0.00,VWS V14.01,2013-07-31 15:14:00,
2013-07-31 11:15:00,83.7,48.1,29.17,WSW,248,2.0,2.0,29,0.00,,---,0.00,VWS V14.01,2013-07-31 15:15:00,
2013-07-31 11:16:00,84.2,48.5,29.17,WSW,248,2.2,2.2,29,0.00,,---,0.00,VWS V14.01,2013-07-31 15:16:00,
2013-07-31 11:17:00,84.2,48.5,29.17,North,0,1.6,2.2,29,0.00,,---,0.00,VWS V14.01,2013-07-31 15:17:00,
2013-07-31 11:18:00,84.0,48.4,29.17,NE,45,1.6,1.6,29,0.00,,---,0.00,VWS V14.01,2013-07-31 15:18:00,
2013-07-31 11:19:00,84.4,48.7,29.17,NNW,338,2.0,2.0,29,0.00,,---,0.00,VWS V14.01,2013-07-31 15:19:00,
2013-07-31 11:20:00,84.4,48.7,29.17,WNW,292,2.0,2.0,29,0.00,,---,0.00,VWS V14.01,2013-07-31 15:20:00,
2013-07-31 11:21:00,84.2,46.6,29.17,SW,225,2.5,2.5,27,0.00,,---,0.00,VWS V14.01,2013-07-31 15:21:00,
2013-07-31 11:22:00,84.2,46.6,29.17,SW,225,1.6,2.5,27,0.00,,---,0.00,VWS V14.01,2013-07-31 15:22:00,
2013-07-31 11:23:00,84.2,46.6,29.17,SW,225,0.0,1.6,27,0.00,,---,0.00,VWS V14.01,2013-07-31 15:23:00,
2013-07-31 11:24:00,84.2,47.6,29.17,WNW,292,1.1,6.0,28,0.00,,---,0.00,VWS V14.01,2013-07-31 15:24:00,
2013-07-31 11:25:00,84.2,47.6,29.17,WNW,292,1.1,6.0,28,0.00,,---,0.00,VWS V14.01,2013-07-31 15:25:00,
2013-07-31 11:26:00,85.1,48.4,29.17,WNW,292,0.0,1.1,28,0.00,,---,0.00,VWS V14.01,2013-07-31 15:26:00,
2013-07-31 11:27:00,85.1,48.4,29.17,WSW,248,2.7,2.7,28,0.00,,---,0.00,VWS V14.01,2013-07-31 15:27:00,
2013-07-31 11:28:00,84.6,48.8,29.17,NW,315,2.9,2.9,29,0.00,,---,0.00,VWS V14.01,2013-07-31 15:28:00,
2013-07-31 11:29:00,84.6,48.8,29.17,WSW,248,2.5,2.5,29,0.00,,---,0.00,VWS V14.01,2013-07-31 15:29:00,
2013-07-31 11:30:00,84.6,48.8,29.17,ENE,68,3.1,3.1,29,0.00,,---,0.00,VWS V14.01,2013-07-31 15:30:00,
2013-07-31 11:31:00,84.6,48.8,29.17,NE,45,3.6,3.6,29,0.00,,---,0.00,VWS V14.01,2013-07-31 15:31:00,
2013-07-31 11:32:00,84.4,45.8,29.17,NW,315,1.3,3.6,26,0.00,,---,0.00,VWS V14.01,2013-07-31 15:32:00,
2013-07-31 11:33:00,84.4,45.8,29.17,NW,315,0.0,1.3,26,0.00,,---,0.00,VWS V14.01,2013-07-31 15:33:00,
2013-07-31 11:34:00,84.6,47.9,29.17,NW,315,0.0,0.0,28,0.00,,---,0.00,VWS V14.01,2013-07-31 15:34:00,
2013-07-31 11:35:00,85.1,48.4,29.17,NW,315,2.2,2.2,28,0.00,,---,0.00,VWS V14.01,2013-07-31 15:35:00,
2013-07-31 11:36:00,85.1,48.4,29.17,NW,315,2.2,2.2,28,0.00,,---,0.00,VWS V14.01,2013-07-31 15:36:00,
2013-07-31 11:37:00,85.1,48.4,29.17,NW,315,2.2,2.2,28,0.00,,---,0.00,VWS V14.01,2013-07-31 15:37:00,
2013-07-31 11:38:00,85.1,48.4,29.17,NW,315,2.0,2.2,28,0.00,,---,0.00,VWS V14.01,2013-07-31 15:38:00,
2013-07-31 11:39:00,85.1,46.4,29.17,WSW,248,2.7,2.7,26,0.00,,---,0.00,VWS V14.01,2013-07-31 15:39:00,
2013-07-31 11:40:00,84.9,47.2,29.17,WSW,248,2.7,2.7,27,0.00,,---,0.00,VWS V14.01,2013-07-31 15:40:00,
2013-07-31 11:41:00,84.9,47.2,29.17,WSW,248,2.2,2.7,27,0.00,,---,0.00,VWS V14.01,2013-07-31 15:41:00,
2013-07-31 11:42:00,85.6,49.8,29.17,WSW,248,2.0,3.8,29,0.00,,---,0.00,VWS V14.01,2013-07-31 15:42:00,
2013-07-31 11:43:00,85.6,49.8,29.17,WSW,248,2.0,2.0,29,0.00,,---,0.00,VWS V14.01,2013-07-31 15:43:00,
2013-07-31 11:44:00,85.6,47.9,29.17,NW,315,2.9,2.9,27,0.00,,---,0.00,VWS V14.01,2013-07-31 15:44:00,
2013-07-31 11:45:00,85.6,47.9,29.17,NW,315,2.0,2.9,27,0.00,,---,0.00,VWS V14.01,2013-07-31 15:45:00,
2013-07-31 11:46:00,85.3,46.5,29.17,ESE,112,2.5,2.5,26,0.00,,---,0.00,VWS V14.01,2013-07-31 15:46:00,
2013-07-31 11:47:00,84.7,45.1,29.17,SW,225,1.3,2.5,25,0.00,,---,0.00,VWS V14.01,2013-07-31 15:47:00,
2013-07-31 11:48:00,84.7,45.1,29.17,WSW,248,0.0,1.3,25,0.00,,---,0.00,VWS V14.01,2013-07-31 15:48:00,
2013-07-31 11:49:00,84.9,48.2,29.17,West,270,2.5,2.5,28,0.00,,---,0.00,VWS V14.01,2013-07-31 15:49:00,
2013-07-31 11:50:00,84.9,48.2,29.17,West,270,2.9,2.9,28,0.00,,---,0.00,VWS V14.01,2013-07-31 15:50:00,
2013-07-31 11:51:00,84.9,48.2,29.17,West,270,3.1,3.1,28,0.00,,---,0.00,VWS V14.01,2013-07-31 15:51:00,
2013-07-31 11:52:00,84.9,48.2,29.17,West,270,2.0,3.1,28,0.00,,---,0.00,VWS V14.01,2013-07-31 15:52:00,
2013-07-31 11:53:00,86.5,50.5,29.17,West,270,2.7,2.7,29,0.00,,---,0.00,VWS V14.01,2013-07-31 15:53:00,
2013-07-31 11:54:00,86.9,49.9,29.17,WNW,292,1.6,1.6,28,0.00,,---,0.00,VWS V14.01,2013-07-31 15:54:00,
2013-07-31 11:55:00,86.9,49.9,29.17,WNW,292,1.6,1.6,28,0.00,,---,0.00,VWS V14.01,2013-07-31 15:55:00,
2013-07-31 11:56:00,86.9,49.9,29.17,WNW,292,1.1,1.6,28,0.00,,---,0.00,VWS V14.01,2013-07-31 15:56:00,
2013-07-31 11:57:00,86.9,49.9,29.17,WNW,292,0.0,1.1,28,0.00,,---,0.00,VWS V14.01,2013-07-31 15:57:00,
2013-07-31 11:58:00,86.4,49.4,29.17,WNW,292,0.0,0.0,28,0.00,,---,0.00,VWS V14.01,2013-07-31 15:58:00,
2013-07-31 11:59:00,86.4,49.4,29.17,WNW,292,2.9,2.9,28,0.00,,---,0.00,VWS V14.01,2013-07-31 15:59:00,
2013-07-31 12:00:00,86.5,47.6,29.17,WNW,292,3.4,3.4,26,0.00,,---,0.00,VWS V14.01,2013-07-31 16:00:00,
2013-07-31 12:01:00,86.5,47.6,29.17,WNW,292,3.4,3.4,26,0.00,,---,0.00,VWS V14.01,2013-07-31 16:01:00,
2013-07-31 12:02:00,86.5,47.6,29.17,WSW,248,0.9,3.4,26,0.00,,---,0.00,VWS V14.01,2013-07-31 16:02:00,
2013-07-31 12:03:00,86.2,46.3,29.17,WSW,248,0.9,0.9,25,0.00,,---,0.00,VWS V14.01,2013-07-31 16:03:00,
2013-07-31 12:04:00,86.2,46.3,29.17,WSW,248,0.9,0.9,25,0.00,,---,0.00,VWS V14.01,2013-07-31 16:04:00,
2013-07-31 12:05:00,86.0,45.0,29.17,WSW,248,0.9,0.9,24,0.00,,---,0.00,VWS V14.01,2013-07-31 16:05:00,
2013-07-31 12:06:00,86.0,45.0,29.17,WSW,248,0.9,0.9,24,0.00,,---,0.00,VWS V14.01,2013-07-31 16:06:00,
2013-07-31 12:07:00,86.0,45.0,29.17,WSW,248,2.2,2.2,24,0.00,,---,0.00,VWS V14.01,2013-07-31 16:07:00,
2013-07-31 12:08:00,86.0,45.0,29.17,WNW,292,2.7,2.7,24,0.00,,---,0.00,VWS V14.01,2013-07-31 16:08:00,
2013-07-31 12:09:00,85.8,44.9,29.17,WNW,292,2.5,2.9,24,0.00,,---,0.00,VWS V14.01,2013-07-31 16:09:00,
2013-07-31 12:10:00,85.8,44.9,29.17,WNW,292,2.5,2.9,24,0.00,,---,0.00,VWS V14.01,2013-07-31 16:10:00,
2013-07-31 12:11:00,86.2,47.3,29.17,WNW,292,2.5,2.5,26,0.00,,---,0.00,VWS V14.01,2013-07-31 16:11:00,
2013-07-31 12:12:00,86.7,48.8,29.17,WNW,292,2.5,2.5,27,0.00,,---,0.00,VWS V14.01,2013-07-31 16:12:00,
2013-07-31 12:13:00,86.7,48.8,29.17,WNW,292,2.5,2.5,27,0.00,,---,0.00,VWS V14.01,2013-07-31 16:13:00,
2013-07-31 12:14:00,86.2,42.9,29.17,WNW,292,2.5,2.5,22,0.00,,---,0.00,VWS V14.01,2013-07-31 16:14:00,
2013-07-31 12:15:00,86.2,42.9,29.17,WNW,292,2.5,2.5,22,0.00,,---,0.00,VWS V14.01,2013-07-31 16:15:00,
2013-07-31 12:16:00,85.6,43.6,29.17,WNW,292,2.5,2.5,23,0.00,,---,0.00,VWS V14.01,2013-07-31 16:16:00,
2013-07-31 12:17:00,85.6,43.6,29.17,WNW,292,2.5,2.5,23,0.00,,---,0.00,VWS V14.01,2013-07-31 16:17:00,
2013-07-31 12:18:00,86.5,45.5,29.17,WNW,292,2.5,2.5,24,0.00,,---,0.00,VWS V14.01,2013-07-31 16:18:00,
2013-07-31 12:19:00,86.4,44.2,29.17,WNW,292,2.5,2.5,23,0.00,,---,0.00,VWS V14.01,2013-07-31 16:19:00,
2013-07-31 12:20:00,86.4,44.2,29.15,WNW,292,2.5,2.5,23,0.00,,---,0.00,VWS V14.01,2013-07-31 16:20:00,
2013-07-31 12:21:00,86.9,45.8,29.15,WNW,292,2.5,2.5,24,0.00,,---,0.00,VWS V14.01,2013-07-31 16:21:00,
2013-07-31 12:22:00,86.9,45.8,29.15,WNW,292,2.5,2.5,24,0.00,,---,0.00,VWS V14.01,2013-07-31 16:22:00,
2013-07-31 12:23:00,86.9,44.7,29.15,WNW,292,2.5,2.5,23,0.00,,---,0.00,VWS V14.01,2013-07-31 16:23:00,
2013-07-31 12:24:00,87.1,44.8,29.14,WNW,292,2.5,2.5,23,0.00,,---,0.00,VWS V14.01,2013-07-31 16:24:00,
2013-07-31 12:25:00,87.1,44.8,29.15,WNW,292,2.5,2.5,23,0.00,,---,0.00,VWS V14.01,2013-07-31 16:25:00,
2013-07-31 12:26:00,87.1,44.8,29.15,WNW,292,2.5,2.5,23,0.00,,---,0.00,VWS V14.01,2013-07-31 16:26:00,
2013-07-31 12:27:00,87.1,44.8,29.15,WNW,292,2.5,2.5,23,0.00,,---,0.00,VWS V14.01,2013-07-31 16:27:00,
2013-07-31 12:28:00,85.8,43.8,29.15,WNW,292,2.5,2.5,23,0.00,,---,0.00,VWS V14.01,2013-07-31 16:28:00,
2013-07-31 12:29:00,85.8,43.8,29.14,WNW,292,2.5,2.5,23,0.00,,---,0.00,VWS V14.01,2013-07-31 16:29:00,
2013-07-31 12:30:00,86.4,46.4,29.15,WNW,292,2.5,2.5,25,0.00,,---,0.00,VWS V14.01,2013-07-31 16:30:00,
2013-07-31 12:31:00,86.4,46.4,29.15,WNW,292,2.5,2.5,25,0.00,,---,0.00,VWS V14.01,2013-07-31 16:31:00,
2013-07-31 12:32:00,86.4,44.2,29.15,SSE,158,0.0,2.5,23,0.00,,---,0.00,VWS V14.01,2013-07-31 16:32:00,
2013-07-31 12:33:00,86.5,45.5,29.15,South,180,0.0,0.0,24,0.00,,---,0.00,VWS V14.01,2013-07-31 16:33:00,
2013-07-31 12:34:00,86.5,45.5,29.14,South,180,0.0,0.0,24,0.00,,---,0.00,VWS V14.01,2013-07-31 16:34:00,
2013-07-31 12:35:00,87.1,47.0,29.15,South,180,0.0,0.0,25,0.00,,---,0.00,VWS V14.01,2013-07-31 16:35:00,
2013-07-31 12:36:00,87.1,47.0,29.15,West,270,2.5,2.5,25,0.00,,---,0.00,VWS V14.01,2013-07-31 16:36:00,
2013-07-31 12:37:00,86.7,45.7,29.15,WSW,248,2.7,2.7,24,0.00,,---,0.00,VWS V14.01,2013-07-31 16:37:00,
2013-07-31 12:38:00,86.7,45.7,29.15,WSW,248,2.0,2.9,24,0.00,,---,0.00,VWS V14.01,2013-07-31 16:38:00,
2013-07-31 12:39:00,86.7,45.7,29.14,West,270,2.5,2.5,24,0.00,,---,0.00,VWS V14.01,2013-07-31 16:39:00,
2013-07-31 12:40:00,86.7,45.7,29.15,West,270,2.5,2.5,24,0.00,,---,0.00,VWS V14.01,2013-07-31 16:40:00,
2013-07-31 12:41:00,87.6,48.5,29.15,West,270,1.3,2.5,26,0.00,,---,0.00,VWS V14.01,2013-07-31 16:41:00,
2013-07-31 12:42:00,87.6,50.5,29.15,West,270,2.2,2.2,28,0.00,,---,0.00,VWS V14.01,2013-07-31 16:42:00,
2013-07-31 12:43:00,87.6,50.5,29.15,West,270,2.2,2.2,28,0.00,,---,0.00,VWS V14.01,2013-07-31 16:43:00,
2013-07-31 12:44:00,88.2,49.0,29.14,West,270,2.0,2.2,26,0.00,,---,0.00,VWS V14.01,2013-07-31 16:44:00,
2013-07-31 12:45:00,88.2,49.0,29.15,NW,315,2.7,2.7,26,0.00,,---,0.00,VWS V14.01,2013-07-31 16:45:00,
2013-07-31 12:46:00,87.8,46.6,29.15,NW,315,2.7,2.7,24,0.00,,---,0.00,VWS V14.01,2013-07-31 16:46:00,
2013-07-31 12:47:00,87.8,46.6,29.15,WNW,292,2.5,2.7,24,0.00,,---,0.00,VWS V14.01,2013-07-31 16:47:00,
2013-07-31 12:48:00,87.4,46.2,29.15,SSW,202,1.6,2.5,24,0.00,,---,0.00,VWS V14.01,2013-07-31 16:48:00,
2013-07-31 12:49:00,87.6,44.1,29.14,NW,315,3.8,3.8,22,0.00,,---,0.00,VWS V14.01,2013-07-31 16:49:00,
2013-07-31 12:50:00,87.6,44.1,29.15,West,270,2.2,3.8,22,0.00,,---,0.00,VWS V14.01,2013-07-31 16:50:00,
2013-07-31 12:51:00,87.8,43.0,29.15,West,270,2.2,2.2,21,0.00,,---,0.00,VWS V14.01,2013-07-31 16:51:00,
2013-07-31 12:52:00,87.8,43.0,29.15,SSW,202,0.9,2.2,21,0.00,,---,0.00,VWS V14.01,2013-07-31 16:52:00,
2013-07-31 12:53:00,87.1,43.7,29.15,WNW,292,2.5,2.5,22,0.00,,---,0.00,VWS V14.01,2013-07-31 16:53:00,
2013-07-31 12:54:00,87.1,43.7,29.14,SSE,158,1.3,1.3,22,0.00,,---,0.00,VWS V14.01,2013-07-31 16:54:00,
2013-07-31 12:55:00,86.7,43.4,29.15,SSW,202,0.9,1.3,22,0.00,,---,0.00,VWS V14.01,2013-07-31 16:55:00,
2013-07-31 12:56:00,87.8,45.4,29.15,SSE,158,2.0,2.0,23,0.00,,---,0.00,VWS V14.01,2013-07-31 16:56:00,
2013-07-31 12:57:00,87.8,45.4,29.15,SSE,158,1.1,2.0,23,0.00,,---,0.00,VWS V14.01,2013-07-31 16:57:00,
2013-07-31 12:58:00,88.7,47.3,29.15,SSE,158,0.0,1.1,24,0.00,,---,0.00,VWS V14.01,2013-07-31 16:58:00,
2013-07-31 12:59:00,88.7,47.3,29.14,SSE,158,0.0,0.0,24,0.00,,---,0.00,VWS V14.01,2013-07-31 16:59:00,
2013-07-31 13:00:00,88.7,46.2,29.15,SSE,158,0.0,0.0,23,0.00,,---,0.00,VWS V14.01,2013-07-31 17:00:00,
2013-07-31 13:01:00,88.7,46.2,29.15,SE,135,1.1,1.1,23,0.00,,---,0.00,VWS V14.01,2013-07-31 17:01:00,
2013-07-31 13:02:00,88.9,46.3,29.15,SE,135,0.9,1.1,23,0.00,,---,0.00,VWS V14.01,2013-07-31 17:02:00,
2013-07-31 13:03:00,88.9,46.3,29.15,SE,135,0.0,0.9,23,0.00,,---,0.00,VWS V14.01,2013-07-31 17:03:00,
2013-07-31 13:04:00,88.9,46.3,29.14,SSE,158,0.0,0.0,23,0.00,,---,0.00,VWS V14.01,2013-07-31 17:04:00,
2013-07-31 13:05:00,87.1,43.7,29.15,ESE,112,0.0,0.0,22,0.00,,---,0.00,VWS V14.01,2013-07-31 17:05:00,
2013-07-31 13:06:00,87.1,43.7,29.15,NW,315,1.3,1.3,22,0.00,,---,0.00,VWS V14.01,2013-07-31 17:06:00,
2013-07-31 13:07:00,87.1,43.7,29.15,WSW,248,3.1,3.1,22,0.00,,---,0.00,VWS V14.01,2013-07-31 17:07:00,
2013-07-31 13:08:00,87.1,43.7,29.15,WSW,248,3.1,3.1,22,0.00,,---,0.00,VWS V14.01,2013-07-31 17:08:00,
2013-07-31 13:09:00,87.1,46.0,29.14,NNE,22,2.5,3.1,24,0.00,,---,0.00,VWS V14.01,2013-07-31 17:09:00,
2013-07-31 13:10:00,87.1,46.0,29.15,NNE,22,0.0,2.5,24,0.00,,---,0.00,VWS V14.01,2013-07-31 17:10:00,
2013-07-31 13:11:00,87.4,45.1,29.15,NNE,22,0.0,0.0,23,0.00,,---,0.00,VWS V14.01,2013-07-31 17:11:00,
2013-07-31 13:12:00,87.6,45.3,29.15,NW,315,1.6,1.6,23,0.00,,---,0.00,VWS V14.01,2013-07-31 17:12:00,
2013-07-31 13:13:00,87.6,45.3,29.15,NW,315,1.6,1.6,23,0.00,,---,0.00,VWS V14.01,2013-07-31 17:13:00,
2013-07-31 13:14:00,87.8,44.3,29.14,East,90,0.9,1.6,22,0.00,,---,0.00,VWS V14.01,2013-07-31 17:14:00,
2013-07-31 13:15:00,87.8,44.3,29.15,SSW,202,3.1,3.1,22,0.00,,---,0.00,VWS V14.01,2013-07-31 17:15:00,
2013-07-31 13:16:00,87.8,44.3,29.15,SSW,202,3.1,3.1,22,0.00,,---,0.00,VWS V14.01,2013-07-31 17:16:00,
2013-07-31 13:17:00,87.8,44.3,29.15,South,180,1.6,3.1,22,0.00,,---,0.00,VWS V14.01,2013-07-31 17:17:00,
2013-07-31 13:18:00,89.1,46.5,29.15,SW,225,1.6,1.6,23,0.00,,---,0.00,VWS V14.01,2013-07-31 17:18:00,
2013-07-31 13:19:00,89.2,47.8,29.14,WSW,248,2.7,2.7,24,0.00,,---,0.00,VWS V14.01,2013-07-31 17:19:00,
2013-07-31 13:20:00,89.2,47.8,29.15,WSW,248,4.3,4.3,24,0.00,,---,0.00,VWS V14.01,2013-07-31 17:20:00,
2013-07-31 13:21:00,89.2,46.6,29.15,SW,225,3.4,4.3,23,0.00,,---,0.00,VWS V14.01,2013-07-31 17:21:00,
2013-07-31 13:22:00,89.2,46.6,29.15,SW,225,3.4,3.4,23,0.00,,---,0.00,VWS V14.01,2013-07-31 17:22:00,
2013-07-31 13:23:00,89.8,49.3,29.15,WSW,248,2.9,3.4,25,0.00,,---,0.00,VWS V14.01,2013-07-31 17:23:00,
2013-07-31 13:24:00,89.8,49.3,29.14,WNW,292,2.9,2.9,25,0.00,,---,0.00,VWS V14.01,2013-07-31 17:24:00,
2013-07-31 13:25:00,89.2,46.6,29.15,WNW,292,2.9,2.9,23,0.00,,---,0.00,VWS V14.01,2013-07-31 17:25:00,
2013-07-31 13:26:00,88.5,44.9,29.15,WNW,292,2.9,2.9,22,0.00,,---,0.00,VWS V14.01,2013-07-31 17:26:00,
2013-07-31 13:27:00,88.5,44.9,29.15,West,270,2.7,2.9,22,0.00,,---,0.00,VWS V14.01,2013-07-31 17:27:00,
2013-07-31 13:28:00,88.5,44.9,29.15,West,270,2.9,2.9,22,0.00,,---,0.00,VWS V14.01,2013-07-31 17:28:00,
2013-07-31 13:29:00,88.5,44.9,29.14,NW,315,2.2,2.9,22,0.00,,---,0.00,VWS V14.01,2013-07-31 17:29:00,
2013-07-31 13:30:00,84.7,44.0,29.15,WNW,292,2.9,2.9,24,0.00,,---,0.00,VWS V14.01,2013-07-31 17:30:00,
2013-07-31 13:31:00,84.7,44.0,29.15,West,270,1.6,2.9,24,0.00,,---,0.00,VWS V14.01,2013-07-31 17:31:00,
2013-07-31 13:32:00,85.3,45.5,29.15,West,270,2.0,2.0,25,0.00,,---,0.00,VWS V14.01,2013-07-31 17:32:00,
2013-07-31 13:33:00,86.2,47.3,29.15,West,270,3.6,3.6,26,0.00,,---,0.00,VWS V14.01,2013-07-31 17:33:00,
2013-07-31 13:34:00,86.2,47.3,29.14,WNW,292,2.7,3.6,26,0.00,,---,0.00,VWS V14.01,2013-07-31 17:34:00,
2013-07-31 13:35:00,85.5,45.7,29.15,WNW,292,2.2,2.2,25,0.00,,---,0.00,VWS V14.01,2013-07-31 17:35:00,
2013-07-31 13:36:00,85.5,45.7,29.11,WNW,292,2.2,2.2,25,0.00,,---,0.00,VWS V14.01,2013-07-31 17:36:00,
2013-07-31 13:37:00,86.2,45.2,29.11,NW,315,2.2,2.2,24,0.00,,---,0.00,VWS V14.01,2013-07-31 17:37:00,
2013-07-31 13:38:00,86.2,45.2,29.11,NW,315,0.0,2.2,24,0.00,,---,0.00,VWS V14.01,2013-07-31 17:38:00,
2013-07-31 13:39:00,87.1,43.7,29.12,NW,315,1.1,1.1,22,0.00,,---,0.00,VWS V14.01,2013-07-31 17:39:00,
2013-07-31 13:40:00,87.1,43.7,29.11,WSW,248,2.9,2.9,22,0.00,,---,0.00,VWS V14.01,2013-07-31 17:40:00,
2013-07-31 13:41:00,87.1,43.7,29.11,WSW,248,2.2,2.9,22,0.00,,---,0.00,VWS V14.01,2013-07-31 17:41:00,
2013-07-31 13:42:00,86.9,45.8,29.11,WSW,248,2.2,2.2,24,0.00,,---,0.00,VWS V14.01,2013-07-31 17:42:00,
2013-07-31 13:43:00,86.9,45.8,29.11,WSW,248,3.1,3.1,24,0.00,,---,0.00,VWS V14.01,2013-07-31 17:43:00,
2013-07-31 13:44:00,85.6,45.8,29.12,West,270,2.9,3.1,25,0.00,,---,0.00,VWS V14.01,2013-07-31 17:44:00,
2013-07-31 13:45:00,85.6,45.8,29.11,West,270,2.9,2.9,25,0.00,,---,0.00,VWS V14.01,2013-07-31 17:45:00,
2013-07-31 13:46:00,84.9,45.2,29.11,WSW,248,3.4,3.4,25,0.00,,---,0.00,VWS V14.01,2013-07-31 17:46:00,
2013-07-31 13:47:00,84.9,45.2,29.11,WSW,248,3.4,3.4,25,0.00,,---,0.00,VWS V14.01,2013-07-31 17:47:00,
2013-07-31 13:48:00,84.2,44.6,29.11,West,270,2.2,3.4,25,0.00,,---,0.00,VWS V14.01,2013-07-31 17:48:00,
2013-07-31 13:49:00,84.2,44.6,29.12,West,270,2.2,2.2,25,0.00,,---,0.00,VWS V14.01,2013-07-31 17:49:00,
2013-07-31 13:50:00,84.0,46.5,29.11,WNW,292,3.8,4.3,27,0.00,,---,0.00,VWS V14.01,2013-07-31 17:50:00,
2013-07-31 13:51:00,86.0,48.2,29.11,West,270,4.3,4.3,27,0.00,,---,0.00,VWS V14.01,2013-07-31 17:51:00,
2013-07-31 13:52:00,86.0,48.2,29.11,West,270,4.0,4.3,27,0.00,,---,0.00,VWS V14.01,2013-07-31 17:52:00,
2013-07-31 13:53:00,87.4,48.4,29.11,SW,225,4.0,4.0,26,0.00,,---,0.00,VWS V14.01,2013-07-31 17:53:00,
2013-07-31 13:54:00,87.4,48.4,29.12,WNW,292,2.9,4.0,26,0.00,,---,0.00,VWS V14.01,2013-07-31 17:54:00,
2013-07-31 13:55:00,88.0,46.7,29.11,WNW,292,2.0,2.9,24,0.00,,---,0.00,VWS V14.01,2013-07-31 17:55:00,
2013-07-31 13:56:00,88.0,46.7,29.11,NE,45,2.5,2.5,24,0.00,,---,0.00,VWS V14.01,2013-07-31 17:56:00,
2013-07-31 13:57:00,87.1,47.0,29.11,WNW,292,2.7,2.7,25,0.00,,---,0.00,VWS V14.01,2013-07-31 17:57:00,
2013-07-31 13:58:00,87.1,46.0,29.11,West,270,3.6,3.6,24,0.00,,---,0.00,VWS V14.01,2013-07-31 17:58:00,
2013-07-31 13:59:00,87.1,46.0,29.12,West,270,0.0,3.6,24,0.00,,---,0.00,VWS V14.01,2013-07-31 17:59:00,
2013-07-31 14:00:00,87.1,46.0,29.11,West,270,0.0,0.0,24,0.00,,---,0.00,VWS V14.01,2013-07-31 18:00:00,
2013-07-31 14:01:00,87.1,46.0,29.11,West,270,0.0,0.0,24,0.00,,---,0.00,VWS V14.01,2013-07-31 18:01:00,
2013-07-31 14:02:00,87.1,46.0,29.11,West,270,1.3,2.7,24,0.00,,---,0.00,VWS V14.01,2013-07-31 18:02:00,
2013-07-31 14:03:00,87.1,46.0,29.11,West,270,0.0,1.3,24,0.00,,---,0.00,VWS V14.01,2013-07-31 18:03:00,
2013-07-31 14:04:00,85.1,45.4,29.12,West,270,0.0,0.0,25,0.00,,---,0.00,VWS V14.01,2013-07-31 18:04:00,
2013-07-31 14:05:00,85.1,45.4,29.11,West,270,0.0,0.0,25,0.00,,---,0.00,VWS V14.01,2013-07-31 18:05:00,
2013-07-31 14:06:00,85.1,45.4,29.11,West,270,0.0,0.0,25,0.00,,---,0.00,VWS V14.01,2013-07-31 18:06:00,
2013-07-31 14:07:00,84.2,45.6,29.11,West,270,0.0,0.0,26,0.00,,---,0.00,VWS V14.01,2013-07-31 18:07:00,
2013-07-31 14:08:00,84.2,45.6,29.11,SW,225,2.7,2.7,26,0.00,,---,0.00,VWS V14.01,2013-07-31 18:08:00,
2013-07-31 14:09:00,83.1,43.7,29.12,WSW,248,2.0,2.7,25,0.00,,---,0.00,VWS V14.01,2013-07-31 18:09:00,
2013-07-31 14:10:00,83.1,43.7,29.11,WSW,248,3.4,3.4,25,0.00,,---,0.00,VWS V14.01,2013-07-31 18:10:00,
2013-07-31 14:11:00,82.4,44.1,29.11,WNW,292,2.7,3.4,26,0.00,,---,0.00,VWS V14.01,2013-07-31 18:11:00,
2013-07-31 14:12:00,82.4,44.1,29.11,WSW,248,2.5,2.7,26,0.00,,---,0.00,VWS V14.01,2013-07-31 18:12:00,
2013-07-31 14:13:00,82.2,45.9,29.11,SW,225,3.4,3.4,28,0.00,,---,0.00,VWS V14.01,2013-07-31 18:13:00,
2013-07-31 14:14:00,82.9,46.5,29.12,WSW,248,1.6,3.4,28,0.00,,---,0.00,VWS V14.01,2013-07-31 18:14:00,
2013-07-31 14:15:00,82.9,46.5,29.11,WSW,248,0.0,1.6,28,0.00,,---,0.00,VWS V14.01,2013-07-31 18:15:00,
2013-07-31 14:16:00,84.2,46.6,29.11,WSW,248,2.2,2.7,27,0.00,,---,0.00,VWS V14.01,2013-07-31 18:16:00,
2013-07-31 14:17:00,84.2,46.6,29.11,WSW,248,2.0,2.2,27,0.00,,---,0.00,VWS V14.01,2013-07-31 18:17:00,
2013-07-31 14:18:00,84.2,46.6,29.11,West,270,2.5,2.5,27,0.00,,---,0.00,VWS V14.01,2013-07-31 18:18:00,
2013-07-31 14:19:00,84.2,46.6,29.12,West,270,3.8,3.8,27,0.00,,---,0.00,VWS V14.01,2013-07-31 18:19:00,
2013-07-31 14:20:00,87.3,48.2,29.11,West,270,2.9,3.8,26,0.00,,---,0.00,VWS V14.01,2013-07-31 18:20:00,
2013-07-31 14:21:00,88.2,50.0,29.11,West,270,2.9,2.9,27,0.00,,---,0.00,VWS V14.01,2013-07-31 18:21:00,
2013-07-31 14:22:00,88.2,50.0,29.11,WSW,248,5.4,5.4,27,0.00,,---,0.00,VWS V14.01,2013-07-31 18:22:00,
2013-07-31 14:23:00,88.5,48.2,29.11,WSW,248,2.7,5.4,25,0.00,,---,0.00,VWS V14.01,2013-07-31 18:23:00,
2013-07-31 14:24:00,88.5,48.2,29.12,WNW,292,5.8,5.8,25,0.00,,---,0.00,VWS V14.01,2013-07-31 18:24:00,
2013-07-31 14:25:00,88.0,45.6,29.11,WNW,292,2.9,5.8,23,0.00,,---,0.00,VWS V14.01,2013-07-31 18:25:00,
2013-07-31 14:26:00,88.0,47.8,29.11,WSW,248,4.0,4.0,25,0.00,,---,0.00,VWS V14.01,2013-07-31 18:26:00,
2013-07-31 14:27:00,88.0,47.8,29.11,West,270,4.3,4.3,25,0.00,,---,0.00,VWS V14.01,2013-07-31 18:27:00,
2013-07-31 14:28:00,88.0,47.8,29.11,West,270,3.1,4.3,25,0.00,,---,0.00,VWS V14.01,2013-07-31 18:28:00,
2013-07-31 14:29:00,88.0,47.8,29.12,WNW,292,3.4,3.4,25,0.00,,---,0.00,VWS V14.01,2013-07-31 18:29:00,
2013-07-31 14:30:00,88.0,47.8,29.11,WNW,292,0.9,3.4,25,0.00,,---,0.00,VWS V14.01,2013-07-31 18:30:00,
2013-07-31 14:31:00,88.0,47.8,29.11,WNW,292,0.0,0.9,25,0.00,,---,0.00,VWS V14.01,2013-07-31 18:31:00,
2013-07-31 14:32:00,87.4,46.2,29.11,WSW,248,2.5,2.5,24,0.00,,---,0.00,VWS V14.01,2013-07-31 18:32:00,
2013-07-31 14:33:00,87.4,46.2,29.11,SW,225,3.1,3.1,24,0.00,,---,0.00,VWS V14.01,2013-07-31 18:33:00,
2013-07-31 14:34:00,87.3,45.0,29.12,SW,225,3.1,3.1,23,0.00,,---,0.00,VWS V14.01,2013-07-31 18:34:00,
2013-07-31 14:35:00,87.1,44.8,29.11,WNW,292,2.2,3.1,23,0.00,,---,0.00,VWS V14.01,2013-07-31 18:35:00,
2013-07-31 14:36:00,87.1,44.8,29.11,WSW,248,4.0,4.0,23,0.00,,---,0.00,VWS V14.01,2013-07-31 18:36:00,
2013-07-31 14:37:00,87.3,43.8,29.11,WSW,248,3.4,4.0,22,0.00,,---,0.00,VWS V14.01,2013-07-31 18:37:00,
2013-07-31 14:38:00,87.3,43.8,29.11,WSW,248,2.7,3.4,22,0.00,,---,0.00,VWS V14.01,2013-07-31 18:38:00,
2013-07-31 14:39:00,87.8,45.4,29.12,WSW,248,2.7,2.7,23,0.00,,---,0.00,VWS V14.01,2013-07-31 18:39:00,
2013-07-31 14:40:00,87.8,45.4,29.11,WSW,248,2.7,2.7,23,0.00,,---,0.00,VWS V14.01,2013-07-31 18:40:00,
2013-07-31 14:41:00,88.2,45.7,29.11,NW,315,2.9,2.9,23,0.00,,---,0.00,VWS V14.01,2013-07-31 18:41:00,
2013-07-31 14:42:00,88.2,45.7,29.11,West,270,2.9,2.9,23,0.00,,---,0.00,VWS V14.01,2013-07-31 18:42:00,
2013-07-31 14:43:00,88.2,45.7,29.11,West,270,3.1,3.1,23,0.00,,---,0.00,VWS V14.01,2013-07-31 18:43:00,
2013-07-31 14:44:00,87.3,43.8,29.12,West,270,3.1,3.1,22,0.00,,---,0.00,VWS V14.01,2013-07-31 18:44:00,
2013-07-31 14:45:00,87.3,43.8,29.11,WNW,292,3.8,3.8,22,0.00,,---,0.00,VWS V14.01,2013-07-31 18:45:00,
2013-07-31 14:46:00,88.2,45.7,29.11,WSW,248,3.1,3.8,23,0.00,,---,0.00,VWS V14.01,2013-07-31 18:46:00,
2013-07-31 14:47:00,88.2,45.7,29.11,WSW,248,2.9,3.1,23,0.00,,---,0.00,VWS V14.01,2013-07-31 18:47:00,
2013-07-31 14:48:00,89.2,47.8,29.11,WSW,248,1.3,2.9,24,0.00,,---,0.00,VWS V14.01,2013-07-31 18:48:00,
2013-07-31 14:49:00,89.2,47.8,29.12,WSW,248,2.0,2.0,24,0.00,,---,0.00,VWS V14.01,2013-07-31 18:49:00,
2013-07-31 14:50:00,89.1,45.3,29.09,WSW,248,2.0,2.0,22,0.00,,---,0.00,VWS V14.01,2013-07-31 18:50:00,
2013-07-31 14:51:00,87.3,45.0,29.09,WSW,248,2.0,2.0,23,0.00,,---,0.00,VWS V14.01,2013-07-31 18:51:00,
2013-07-31 14:52:00,87.3,45.0,29.09,WSW,248,0.0,2.0,23,0.00,,---,0.00,VWS V14.01,2013-07-31 18:52:00,
2013-07-31 14:53:00,85.8,43.8,29.09,WNW,292,0.0,0.0,23,0.00,,---,0.00,VWS V14.01,2013-07-31 18:53:00,
2013-07-31 14:54:00,85.8,43.8,29.09,WNW,292,0.0,0.0,23,0.00,,---,0.00,VWS V14.01,2013-07-31 18:54:00,
2013-07-31 14:55:00,85.8,43.8,29.09,WNW,292,0.0,0.0,23,0.00,,---,0.00,VWS V14.01,2013-07-31 18:55:00,
2013-07-31 14:56:00,85.8,43.8,29.09,West,270,0.0,0.0,23,0.00,,---,0.00,VWS V14.01,2013-07-31 18:56:00,
2013-07-31 14:57:00,83.7,44.2,29.09,West,270,0.0,0.0,25,0.00,,---,0.00,VWS V14.01,2013-07-31 18:57:00,
2013-07-31 14:58:00,82.8,44.4,29.09,West,270,0.0,0.0,26,0.00,,---,0.00,VWS V14.01,2013-07-31 18:58:00,
2013-07-31 14:59:00,82.8,44.4,29.09,WNW,292,1.1,1.1,26,0.00,,---,0.00,VWS V14.01,2013-07-31 18:59:00,
2013-07-31 15:00:00,82.4,44.1,29.09,WNW,292,0.0,1.6,26,0.00,,---,0.00,VWS V14.01,2013-07-31 19:00:00,
2013-07-31 15:01:00,82.4,44.1,29.09,WSW,248,3.4,3.4,26,0.00,,---,0.00,VWS V14.01,2013-07-31 19:01:00,
2013-07-31 15:02:00,84.4,44.8,29.09,WSW,248,1.6,3.4,25,0.00,,---,0.00,VWS V14.01,2013-07-31 19:02:00,
2013-07-31 15:03:00,84.4,44.8,29.09,WSW,248,1.6,1.6,25,0.00,,---,0.00,VWS V14.01,2013-07-31 19:03:00,
2013-07-31 15:04:00,85.6,45.8,29.09,WSW,248,1.6,1.6,25,0.00,,---,0.00,VWS V14.01,2013-07-31 19:04:00,
2013-07-31 15:05:00,85.6,45.8,29.09,WSW,248,2.9,2.9,25,0.00,,---,0.00,VWS V14.01,2013-07-31 19:05:00,
2013-07-31 15:06:00,86.4,47.5,29.09,WSW,248,3.1,3.1,26,0.00,,---,0.00,VWS V14.01,2013-07-31 19:06:00,
2013-07-31 15:07:00,86.4,47.5,29.09,WSW,248,2.7,3.1,26,0.00,,---,0.00,VWS V14.01,2013-07-31 19:07:00,
2013-07-31 15:08:00,86.4,47.5,29.09,WSW,248,2.5,2.7,26,0.00,,---,0.00,VWS V14.01,2013-07-31 19:08:00,
2013-07-31 15:09:00,84.9,45.2,29.09,West,270,2.2,2.5,25,0.00,,---,0.00,VWS V14.01,2013-07-31 19:09:00,
2013-07-31 15:10:00,84.9,45.2,29.09,WSW,248,2.7,2.7,25,0.00,,---,0.00,VWS V14.01,2013-07-31 19:10:00,
2013-07-31 15:11:00,82.9,43.5,29.09,WNW,292,2.5,2.7,25,0.00,,---,0.00,VWS V14.01,2013-07-31 19:11:00,
2013-07-31 15:12:00,81.5,42.3,29.09,NW,315,2.7,2.7,25,0.00,,---,0.00,VWS V14.01,2013-07-31 19:12:00,
2013-07-31 15:13:00,81.5,42.3,29.09,NW,315,3.6,3.6,25,0.00,,---,0.00,VWS V14.01,2013-07-31 19:13:00,
2013-07-31 15:14:00,80.8,41.7,29.09,NW,315,3.6,3.6,25,0.00,,---,0.00,VWS V14.01,2013-07-31 19:14:00,
2013-07-31 15:15:00,80.8,41.7,29.09,NW,315,1.3,3.6,25,0.00,,---,0.00,VWS V14.01,2013-07-31 19:15:00,
2013-07-31 15:16:00,81.0,42.9,29.09,NW,315,1.3,1.3,26,0.00,,---,0.00,VWS V14.01,2013-07-31 19:16:00,
2013-07-31 15:17:00,81.0,42.9,29.09,NW,315,0.0,1.3,26,0.00,,---,0.00,VWS V14.01,2013-07-31 19:17:00,
2013-07-31 15:18:00,83.3,45.9,29.09,NW,315,0.0,0.0,27,0.00,,---,0.00,VWS V14.01,2013-07-31 19:18:00,
2013-07-31 15:19:00,83.3,45.9,29.09,NW,315,0.0,0.0,27,0.00,,---,0.00,VWS V14.01,2013-07-31 19:19:00,
2013-07-31 15:20:00,83.3,45.9,29.09,WNW,292,3.4,3.4,27,0.00,,---,0.00,VWS V14.01,2013-07-31 19:20:00,
2013-07-31 15:21:00,85.3,45.5,29.09,WNW,292,2.5,3.4,25,0.00,,---,0.00,VWS V14.01,2013-07-31 19:21:00,
2013-07-31 15:22:00,85.3,45.5,29.09,WNW,292,2.5,2.5,25,0.00,,---,0.00,VWS V14.01,2013-07-31 19:22:00,
2013-07-31 15:23:00,85.5,45.7,29.09,WNW,292,2.0,2.7,25,0.00,,---,0.00,VWS V14.01,2013-07-31 19:23:00,
2013-07-31 15:24:00,85.5,45.7,29.09,WNW,292,2.0,2.7,25,0.00,,---,0.00,VWS V14.01,2013-07-31 19:24:00,
2013-07-31 15:25:00,85.5,44.6,29.09,NW,315,2.5,2.5,24,0.00,,---,0.00,VWS V14.01,2013-07-31 19:25:00,
2013-07-31 15:26:00,85.5,44.6,29.09,WNW,292,2.7,2.7,24,0.00,,---,0.00,VWS V14.01,2013-07-31 19:26:00,
2013-07-31 15:27:00,84.2,43.5,29.09,WNW,292,1.3,2.7,24,0.00,,---,0.00,VWS V14.01,2013-07-31 19:27:00,
2013-07-31 15:28:00,85.1,44.3,29.09,WSW,248,2.5,2.5,24,0.00,,---,0.00,VWS V14.01,2013-07-31 19:28:00,
2013-07-31 15:29:00,85.1,44.3,29.09,WSW,248,3.4,3.4,24,0.00,,---,0.00,VWS V14.01,2013-07-31 19:29:00,
2013-07-31 15:30:00,85.8,46.0,29.09,WSW,248,2.5,3.4,25,0.00,,---,0.00,VWS V14.01,2013-07-31 19:30:00,
2013-07-31 15:31:00,85.8,46.0,29.09,WSW,248,1.6,2.5,25,0.00,,---,0.00,VWS V14.01,2013-07-31 19:31:00,
2013-07-31 15:32:00,85.8,46.0,29.09,ESE,112,2.9,2.9,25,0.00,,---,0.00,VWS V14.01,2013-07-31 19:32:00,
2013-07-31 15:33:00,86.0,45.0,29.09,WSW,248,0.0,2.9,24,0.00,,---,0.00,VWS V14.01,2013-07-31 19:33:00,
2013-07-31 15:34:00,86.0,45.0,29.09,WSW,248,0.0,2.9,24,0.00,,---,0.00,VWS V14.01,2013-07-31 19:34:00,
2013-07-31 15:35:00,85.6,45.8,29.09,West,270,2.0,2.0,25,0.00,,---,0.00,VWS V14.01,2013-07-31 19:35:00,
2013-07-31 15:36:00,85.6,45.8,29.09,West,270,1.6,2.0,25,0.00,,---,0.00,VWS V14.01,2013-07-31 19:36:00,
2013-07-31 15:37:00,85.6,44.7,29.09,West,270,1.6,1.6,24,0.00,,---,0.00,VWS V14.01,2013-07-31 19:37:00,
2013-07-31 15:38:00,85.6,45.8,29.09,WSW,248,2.7,2.7,25,0.00,,---,0.00,VWS V14.01,2013-07-31 19:38:00,
2013-07-31 15:39:00,85.6,45.8,29.09,WSW,248,2.7,2.7,25,0.00,,---,0.00,VWS V14.01,2013-07-31 19:39:00,
2013-07-31 15:40:00,85.6,45.8,29.09,WSW,248,2.9,2.9,25,0.00,,---,0.00,VWS V14.01,2013-07-31 19:40:00,
2013-07-31 15:41:00,85.6,45.8,29.09,West,270,2.5,2.9,25,0.00,,---,0.00,VWS V14.01,2013-07-31 19:41:00,
2013-07-31 15:42:00,85.6,45.8,29.09,West,270,2.5,2.5,25,0.00,,---,0.00,VWS V14.01,2013-07-31 19:42:00,
2013-07-31 15:43:00,86.2,46.3,29.09,West,270,1.3,1.3,25,0.00,,---,0.00,VWS V14.01,2013-07-31 19:43:00,
2013-07-31 15:44:00,86.2,46.3,29.09,West,270,1.3,1.3,25,0.00,,---,0.00,VWS V14.01,2013-07-31 19:44:00,
2013-07-31 15:45:00,86.2,46.3,29.09,West,270,1.3,1.3,25,0.00,,---,0.00,VWS V14.01,2013-07-31 19:45:00,
2013-07-31 15:46:00,85.8,46.0,29.09,West,270,0.0,1.3,25,0.00,,---,0.00,VWS V14.01,2013-07-31 19:46:00,
2013-07-31 15:47:00,85.8,46.0,29.09,West,270,0.0,0.0,25,0.00,,---,0.00,VWS V14.01,2013-07-31 19:47:00,
2013-07-31 15:48:00,84.7,45.1,29.09,WSW,248,2.0,2.0,25,0.00,,---,0.00,VWS V14.01,2013-07-31 19:48:00,
2013-07-31 15:49:00,84.7,45.1,29.09,WSW,248,2.0,2.0,25,0.00,,---,0.00,VWS V14.01,2013-07-31 19:49:00,
2013-07-31 15:50:00,85.6,46.8,29.09,WSW,248,1.6,2.0,26,0.00,,---,0.00,VWS V14.01,2013-07-31 19:50:00,
2013-07-31 15:51:00,86.0,46.1,29.09,WSW,248,2.0,2.0,25,0.00,,---,0.00,VWS V14.01,2013-07-31 19:51:00,
2013-07-31 15:52:00,86.0,46.1,29.09,WSW,248,1.1,2.0,25,0.00,,---,0.00,VWS V14.01,2013-07-31 19:52:00,
2013-07-31 15:53:00,86.5,47.6,29.09,WSW,248,1.1,1.1,26,0.00,,---,0.00,VWS V14.01,2013-07-31 19:53:00,
2013-07-31 15:54:00,86.5,47.6,29.09,WSW,248,1.1,1.1,26,0.00,,---,0.00,VWS V14.01,2013-07-31 19:54:00,
2013-07-31 15:55:00,85.8,44.9,29.09,WSW,248,1.1,1.1,24,0.00,,---,0.00,VWS V14.01,2013-07-31 19:55:00,
2013-07-31 15:56:00,85.8,44.9,29.09,West,270,1.1,1.1,24,0.00,,---,0.00,VWS V14.01,2013-07-31 19:56:00,
2013-07-31 15:57:00,85.5,46.7,29.09,West,270,2.7,2.7,26,0.00,,---,0.00,VWS V14.01,2013-07-31 19:57:00,
2013-07-31 15:58:00,85.1,45.4,29.09,West,270,2.2,2.2,25,0.00,,---,0.00,VWS V14.01,2013-07-31 19:58:00,
2013-07-31 15:59:00,85.1,45.4,29.09,West,270,2.2,2.2,25,0.00,,---,0.00,VWS V14.01,2013-07-31 19:59:00,
2013-07-31 16:00:00,84.6,44.9,29.09,WSW,248,1.6,2.2,25,0.00,,---,0.00,VWS V14.01,2013-07-31 20:00:00,
2013-07-31 16:01:00,84.6,44.9,29.09,NW,315,2.0,2.0,25,0.00,,---,0.00,VWS V14.01,2013-07-31 20:01:00,
2013-07-31 16:02:00,84.4,43.7,29.09,NW,315,2.0,2.0,24,0.00,,---,0.00,VWS V14.01,2013-07-31 20:02:00,
2013-07-31 16:03:00,84.4,43.7,29.09,NW,315,1.6,2.0,24,0.00,,---,0.00,VWS V14.01,2013-07-31 20:03:00,
2013-07-31 16:04:00,84.4,43.7,29.09,NW,315,1.6,2.0,24,0.00,,---,0.00,VWS V14.01,2013-07-31 20:04:00,
2013-07-31 16:05:00,84.7,44.0,29.09,NW,315,1.6,1.6,24,0.00,,---,0.00,VWS V14.01,2013-07-31 20:05:00,
2013-07-31 16:06:00,84.7,44.0,29.09,WSW,248,3.1,3.1,24,0.00,,---,0.00,VWS V14.01,2013-07-31 20:06:00,
2013-07-31 16:07:00,85.1,45.4,29.09,West,270,2.0,3.1,25,0.00,,---,0.00,VWS V14.01,2013-07-31 20:07:00,
2013-07-31 16:08:00,85.1,45.4,29.09,WNW,292,0.0,0.0,25,0.00,,---,0.00,VWS V14.01,2013-07-31 20:08:00,
2013-07-31 16:09:00,85.1,45.4,29.09,WNW,292,0.0,0.0,25,0.00,,---,0.00,VWS V14.01,2013-07-31 20:09:00,
2013-07-31 16:10:00,85.1,45.4,29.09,NNE,22,0.0,0.0,25,0.00,,---,0.00,VWS V14.01,2013-07-31 20:10:00,
2013-07-31 16:11:00,84.7,45.1,29.09,West,270,0.0,0.0,25,0.00,,---,0.00,VWS V14.01,2013-07-31 20:11:00,
2013-07-31 16:12:00,84.4,46.8,29.09,WNW,292,2.0,2.0,27,0.00,,---,0.00,VWS V14.01,2013-07-31 20:12:00,
2013-07-31 16:13:00,84.4,46.8,29.09,WNW,292,0.0,0.0,27,0.00,,---,0.00,VWS V14.01,2013-07-31 20:13:00,
2013-07-31 16:14:00,83.5,45.0,29.09,WNW,292,0.0,0.0,26,0.00,,---,0.00,VWS V14.01,2013-07-31 20:14:00,
2013-07-31 16:15:00,83.5,45.0,29.09,NNE,22,1.3,1.3,26,0.00,,---,0.00,VWS V14.01,2013-07-31 20:15:00,
2013-07-31 16:16:00,83.5,45.0,29.09,NNE,22,2.2,2.2,26,0.00,,---,0.00,VWS V14.01,2013-07-31 20:16:00,
2013-07-31 16:17:00,83.5,45.0,29.09,ENE,68,1.1,2.2,26,0.00,,---,0.00,VWS V14.01,2013-07-31 20:17:00,
2013-07-31 16:18:00,83.5,45.0,29.09,ENE,68,0.0,0.0,26,0.00,,---,0.00,VWS V14.01,2013-07-31 20:18:00,
2013-07-31 16:19:00,83.5,45.0,29.09,ENE,68,0.0,0.0,26,0.00,,---,0.00,VWS V14.01,2013-07-31 20:19:00,
2013-07-31 16:20:00,84.4,43.7,29.09,ENE,68,0.0,0.0,24,0.00,,---,0.00,VWS V14.01,2013-07-31 20:20:00,
2013-07-31 16:21:00,84.4,43.7,29.09,ENE,68,0.0,0.0,24,0.00,,---,0.00,VWS V14.01,2013-07-31 20:21:00,
2013-07-31 16:22:00,84.4,43.7,29.09,ENE,68,0.0,0.0,24,0.00,,---,0.00,VWS V14.01,2013-07-31 20:22:00,
2013-07-31 16:23:00,84.4,43.7,29.09,ENE,68,0.0,0.0,24,0.00,,---,0.00,VWS V14.01,2013-07-31 20:23:00,
2013-07-31 16:24:00,84.4,43.7,29.09,SW,225,0.0,0.0,24,0.00,,---,0.00,VWS V14.01,2013-07-31 20:24:00,
2013-07-31 16:25:00,84.4,43.7,29.09,WSW,248,3.1,3.1,24,0.00,,---,0.00,VWS V14.01,2013-07-31 20:25:00,
2013-07-31 16:26:00,84.4,43.7,29.09,WSW,248,2.0,3.1,24,0.00,,---,0.00,VWS V14.01,2013-07-31 20:26:00,
2013-07-31 16:27:00,84.4,43.7,29.09,WSW,248,2.7,2.7,24,0.00,,---,0.00,VWS V14.01,2013-07-31 20:27:00,
2013-07-31 16:28:00,84.4,43.7,29.09,WSW,248,1.3,1.3,24,0.00,,---,0.00,VWS V14.01,2013-07-31 20:28:00,
2013-07-31 16:29:00,84.4,43.7,29.09,West,270,1.3,1.3,24,0.00,,---,0.00,VWS V14.01,2013-07-31 20:29:00,
2013-07-31 16:30:00,84.4,43.7,29.09,West,270,0.0,1.3,24,0.00,,---,0.00,VWS V14.01,2013-07-31 20:30:00,
2013-07-31 16:31:00,84.4,43.7,29.09,West,270,0.0,0.0,24,0.00,,---,0.00,VWS V14.01,2013-07-31 20:31:00,
2013-07-31 16:32:00,84.4,43.7,29.09,West,270,0.0,0.0,24,0.00,,---,0.00,VWS V14.01,2013-07-31 20:32:00,
2013-07-31 16:33:00,84.4,43.7,29.09,West,270,0.0,0.0,24,0.00,,---,0.00,VWS V14.01,2013-07-31 20:33:00,
2013-07-31 16:34:00,84.4,43.7,29.09,West,270,0.0,0.0,24,0.00,,---,0.00,VWS V14.01,2013-07-31 20:34:00,
2013-07-31 16:35:00,84.4,43.7,29.09,West,270,0.0,0.0,24,0.00,,---,0.00,VWS V14.01,2013-07-31 20:35:00,
2013-07-31 16:36:00,84.4,48.7,29.09,SSW,202,0.0,4.7,29,0.00,,---,0.00,VWS V14.01,2013-07-31 20:36:00,
2013-07-31 16:37:00,84.4,48.7,29.09,WNW,292,2.0,2.0,29,0.00,,---,0.00,VWS V14.01,2013-07-31 20:37:00,
2013-07-31 16:38:00,84.4,48.7,29.09,WSW,248,3.6,3.6,29,0.00,,---,0.00,VWS V14.01,2013-07-31 20:38:00,
2013-07-31 16:39:00,84.4,48.7,29.09,WNW,292,4.9,4.9,29,0.00,,---,0.00,VWS V14.01,2013-07-31 20:39:00,
2013-07-31 16:40:00,84.4,48.7,29.09,WNW,292,0.0,4.9,29,0.00,,---,0.00,VWS V14.01,2013-07-31 20:40:00,
2013-07-31 16:41:00,84.4,48.7,29.09,SSW,202,1.3,1.3,29,0.00,,---,0.00,VWS V14.01,2013-07-31 20:41:00,
2013-07-31 16:42:00,84.4,48.7,29.09,WNW,292,2.5,2.5,29,0.00,,---,0.00,VWS V14.01,2013-07-31 20:42:00,
2013-07-31 16:43:00,84.4,48.7,29.09,WNW,292,1.3,1.3,29,0.00,,---,0.00,VWS V14.01,2013-07-31 20:43:00,
2013-07-31 16:44:00,83.7,47.1,29.09,WNW,292,1.3,1.3,28,0.00,,---,0.00,VWS V14.01,2013-07-31 20:44:00,
2013-07-31 16:45:00,83.7,47.1,29.09,WNW,292,1.3,1.3,28,0.00,,---,0.00,VWS V14.01,2013-07-31 20:45:00,
2013-07-31 16:46:00,83.7,47.1,29.09,WNW,292,0.0,1.3,28,0.00,,---,0.00,VWS V14.01,2013-07-31 20:46:00,
2013-07-31 16:47:00,83.7,47.1,29.09,WNW,292,0.0,0.0,28,0.00,,---,0.00,VWS V14.01,2013-07-31 20:47:00,
2013-07-31 16:48:00,83.7,47.1,29.09,WNW,292,2.5,2.5,28,0.00,,---,0.00,VWS V14.01,2013-07-31 20:48:00,
2013-07-31 16:49:00,83.7,47.1,29.09,WNW,292,2.5,2.5,28,0.00,,---,0.00,VWS V14.01,2013-07-31 20:49:00,
2013-07-31 16:50:00,83.7,47.1,29.09,WNW,292,1.1,2.5,28,0.00,,---,0.00,VWS V14.01,2013-07-31 20:50:00,
2013-07-31 16:51:00,83.7,47.1,29.09,WNW,292,1.1,1.1,28,0.00,,---,0.00,VWS V14.01,2013-07-31 20:51:00,
2013-07-31 16:52:00,83.7,47.1,29.09,WNW,292,1.3,1.3,28,0.00,,---,0.00,VWS V14.01,2013-07-31 20:52:00,
2013-07-31 16:53:00,84.4,48.7,29.09,WNW,292,1.3,1.3,29,0.00,,---,0.00,VWS V14.01,2013-07-31 20:53:00,
2013-07-31 16:54:00,84.4,48.7,29.09,WNW,292,1.3,1.3,29,0.00,,---,0.00,VWS V14.01,2013-07-31 20:54:00,
2013-07-31 16:55:00,84.4,48.7,29.09,South,180,1.6,1.6,29,0.00,,---,0.00,VWS V14.01,2013-07-31 20:55:00,
2013-07-31 16:56:00,84.4,48.7,29.09,South,180,1.3,1.6,29,0.00,,---,0.00,VWS V14.01,2013-07-31 20:56:00,
2013-07-31 16:57:00,84.4,48.7,29.09,South,180,1.1,1.3,29,0.00,,---,0.00,VWS V14.01,2013-07-31 20:57:00,
2013-07-31 16:58:00,84.4,48.7,29.09,South,180,0.0,1.1,29,0.00,,---,0.00,VWS V14.01,2013-07-31 20:58:00,
2013-07-31 16:59:00,84.4,48.7,29.09,South,180,0.0,1.1,29,0.00,,---,0.00,VWS V14.01,2013-07-31 20:59:00,
2013-07-31 17:00:00,84.2,48.5,29.09,SSW,202,0.0,0.0,29,0.00,,---,0.00,VWS V14.01,2013-07-31 21:00:00,
2013-07-31 17:01:00,84.2,48.5,29.09,NW,315,2.9,2.9,29,0.00,,---,0.00,VWS V14.01,2013-07-31 21:01:00,
2013-07-31 17:02:00,84.2,48.5,29.09,NW,315,1.6,2.9,29,0.00,,---,0.00,VWS V14.01,2013-07-31 21:02:00,
2013-07-31 17:03:00,84.2,48.5,29.09,NW,315,0.0,0.0,29,0.00,,---,0.00,VWS V14.01,2013-07-31 21:03:00,
2013-07-31 17:04:00,84.2,48.5,29.09,NW,315,0.0,0.0,29,0.00,,---,0.00,VWS V14.01,2013-07-31 21:04:00,
2013-07-31 17:05:00,84.2,48.5,29.09,NW,315,0.0,0.0,29,0.00,,---,0.00,VWS V14.01,2013-07-31 21:05:00,
2013-07-31 17:06:00,84.2,48.5,29.09,NW,315,0.0,0.0,29,0.00,,---,0.00,VWS V14.01,2013-07-31 21:06:00,
2013-07-31 17:07:00,84.2,48.5,29.09,WSW,248,2.5,2.5,29,0.00,,---,0.00,VWS V14.01,2013-07-31 21:07:00,
2013-07-31 17:08:00,84.2,48.5,29.09,WSW,248,2.0,2.0,29,0.00,,---,0.00,VWS V14.01,2013-07-31 21:08:00,
2013-07-31 17:09:00,83.7,48.1,29.09,WNW,292,2.9,2.9,29,0.00,,---,0.00,VWS V14.01,2013-07-31 21:09:00,
2013-07-31 17:10:00,83.7,48.1,29.09,West,270,3.1,3.1,29,0.00,,---,0.00,VWS V14.01,2013-07-31 21:10:00,
2013-07-31 17:11:00,83.7,48.1,29.09,SW,225,4.9,4.9,29,0.00,,---,0.00,VWS V14.01,2013-07-31 21:11:00,
2013-07-31 17:12:00,83.7,48.1,29.09,WNW,292,1.3,4.9,29,0.00,,---,0.00,VWS V14.01,2013-07-31 21:12:00,
2013-07-31 17:13:00,83.7,48.1,29.09,WNW,292,1.3,1.3,29,0.00,,---,0.00,VWS V14.01,2013-07-31 21:13:00,
2013-07-31 17:14:00,83.7,48.1,29.09,WNW,292,1.3,1.3,29,0.00,,---,0.00,VWS V14.01,2013-07-31 21:14:00,
2013-07-31 17:15:00,83.7,48.1,29.09,WSW,248,2.0,2.0,29,0.00,,---,0.00,VWS V14.01,2013-07-31 21:15:00,
2013-07-31 17:16:00,82.8,46.4,29.09,SW,225,1.3,2.0,28,0.00,,---,0.00,VWS V14.01,2013-07-31 21:16:00,
2013-07-31 17:17:00,82.8,46.4,29.09,SW,225,0.0,1.3,28,0.00,,---,0.00,VWS V14.01,2013-07-31 21:17:00,
2013-07-31 17:18:00,82.4,44.1,29.09,WNW,292,0.0,0.0,26,0.00,,---,0.00,VWS V14.01,2013-07-31 21:18:00,
2013-07-31 17:19:00,82.4,44.1,29.09,West,270,3.1,3.1,26,0.00,,---,0.00,VWS V14.01,2013-07-31 21:19:00,
2013-07-31 17:20:00,82.2,45.9,29.09,West,270,2.5,3.1,28,0.00,,---,0.00,VWS V14.01,2013-07-31 21:20:00,
2013-07-31 17:21:00,81.7,46.4,29.09,West,270,0.0,2.5,29,0.00,,---,0.00,VWS V14.01,2013-07-31 21:21:00,
2013-07-31 17:22:00,81.7,46.4,29.09,West,270,0.0,0.0,29,0.00,,---,0.00,VWS V14.01,2013-07-31 21:22:00,
2013-07-31 17:23:00,81.7,46.4,29.09,West,270,0.0,0.0,29,0.00,,---,0.00,VWS V14.01,2013-07-31 21:23:00,
2013-07-31 17:24:00,81.7,46.4,29.09,WNW,292,2.5,2.5,29,0.00,,---,0.00,VWS V14.01,2013-07-31 21:24:00,
2013-07-31 17:25:00,80.6,46.3,29.09,WNW,292,2.2,2.5,30,0.00,,---,0.00,VWS V14.01,2013-07-31 21:25:00,
2013-07-31 17:26:00,80.6,46.3,29.09,WSW,248,3.4,3.4,30,0.00,,---,0.00,VWS V14.01,2013-07-31 21:26:00,
2013-07-31 17:27:00,80.8,46.5,29.09,WSW,248,3.4,3.4,30,0.00,,---,0.00,VWS V14.01,2013-07-31 21:27:00,
2013-07-31 17:28:00,81.0,46.6,29.09,West,270,2.9,2.9,30,0.00,,---,0.00,VWS V14.01,2013-07-31 21:28:00,
2013-07-31 17:29:00,81.0,46.6,29.09,West,270,2.9,2.9,30,0.00,,---,0.00,VWS V14.01,2013-07-31 21:29:00,
2013-07-31 17:30:00,81.0,46.6,29.09,West,270,2.5,2.9,30,0.00,,---,0.00,VWS V14.01,2013-07-31 21:30:00,
2013-07-31 17:31:00,81.0,46.6,29.09,West,270,0.0,2.5,30,0.00,,---,0.00,VWS V14.01,2013-07-31 21:31:00,
2013-07-31 17:32:00,79.9,46.6,29.09,WNW,292,2.5,2.5,31,0.00,,---,0.00,VWS V14.01,2013-07-31 21:32:00,
2013-07-31 17:33:00,79.9,46.6,29.09,WNW,292,2.5,2.5,31,0.00,,---,0.00,VWS V14.01,2013-07-31 21:33:00,
2013-07-31 17:34:00,79.9,46.6,29.09,WNW,292,1.1,2.5,31,0.00,,---,0.00,VWS V14.01,2013-07-31 21:34:00,
2013-07-31 17:35:00,79.9,46.6,29.09,WNW,292,3.1,3.1,31,0.00,,---,0.00,VWS V14.01,2013-07-31 21:35:00,
2013-07-31 17:36:00,79.9,46.6,29.09,WSW,248,3.4,3.4,31,0.00,,---,0.00,VWS V14.01,2013-07-31 21:36:00,
2013-07-31 17:37:00,79.9,46.6,29.09,WNW,292,1.6,3.4,31,0.00,,---,0.00,VWS V14.01,2013-07-31 21:37:00,
2013-07-31 17:38:00,79.9,46.6,29.09,WNW,292,1.1,1.1,31,0.00,,---,0.00,VWS V14.01,2013-07-31 21:38:00,
2013-07-31 17:39:00,79.9,46.6,29.09,WNW,292,2.0,2.0,31,0.00,,---,0.00,VWS V14.01,2013-07-31 21:39:00,
2013-07-31 17:40:00,79.9,46.6,29.09,WNW,292,2.0,2.0,31,0.00,,---,0.00,VWS V14.01,2013-07-31 21:40:00,
2013-07-31 17:41:00,79.9,46.6,29.09,West,270,3.4,3.4,31,0.00,,---,0.00,VWS V14.01,2013-07-31 21:41:00,
2013-07-31 17:42:00,79.9,46.6,29.09,West,270,2.7,3.4,31,0.00,,---,0.00,VWS V14.01,2013-07-31 21:42:00,
2013-07-31 17:43:00,79.9,46.6,29.09,West,270,2.9,2.9,31,0.00,,---,0.00,VWS V14.01,2013-07-31 21:43:00,
2013-07-31 17:44:00,79.9,46.6,29.09,West,270,2.9,2.9,31,0.00,,---,0.00,VWS V14.01,2013-07-31 21:44:00,
2013-07-31 17:45:00,79.9,46.6,29.09,West,270,2.0,2.9,31,0.00,,---,0.00,VWS V14.01,2013-07-31 21:45:00,
2013-07-31 17:46:00,79.9,46.6,29.09,West,270,2.5,2.5,31,0.00,,---,0.00,VWS V14.01,2013-07-31 21:46:00,
2013-07-31 17:47:00,79.9,46.6,29.09,WNW,292,2.9,2.9,31,0.00,,---,0.00,VWS V14.01,2013-07-31 21:47:00,
2013-07-31 17:48:00,79.9,46.6,29.09,West,270,3.6,3.6,31,0.00,,---,0.00,VWS V14.01,2013-07-31 21:48:00,
2013-07-31 17:49:00,79.9,46.6,29.09,West,270,2.5,3.6,31,0.00,,---,0.00,VWS V14.01,2013-07-31 21:49:00,
2013-07-31 17:50:00,79.0,45.8,29.09,West,270,2.0,2.5,31,0.00,,---,0.00,VWS V14.01,2013-07-31 21:50:00,
2013-07-31 17:51:00,78.8,45.6,29.09,WSW,248,3.4,3.4,31,0.00,,---,0.00,VWS V14.01,2013-07-31 21:51:00,
2013-07-31 17:52:00,78.8,45.6,29.09,WSW,248,2.0,3.4,31,0.00,,---,0.00,VWS V14.01,2013-07-31 21:52:00,
2013-07-31 17:53:00,78.6,46.3,29.09,WSW,248,2.0,2.0,32,0.00,,---,0.00,VWS V14.01,2013-07-31 21:53:00,
2013-07-31 17:54:00,78.6,46.3,29.09,WSW,248,0.0,2.0,32,0.00,,---,0.00,VWS V14.01,2013-07-31 21:54:00,
2013-07-31 17:55:00,78.3,46.0,29.09,WSW,248,0.0,0.0,32,0.00,,---,0.00,VWS V14.01,2013-07-31 21:55:00,
2013-07-31 17:56:00,78.3,46.0,29.09,WSW,248,0.0,0.0,32,0.00,,---,0.00,VWS V14.01,2013-07-31 21:56:00,
2013-07-31 17:57:00,78.3,46.0,29.09,WSW,248,0.0,0.0,32,0.00,,---,0.00,VWS V14.01,2013-07-31 21:57:00,
2013-07-31 17:58:00,77.4,46.8,29.09,WNW,292,0.0,0.0,34,0.00,,---,0.00,VWS V14.01,2013-07-31 21:58:00,
2013-07-31 17:59:00,77.4,46.8,29.09,WNW,292,0.0,0.0,34,0.00,,---,0.00,VWS V14.01,2013-07-31 21:59:00,
2013-07-31 18:00:00,77.4,46.8,29.09,WNW,292,0.0,0.0,34,0.00,,---,0.00,VWS V14.01,2013-07-31 22:00:00,
2013-07-31 18:01:00,77.4,46.8,29.09,WNW,292,0.0,0.0,34,0.00,,---,0.00,VWS V14.01,2013-07-31 22:01:00,
2013-07-31 18:02:00,77.4,46.8,29.09,WNW,292,0.0,0.0,34,0.00,,---,0.00,VWS V14.01,2013-07-31 22:02:00,
2013-07-31 18:03:00,77.4,46.8,29.09,WNW,292,0.0,0.0,34,0.00,,---,0.00,VWS V14.01,2013-07-31 22:03:00,
2013-07-31 18:04:00,77.4,46.8,29.09,WNW,292,0.0,0.0,34,0.00,,---,0.00,VWS V14.01,2013-07-31 22:04:00,
2013-07-31 18:05:00,77.4,46.8,29.09,West,270,1.6,1.6,34,0.00,,---,0.00,VWS V14.01,2013-07-31 22:05:00,
2013-07-31 18:06:00,77.4,46.8,29.09,West,270,1.6,1.6,34,0.00,,---,0.00,VWS V14.01,2013-07-31 22:06:00,
2013-07-31 18:07:00,77.4,46.8,29.09,West,270,1.6,1.6,34,0.00,,---,0.00,VWS V14.01,2013-07-31 22:07:00,
2013-07-31 18:08:00,77.4,46.8,29.09,West,270,1.6,1.6,34,0.00,,---,0.00,VWS V14.01,2013-07-31 22:08:00,
2013-07-31 18:09:00,77.4,46.8,29.09,WNW,292,0.0,1.6,34,0.00,,---,0.00,VWS V14.01,2013-07-31 22:09:00,
2013-07-31 18:10:00,77.4,46.8,29.09,WNW,292,0.0,0.0,34,0.00,,---,0.00,VWS V14.01,2013-07-31 22:10:00,
2013-07-31 18:11:00,75.6,46.8,29.09,WNW,292,0.0,0.0,36,0.00,,---,0.00,VWS V14.01,2013-07-31 22:11:00,
2013-07-31 18:12:00,75.6,46.8,29.09,WNW,292,0.0,0.0,36,0.00,,---,0.00,VWS V14.01,2013-07-31 22:12:00,
2013-07-31 18:13:00,75.6,46.8,29.09,WNW,292,0.0,0.0,36,0.00,,---,0.00,VWS V14.01,2013-07-31 22:13:00,
2013-07-31 18:14:00,75.6,46.8,29.09,WNW,292,0.0,0.0,36,0.00,,---,0.00,VWS V14.01,2013-07-31 22:14:00,
2013-07-31 18:15:00,75.6,46.8,29.09,WNW,292,0.0,0.0,36,0.00,,---,0.00,VWS V14.01,2013-07-31 22:15:00,
2013-07-31 18:16:00,75.6,46.8,29.09,WNW,292,0.0,0.0,36,0.00,,---,0.00,VWS V14.01,2013-07-31 22:16:00,
2013-07-31 18:17:00,75.6,46.8,29.09,WNW,292,2.5,2.5,36,0.00,,---,0.00,VWS V14.01,2013-07-31 22:17:00,
2013-07-31 18:18:00,75.6,46.8,29.09,WNW,292,0.0,0.0,36,0.00,,---,0.00,VWS V14.01,2013-07-31 22:18:00,
2013-07-31 18:19:00,75.6,46.8,29.09,WNW,292,0.0,0.0,36,0.00,,---,0.00,VWS V14.01,2013-07-31 22:19:00,
2013-07-31 18:20:00,75.6,46.8,29.09,WSW,248,1.1,1.1,36,0.00,,---,0.00,VWS V14.01,2013-07-31 22:20:00,
2013-07-31 18:21:00,75.6,46.8,29.09,NNW,338,1.6,1.6,36,0.00,,---,0.00,VWS V14.01,2013-07-31 22:21:00,
2013-07-31 18:22:00,74.1,48.9,29.09,NNW,338,0.0,1.6,41,0.00,,---,0.00,VWS V14.01,2013-07-31 22:22:00,
2013-07-31 18:23:00,74.1,48.9,29.09,NNW,338,0.0,0.0,41,0.00,,---,0.00,VWS V14.01,2013-07-31 22:23:00,
2013-07-31 18:24:00,74.1,48.9,29.09,NNW,338,0.0,0.0,41,0.00,,---,0.00,VWS V14.01,2013-07-31 22:24:00,
2013-07-31 18:25:00,74.1,48.9,29.09,NNW,338,0.0,0.0,41,0.00,,---,0.00,VWS V14.01,2013-07-31 22:25:00,
2013-07-31 18:26:00,74.1,48.9,29.09,NNW,338,0.0,0.0,41,0.00,,---,0.00,VWS V14.01,2013-07-31 22:26:00,
2013-07-31 18:27:00,73.6,48.5,29.09,NNW,338,0.0,0.0,41,0.00,,---,0.00,VWS V14.01,2013-07-31 22:27:00,
2013-07-31 18:28:00,73.6,48.5,29.09,NNW,338,0.0,0.0,41,0.00,,---,0.00,VWS V14.01,2013-07-31 22:28:00,
2013-07-31 18:29:00,73.6,48.5,29.09,NNW,338,0.0,0.0,41,0.00,,---,0.00,VWS V14.01,2013-07-31 22:29:00,
2013-07-31 18:30:00,73.6,48.5,29.09,NNW,338,0.0,0.0,41,0.00,,---,0.00,VWS V14.01,2013-07-31 22:30:00,
2013-07-31 18:31:00,73.6,48.5,29.09,NNW,338,0.0,0.0,41,0.00,,---,0.00,VWS V14.01,2013-07-31 22:31:00,
2013-07-31 18:32:00,73.6,48.5,29.09,NNW,338,0.0,0.0,41,0.00,,---,0.00,VWS V14.01,2013-07-31 22:32:00,
2013-07-31 18:33:00,73.6,48.5,29.09,NNW,338,0.9,0.9,41,0.00,,---,0.00,VWS V14.01,2013-07-31 22:33:00,
2013-07-31 18:34:00,73.6,48.5,29.09,NNW,338,0.9,0.9,41,0.00,,---,0.00,VWS V14.01,2013-07-31 22:34:00,
2013-07-31 18:35:00,73.6,48.5,29.06,NNW,338,0.0,0.9,41,0.00,,---,0.00,VWS V14.01,2013-07-31 22:35:00,
2013-07-31 18:36:00,73.6,48.5,29.06,NNW,338,2.0,2.0,41,0.00,,---,0.00,VWS V14.01,2013-07-31 22:36:00,
2013-07-31 18:37:00,73.6,48.5,29.06,NNW,338,2.0,2.0,41,0.00,,---,0.00,VWS V14.01,2013-07-31 22:37:00,
2013-07-31 18:38:00,73.6,48.5,29.06,NNW,338,2.0,2.0,41,0.00,,---,0.00,VWS V14.01,2013-07-31 22:38:00,
2013-07-31 18:39:00,73.6,48.5,29.06,North,0,2.0,2.0,41,0.00,,---,0.00,VWS V14.01,2013-07-31 22:39:00,
2013-07-31 18:40:00,73.6,48.5,29.06,North,0,2.0,2.0,41,0.00,,---,0.00,VWS V14.01,2013-07-31 22:40:00,
2013-07-31 18:41:00,73.6,48.5,29.06,North,0,0.9,2.0,41,0.00,,---,0.00,VWS V14.01,2013-07-31 22:41:00,
2013-07-31 18:42:00,73.6,48.5,29.06,North,0,0.9,0.9,41,0.00,,---,0.00,VWS V14.01,2013-07-31 22:42:00,
2013-07-31 18:43:00,73.6,48.5,29.06,North,0,0.9,0.9,41,0.00,,---,0.00,VWS V14.01,2013-07-31 22:43:00,
2013-07-31 18:44:00,73.6,48.5,29.06,North,0,0.9,0.9,41,0.00,,---,0.00,VWS V14.01,2013-07-31 22:44:00,
2013-07-31 18:45:00,73.6,48.5,29.06,North,0,0.0,0.9,41,0.00,,---,0.00,VWS V14.01,2013-07-31 22:45:00,
2013-07-31 18:46:00,73.6,48.5,29.06,North,0,1.1,1.1,41,0.00,,---,0.00,VWS V14.01,2013-07-31 22:46:00,
2013-07-31 18:47:00,73.6,48.5,29.06,North,0,0.0,1.1,41,0.00,,---,0.00,VWS V14.01,2013-07-31 22:47:00,
2013-07-31 18:48:00,73.6,48.5,29.06,North,0,1.3,1.3,41,0.00,,---,0.00,VWS V14.01,2013-07-31 22:48:00,
2013-07-31 18:49:00,73.6,48.5,29.06,North,0,1.3,1.3,41,0.00,,---,0.00,VWS V14.01,2013-07-31 22:49:00,
2013-07-31 18:50:00,73.6,48.5,29.09,North,0,1.3,1.3,41,0.00,,---,0.00,VWS V14.01,2013-07-31 22:50:00,
2013-07-31 18:51:00,73.6,48.5,29.09,North,0,1.3,1.3,41,0.00,,---,0.00,VWS V14.01,2013-07-31 22:51:00,
2013-07-31 18:52:00,73.6,48.5,29.09,North,0,0.0,1.3,41,0.00,,---,0.00,VWS V14.01,2013-07-31 22:52:00,
2013-07-31 18:53:00,73.6,48.5,29.09,North,0,0.0,0.0,41,0.00,,---,0.00,VWS V14.01,2013-07-31 22:53:00,
2013-07-31 18:54:00,73.6,48.5,29.09,North,0,0.0,0.0,41,0.00,,---,0.00,VWS V14.01,2013-07-31 22:54:00,
2013-07-31 18:55:00,73.6,48.5,29.09,NNE,22,2.0,2.0,41,0.00,,---,0.00,VWS V14.01,2013-07-31 22:55:00,
2013-07-31 18:56:00,73.6,48.5,29.09,NNE,22,2.0,2.0,41,0.00,,---,0.00,VWS V14.01,2013-07-31 22:56:00,
2013-07-31 18:57:00,73.6,48.5,29.09,NNE,22,1.3,2.0,41,0.00,,---,0.00,VWS V14.01,2013-07-31 22:57:00,
2013-07-31 18:58:00,73.6,48.5,29.09,NNE,22,2.5,2.5,41,0.00,,---,0.00,VWS V14.01,2013-07-31 22:58:00,
2013-07-31 18:59:00,73.6,48.5,29.09,NNE,22,2.5,2.5,41,0.00,,---,0.00,VWS V14.01,2013-07-31 22:59:00,
2013-07-31 19:00:00,73.6,48.5,29.09,NNE,22,1.6,2.5,41,0.00,,---,0.00,VWS V14.01,2013-07-31 23:00:00,
2013-07-31 19:01:00,73.6,48.5,29.09,NNE,22,1.6,1.6,41,0.00,,---,0.00,VWS V14.01,2013-07-31 23:01:00,
2013-07-31 19:02:00,73.6,48.5,29.09,NNE,22,1.6,1.6,41,0.00,,---,0.00,VWS V14.01,2013-07-31 23:02:00,
2013-07-31 19:03:00,73.6,48.5,29.09,NNE,22,1.6,1.6,41,0.00,,---,0.00,VWS V14.01,2013-07-31 23:03:00,
2013-07-31 19:04:00,73.6,48.5,29.09,NNE,22,0.0,1.6,41,0.00,,---,0.00,VWS V14.01,2013-07-31 23:04:00,
2013-07-31 19:05:00,73.6,48.5,29.09,NNE,22,0.0,0.0,41,0.00,,---,0.00,VWS V14.01,2013-07-31 23:05:00,
2013-07-31 19:06:00,73.6,48.5,29.06,NNE,22,0.0,0.0,41,0.00,,---,0.00,VWS V14.01,2013-07-31 23:06:00,
2013-07-31 19:07:00,73.6,48.5,29.06,NNE,22,0.0,0.0,41,0.00,,---,0.00,VWS V14.01,2013-07-31 23:07:00,
2013-07-31 19:08:00,73.6,48.5,29.06,NNE,22,0.0,0.0,41,0.00,,---,0.00,VWS V14.01,2013-07-31 23:08:00,
2013-07-31 19:09:00,73.6,48.5,29.06,NNE,22,0.0,0.0,41,0.00,,---,0.00,VWS V14.01,2013-07-31 23:09:00,
2013-07-31 19:10:00,73.6,48.5,29.06,NNE,22,0.0,0.0,41,0.00,,---,0.00,VWS V14.01,2013-07-31 23:10:00,
2013-07-31 19:11:00,73.6,48.5,29.06,NNE,22,0.0,0.0,41,0.00,,---,0.00,VWS V14.01,2013-07-31 23:11:00,
2013-07-31 19:12:00,73.6,48.5,29.06,NNE,22,0.0,0.0,41,0.00,,---,0.00,VWS V14.01,2013-07-31 23:12:00,
2013-07-31 19:13:00,73.6,48.5,29.06,NNE,22,0.0,0.0,41,0.00,,---,0.00,VWS V14.01,2013-07-31 23:13:00,
2013-07-31 19:14:00,73.6,48.5,29.06,NNE,22,0.0,0.0,41,0.00,,---,0.00,VWS V14.01,2013-07-31 23:14:00,
2013-07-31 19:15:00,73.6,48.5,29.06,NNE,22,0.0,0.0,41,0.00,,---,0.00,VWS V14.01,2013-07-31 23:15:00,
2013-07-31 19:16:00,73.6,48.5,29.06,NNE,22,0.0,0.0,41,0.00,,---,0.00,VWS V14.01,2013-07-31 23:16:00,
2013-07-31 19:17:00,73.6,48.5,29.06,NNE,22,0.0,0.0,41,0.00,,---,0.00,VWS V14.01,2013-07-31 23:17:00,
2013-07-31 19:18:00,73.6,48.5,29.06,NNE,22,0.0,0.0,41,0.00,,---,0.00,VWS V14.01,2013-07-31 23:18:00,
2013-07-31 19:19:00,73.6,48.5,29.06,NNE,22,0.0,0.0,41,0.00,,---,0.00,VWS V14.01,2013-07-31 23:19:00,
2013-07-31 19:20:00,73.6,48.5,29.09,NNE,22,0.0,0.0,41,0.00,,---,0.00,VWS V14.01,2013-07-31 23:20:00,
2013-07-31 19:21:00,73.6,48.5,29.09,NNE,22,0.0,0.0,41,0.00,,---,0.00,VWS V14.01,2013-07-31 23:21:00,
2013-07-31 19:22:00,73.6,48.5,29.09,NNE,22,0.0,0.0,41,0.00,,---,0.00,VWS V14.01,2013-07-31 23:22:00,
2013-07-31 19:23:00,73.6,48.5,29.09,NNE,22,0.0,0.0,41,0.00,,---,0.00,VWS V14.01,2013-07-31 23:23:00,
2013-07-31 19:24:00,73.6,48.5,29.09,NNE,22,0.0,0.0,41,0.00,,---,0.00,VWS V14.01,2013-07-31 23:24:00,
2013-07-31 19:25:00,73.6,48.5,29.09,NNE,22,0.0,0.0,41,0.00,,---,0.00,VWS V14.01,2013-07-31 23:25:00,
2013-07-31 19:26:00,73.6,48.5,29.09,NNE,22,0.0,0.0,41,0.00,,---,0.00,VWS V14.01,2013-07-31 23:26:00,
2013-07-31 19:27:00,73.6,48.5,29.09,NNE,22,0.0,0.0,41,0.00,,---,0.00,VWS V14.01,2013-07-31 23:27:00,
2013-07-31 19:28:00,73.6,48.5,29.09,NNE,22,0.0,0.0,41,0.00,,---,0.00,VWS V14.01,2013-07-31 23:28:00,
2013-07-31 19:29:00,73.6,48.5,29.09,NNE,22,0.0,0.0,41,0.00,,---,0.00,VWS V14.01,2013-07-31 23:29:00,
2013-07-31 19:30:00,73.6,48.5,29.09,NNE,22,0.0,0.0,41,0.00,,---,0.00,VWS V14.01,2013-07-31 23:30:00,
2013-07-31 19:31:00,73.6,48.5,29.09,NNE,22,0.0,0.0,41,0.00,,---,0.00,VWS V14.01,2013-07-31 23:31:00,
2013-07-31 19:32:00,73.6,48.5,29.09,NNE,22,0.0,0.0,41,0.00,,---,0.00,VWS V14.01,2013-07-31 23:32:00,
2013-07-31 19:33:00,73.6,48.5,29.09,NNE,22,0.0,0.0,41,0.00,,---,0.00,VWS V14.01,2013-07-31 23:33:00,
2013-07-31 19:34:00,73.6,48.5,29.09,NNE,22,0.0,0.0,41,0.00,,---,0.00,VWS V14.01,2013-07-31 23:34:00,
2013-07-31 19:35:00,73.6,48.5,29.06,NNE,22,0.0,0.0,41,0.00,,---,0.00,VWS V14.01,2013-07-31 23:35:00,
2013-07-31 19:36:00,73.6,48.5,29.06,NNE,22,0.0,0.0,41,0.00,,---,0.00,VWS V14.01,2013-07-31 23:36:00,
2013-07-31 19:37:00,73.6,48.5,29.06,NNE,22,0.0,0.0,41,0.00,,---,0.00,VWS V14.01,2013-07-31 23:37:00,
2013-07-31 19:38:00,73.6,48.5,29.06,NNE,22,0.0,0.0,41,0.00,,---,0.00,VWS V14.01,2013-07-31 23:38:00,
2013-07-31 19:39:00,73.6,48.5,29.06,NNE,22,0.0,0.0,41,0.00,,---,0.00,VWS V14.01,2013-07-31 23:39:00,
2013-07-31 19:40:00,73.6,48.5,29.06,NNE,22,0.0,0.0,41,0.00,,---,0.00,VWS V14.01,2013-07-31 23:40:00,
2013-07-31 19:41:00,68.2,48.3,29.06,NNE,22,0.0,0.0,49,0.00,,---,0.00,VWS V14.01,2013-07-31 23:41:00,
2013-07-31 19:42:00,68.2,48.3,29.06,NNE,22,0.0,0.0,49,0.00,,---,0.00,VWS V14.01,2013-07-31 23:42:00,
2013-07-31 19:43:00,68.2,48.3,29.06,NNE,22,0.0,0.0,49,0.00,,---,0.00,VWS V14.01,2013-07-31 23:43:00,
2013-07-31 19:44:00,68.2,48.3,29.06,NNE,22,0.0,0.0,49,0.00,,---,0.00,VWS V14.01,2013-07-31 23:44:00,
2013-07-31 19:45:00,68.2,48.3,29.06,NNE,22,0.0,0.0,49,0.00,,---,0.00,VWS V14.01,2013-07-31 23:45:00,
2013-07-31 19:46:00,68.2,48.3,29.06,NNE,22,0.0,0.0,49,0.00,,---,0.00,VWS V14.01,2013-07-31 23:46:00,
2013-07-31 19:47:00,68.2,48.3,29.06,NNE,22,0.0,0.0,49,0.00,,---,0.00,VWS V14.01,2013-07-31 23:47:00,
2013-07-31 19:48:00,68.2,48.3,29.06,NNE,22,0.0,0.0,49,0.00,,---,0.00,VWS V14.01,2013-07-31 23:48:00,
2013-07-31 19:49:00,68.2,48.3,29.06,NNE,22,0.0,0.0,49,0.00,,---,0.00,VWS V14.01,2013-07-31 23:49:00,
2013-07-31 19:50:00,68.2,48.3,29.09,NNE,22,0.0,0.0,49,0.00,,---,0.00,VWS V14.01,2013-07-31 23:50:00,
2013-07-31 19:51:00,68.2,48.3,29.09,NNE,22,0.0,0.0,49,0.00,,---,0.00,VWS V14.01,2013-07-31 23:51:00,
2013-07-31 19:52:00,68.2,48.3,29.09,NNE,22,0.0,0.0,49,0.00,,---,0.00,VWS V14.01,2013-07-31 23:52:00,
2013-07-31 19:53:00,68.2,48.3,29.09,NNE,22,0.0,0.0,49,0.00,,---,0.00,VWS V14.01,2013-07-31 23:53:00,
2013-07-31 19:54:00,68.2,48.3,29.09,NNE,22,0.0,0.0,49,0.00,,---,0.00,VWS V14.01,2013-07-31 23:54:00,
2013-07-31 19:55:00,68.2,48.3,29.09,NNE,22,0.0,0.0,49,0.00,,---,0.00,VWS V14.01,2013-07-31 23:55:00,
2013-07-31 19:56:00,68.2,48.3,29.09,NNE,22,0.0,0.0,49,0.00,,---,0.00,VWS V14.01,2013-07-31 23:56:00,
2013-07-31 19:57:00,68.2,48.3,29.09,NNE,22,0.0,0.0,49,0.00,,---,0.00,VWS V14.01,2013-07-31 23:57:00,
2013-07-31 19:58:00,68.2,48.3,29.09,NNE,22,0.0,0.0,49,0.00,,---,0.00,VWS V14.01,2013-07-31 23:58:00,
2013-07-31 19:59:00,68.2,48.3,29.09,NNE,22,0.0,0.0,49,0.00,,---,0.00,VWS V14.01,2013-07-31 23:59:00,
2013-07-31 20:00:00,68.2,48.3,29.09,NNE,22,0.0,0.0,49,0.00,,---,0.00,VWS V14.01,2013-08-01 00:00:00,
2013-07-31 20:01:00,68.2,48.3,29.09,NNE,22,0.0,0.0,49,0.00,,---,0.00,VWS V14.01,2013-08-01 00:01:00,
2013-07-31 20:02:00,68.2,48.3,29.09,NNE,22,0.0,0.0,49,0.00,,---,0.00,VWS V14.01,2013-08-01 00:02:00,
2013-07-31 20:03:00,68.2,48.3,29.09,NNE,22,0.0,0.0,49,0.00,,---,0.00,VWS V14.01,2013-08-01 00:03:00,
2013-07-31 20:04:00,68.2,48.3,29.09,NNE,22,0.0,0.0,49,0.00,,---,0.00,VWS V14.01,2013-08-01 00:04:00,
2013-07-31 20:05:00,68.2,48.3,29.09,NNE,22,0.0,0.0,49,0.00,,---,0.00,VWS V14.01,2013-08-01 00:05:00,
2013-07-31 20:06:00,68.2,48.3,29.09,NNE,22,0.0,0.0,49,0.00,,---,0.00,VWS V14.01,2013-08-01 00:06:00,
2013-07-31 20:07:00,68.2,48.3,29.09,NNE,22,0.0,0.0,49,0.00,,---,0.00,VWS V14.01,2013-08-01 00:07:00,
2013-07-31 20:08:00,68.2,48.3,29.09,NNE,22,0.0,0.0,49,0.00,,---,0.00,VWS V14.01,2013-08-01 00:08:00,
2013-07-31 20:09:00,68.2,48.3,29.09,NNE,22,0.0,0.0,49,0.00,,---,0.00,VWS V14.01,2013-08-01 00:09:00,
2013-07-31 20:10:00,68.2,48.3,29.09,NNE,22,0.0,0.0,49,0.00,,---,0.00,VWS V14.01,2013-08-01 00:10:00,
2013-07-31 20:11:00,68.2,48.3,29.09,NNE,22,0.0,0.0,49,0.00,,---,0.00,VWS V14.01,2013-08-01 00:11:00,
2013-07-31 20:12:00,68.2,48.3,29.09,NNE,22,0.0,0.0,49,0.00,,---,0.00,VWS V14.01,2013-08-01 00:12:00,
2013-07-31 20:13:00,68.2,48.3,29.09,NNE,22,0.0,0.0,49,0.00,,---,0.00,VWS V14.01,2013-08-01 00:13:00,
2013-07-31 20:14:00,68.2,48.3,29.09,NNE,22,0.0,0.0,49,0.00,,---,0.00,VWS V14.01,2013-08-01 00:14:00,
2013-07-31 20:15:00,68.2,48.3,29.09,NNE,22,0.0,0.0,49,0.00,,---,0.00,VWS V14.01,2013-08-01 00:15:00,
2013-07-31 20:16:00,68.2,48.3,29.09,NNE,22,0.0,0.0,49,0.00,,---,0.00,VWS V14.01,2013-08-01 00:16:00,
2013-07-31 20:17:00,68.2,48.3,29.09,NNE,22,0.0,0.0,49,0.00,,---,0.00,VWS V14.01,2013-08-01 00:17:00,
2013-07-31 20:18:00,68.2,48.3,29.09,NNE,22,0.0,0.0,49,0.00,,---,0.00,VWS V14.01,2013-08-01 00:18:00,
2013-07-31 20:19:00,68.2,48.3,29.09,NNE,22,0.0,0.0,49,0.00,,---,0.00,VWS V14.01,2013-08-01 00:19:00,
2013-07-31 20:20:00,68.2,48.3,29.09,NNE,22,0.0,0.0,49,0.00,,---,0.00,VWS V14.01,2013-08-01 00:20:00,
2013-07-31 20:21:00,68.2,48.3,29.09,NNE,22,0.0,0.0,49,0.00,,---,0.00,VWS V14.01,2013-08-01 00:21:00,
2013-07-31 20:22:00,68.2,48.3,29.09,NNE,22,0.0,0.0,49,0.00,,---,0.00,VWS V14.01,2013-08-01 00:22:00,
2013-07-31 20:23:00,68.2,48.3,29.09,NNE,22,0.0,0.0,49,0.00,,---,0.00,VWS V14.01,2013-08-01 00:23:00,
2013-07-31 20:24:00,68.2,48.3,29.09,NNE,22,0.0,0.0,49,0.00,,---,0.00,VWS V14.01,2013-08-01 00:24:00,
2013-07-31 20:25:00,68.2,48.3,29.09,NNE,22,0.0,0.0,49,0.00,,---,0.00,VWS V14.01,2013-08-01 00:25:00,
2013-07-31 20:26:00,68.2,48.3,29.09,NNE,22,0.0,0.0,49,0.00,,---,0.00,VWS V14.01,2013-08-01 00:26:00,
2013-07-31 20:27:00,68.2,48.3,29.09,NNE,22,0.0,0.0,49,0.00,,---,0.00,VWS V14.01,2013-08-01 00:27:00,
2013-07-31 20:28:00,68.2,48.3,29.09,NNE,22,0.0,0.0,49,0.00,,---,0.00,VWS V14.01,2013-08-01 00:28:00,
2013-07-31 20:29:00,68.2,48.3,29.09,NNE,22,0.0,0.0,49,0.00,,---,0.00,VWS V14.01,2013-08-01 00:29:00,
2013-07-31 20:30:00,68.2,48.3,29.09,NNE,22,0.0,0.0,49,0.00,,---,0.00,VWS V14.01,2013-08-01 00:30:00,
2013-07-31 20:31:00,68.2,48.3,29.09,NNE,22,0.0,0.0,49,0.00,,---,0.00,VWS V14.01,2013-08-01 00:31:00,
2013-07-31 20:32:00,68.2,48.3,29.09,NNE,22,0.0,0.0,49,0.00,,---,0.00,VWS V14.01,2013-08-01 00:32:00,
2013-07-31 20:33:00,68.2,48.3,29.09,NNE,22,0.0,0.0,49,0.00,,---,0.00,VWS V14.01,2013-08-01 00:33:00,
2013-07-31 20:34:00,68.2,48.3,29.09,NNE,22,0.0,0.0,49,0.00,,---,0.00,VWS V14.01,2013-08-01 00:34:00,
2013-07-31 20:35:00,68.2,48.3,29.09,NNE,22,0.0,0.0,49,0.00,,---,0.00,VWS V14.01,2013-08-01 00:35:00,
2013-07-31 20:36:00,68.2,48.3,29.09,NNE,22,0.0,0.0,49,0.00,,---,0.00,VWS V14.01,2013-08-01 00:36:00,
2013-07-31 20:37:00,68.2,48.3,29.09,NNE,22,0.0,0.0,49,0.00,,---,0.00,VWS V14.01,2013-08-01 00:37:00,
2013-07-31 20:38:00,68.2,48.3,29.09,NNE,22,0.0,0.0,49,0.00,,---,0.00,VWS V14.01,2013-08-01 00:38:00,
2013-07-31 20:39:00,68.2,48.3,29.09,NNE,22,0.0,0.0,49,0.00,,---,0.00,VWS V14.01,2013-08-01 00:39:00,
2013-07-31 20:40:00,68.2,48.3,29.09,NNE,22,0.0,0.0,49,0.00,,---,0.00,VWS V14.01,2013-08-01 00:40:00,
2013-07-31 20:41:00,68.2,48.3,29.09,NNE,22,0.0,0.0,49,0.00,,---,0.00,VWS V14.01,2013-08-01 00:41:00,
2013-07-31 20:42:00,68.2,48.3,29.09,NNE,22,0.0,0.0,49,0.00,,---,0.00,VWS V14.01,2013-08-01 00:42:00,
2013-07-31 20:43:00,68.2,48.3,29.09,NNE,22,0.0,0.0,49,0.00,,---,0.00,VWS V14.01,2013-08-01 00:43:00,
2013-07-31 20:44:00,68.2,48.3,29.09,NNE,22,0.0,0.0,49,0.00,,---,0.00,VWS V14.01,2013-08-01 00:44:00,
2013-07-31 20:45:00,68.2,48.3,29.09,NNE,22,0.0,0.0,49,0.00,,---,0.00,VWS V14.01,2013-08-01 00:45:00,
2013-07-31 20:46:00,68.2,48.3,29.09,NNE,22,0.0,0.0,49,0.00,,---,0.00,VWS V14.01,2013-08-01 00:46:00,
2013-07-31 20:47:00,68.2,48.3,29.09,NNE,22,0.0,0.0,49,0.00,,---,0.00,VWS V14.01,2013-08-01 00:47:00,
2013-07-31 20:48:00,68.2,48.3,29.09,NNE,22,0.0,0.0,49,0.00,,---,0.00,VWS V14.01,2013-08-01 00:48:00,
2013-07-31 20:49:00,68.2,48.3,29.09,NNE,22,0.0,0.0,49,0.00,,---,0.00,VWS V14.01,2013-08-01 00:49:00,
2013-07-31 20:50:00,68.2,48.3,29.09,NNE,22,0.0,0.0,49,0.00,,---,0.00,VWS V14.01,2013-08-01 00:50:00,
2013-07-31 20:51:00,68.2,48.3,29.09,NNE,22,0.0,0.0,49,0.00,,---,0.00,VWS V14.01,2013-08-01 00:51:00,
2013-07-31 20:52:00,68.2,48.3,29.09,NNE,22,0.0,0.0,49,0.00,,---,0.00,VWS V14.01,2013-08-01 00:52:00,
2013-07-31 20:53:00,68.2,48.3,29.09,NNE,22,0.0,0.0,49,0.00,,---,0.00,VWS V14.01,2013-08-01 00:53:00,
2013-07-31 20:54:00,68.2,48.3,29.09,NNE,22,0.0,0.0,49,0.00,,---,0.00,VWS V14.01,2013-08-01 00:54:00,
2013-07-31 20:55:00,68.2,48.3,29.09,NNE,22,0.0,0.0,49,0.00,,---,0.00,VWS V14.01,2013-08-01 00:55:00,
2013-07-31 20:56:00,68.2,48.3,29.09,NNE,22,0.0,0.0,49,0.00,,---,0.00,VWS V14.01,2013-08-01 00:56:00,
2013-07-31 20:57:00,68.2,48.3,29.09,NNE,22,0.0,0.0,49,0.00,,---,0.00,VWS V14.01,2013-08-01 00:57:00,
2013-07-31 20:58:00,68.2,48.3,29.09,NNE,22,0.0,0.0,49,0.00,,---,0.00,VWS V14.01,2013-08-01 00:58:00,
2013-07-31 20:59:00,68.2,48.3,29.09,NNE,22,0.0,0.0,49,0.00,,---,0.00,VWS V14.01,2013-08-01 00:59:00,
2013-07-31 21:00:00,68.2,48.3,29.09,NNE,22,0.0,0.0,49,0.00,,---,0.00,VWS V14.01,2013-08-01 01:00:00,
2013-07-31 21:01:00,68.2,48.3,29.09,NNE,22,0.0,0.0,49,0.00,,---,0.00,VWS V14.01,2013-08-01 01:01:00,
2013-07-31 21:02:00,68.2,48.3,29.09,NNE,22,0.0,0.0,49,0.00,,---,0.00,VWS V14.01,2013-08-01 01:02:00,
2013-07-31 21:03:00,68.2,48.3,29.09,NNE,22,0.0,0.0,49,0.00,,---,0.00,VWS V14.01,2013-08-01 01:03:00,
2013-07-31 21:04:00,68.2,48.3,29.09,NNE,22,0.0,0.0,49,0.00,,---,0.00,VWS V14.01,2013-08-01 01:04:00,
2013-07-31 21:05:00,68.2,48.3,29.09,NNE,22,0.0,0.0,49,0.00,,---,0.00,VWS V14.01,2013-08-01 01:05:00,
2013-07-31 21:06:00,68.2,48.3,29.09,NNE,22,0.0,0.0,49,0.00,,---,0.00,VWS V14.01,2013-08-01 01:06:00,
2013-07-31 21:07:00,68.2,48.3,29.09,NNE,22,0.0,0.0,49,0.00,,---,0.00,VWS V14.01,2013-08-01 01:07:00,
2013-07-31 21:08:00,68.2,48.3,29.09,NNE,22,0.0,0.0,49,0.00,,---,0.00,VWS V14.01,2013-08-01 01:08:00,
2013-07-31 21:09:00,68.2,48.3,29.09,NNE,22,0.0,0.0,49,0.00,,---,0.00,VWS V14.01,2013-08-01 01:09:00,
2013-07-31 21:10:00,68.2,48.3,29.09,NNE,22,0.0,0.0,49,0.00,,---,0.00,VWS V14.01,2013-08-01 01:10:00,
2013-07-31 21:11:00,68.2,48.3,29.09,NNE,22,0.0,0.0,49,0.00,,---,0.00,VWS V14.01,2013-08-01 01:11:00,
2013-07-31 21:12:00,68.2,48.3,29.09,NNE,22,0.0,0.0,49,0.00,,---,0.00,VWS V14.01,2013-08-01 01:12:00,
2013-07-31 21:13:00,68.2,48.3,29.09,NNE,22,0.0,0.0,49,0.00,,---,0.00,VWS V14.01,2013-08-01 01:13:00,
2013-07-31 21:14:00,68.2,48.3,29.09,NNE,22,0.0,0.0,49,0.00,,---,0.00,VWS V14.01,2013-08-01 01:14:00,
2013-07-31 21:15:00,68.2,48.3,29.09,NNE,22,0.0,0.0,49,0.00,,---,0.00,VWS V14.01,2013-08-01 01:15:00,
2013-07-31 21:16:00,68.2,48.3,29.09,NNE,22,0.0,0.0,49,0.00,,---,0.00,VWS V14.01,2013-08-01 01:16:00,
2013-07-31 21:17:00,68.2,48.3,29.09,NNE,22,0.0,0.0,49,0.00,,---,0.00,VWS V14.01,2013-08-01 01:17:00,
2013-07-31 21:18:00,68.2,48.3,29.09,NNE,22,0.0,0.0,49,0.00,,---,0.00,VWS V14.01,2013-08-01 01:18:00,
2013-07-31 21:19:00,68.2,48.3,29.09,NNE,22,0.0,0.0,49,0.00,,---,0.00,VWS V14.01,2013-08-01 01:19:00,
2013-07-31 21:20:00,68.2,48.3,29.09,NNE,22,0.0,0.0,49,0.00,,---,0.00,VWS V14.01,2013-08-01 01:20:00,
2013-07-31 21:21:00,68.2,48.3,29.09,NNE,22,0.0,0.0,49,0.00,,---,0.00,VWS V14.01,2013-08-01 01:21:00,
2013-07-31 21:22:00,68.2,48.3,29.09,NNE,22,0.0,0.0,49,0.00,,---,0.00,VWS V14.01,2013-08-01 01:22:00,
2013-07-31 21:23:00,68.2,48.3,29.09,NNE,22,0.0,0.0,49,0.00,,---,0.00,VWS V14.01,2013-08-01 01:23:00,
2013-07-31 21:24:00,68.2,48.3,29.09,NNE,22,0.0,0.0,49,0.00,,---,0.00,VWS V14.01,2013-08-01 01:24:00,
2013-07-31 21:25:00,68.2,48.3,29.09,NNE,22,0.0,0.0,49,0.00,,---,0.00,VWS V14.01,2013-08-01 01:25:00,
2013-07-31 21:26:00,68.2,48.3,29.09,NNE,22,0.0,0.0,49,0.00,,---,0.00,VWS V14.01,2013-08-01 01:26:00,
2013-07-31 21:27:00,68.2,48.3,29.09,NNE,22,0.0,0.0,49,0.00,,---,0.00,VWS V14.01,2013-08-01 01:27:00,
2013-07-31 21:28:00,68.2,48.3,29.09,NNE,22,0.0,0.0,49,0.00,,---,0.00,VWS V14.01,2013-08-01 01:28:00,
2013-07-31 21:29:00,68.2,48.3,29.09,NNE,22,0.0,0.0,49,0.00,,---,0.00,VWS V14.01,2013-08-01 01:29:00,
2013-07-31 21:30:00,68.2,48.3,29.09,NNE,22,0.0,0.0,49,0.00,,---,0.00,VWS V14.01,2013-08-01 01:30:00,
2013-07-31 21:31:00,68.2,48.3,29.09,NNE,22,0.0,0.0,49,0.00,,---,0.00,VWS V14.01,2013-08-01 01:31:00,
2013-07-31 21:32:00,68.2,48.3,29.09,NNE,22,0.0,0.0,49,0.00,,---,0.00,VWS V14.01,2013-08-01 01:32:00,
2013-07-31 21:33:00,68.2,48.3,29.09,NNE,22,0.0,0.0,49,0.00,,---,0.00,VWS V14.01,2013-08-01 01:33:00,
2013-07-31 21:34:00,68.2,48.3,29.09,NNE,22,0.0,0.0,49,0.00,,---,0.00,VWS V14.01,2013-08-01 01:34:00,
2013-07-31 21:35:00,68.2,48.3,29.09,NNE,22,0.0,0.0,49,0.00,,---,0.00,VWS V14.01,2013-08-01 01:35:00,
2013-07-31 21:36:00,68.2,48.3,29.09,NNE,22,0.0,0.0,49,0.00,,---,0.00,VWS V14.01,2013-08-01 01:36:00,
2013-07-31 21:37:00,68.2,48.3,29.09,NNE,22,0.0,0.0,49,0.00,,---,0.00,VWS V14.01,2013-08-01 01:37:00,
2013-07-31 21:38:00,68.2,48.3,29.09,NNE,22,0.0,0.0,49,0.00,,---,0.00,VWS V14.01,2013-08-01 01:38:00,
2013-07-31 21:39:00,68.2,48.3,29.09,NNE,22,0.0,0.0,49,0.00,,---,0.00,VWS V14.01,2013-08-01 01:39:00,
2013-07-31 21:40:00,68.2,48.3,29.09,NNE,22,0.0,0.0,49,0.00,,---,0.00,VWS V14.01,2013-08-01 01:40:00,
2013-07-31 21:41:00,68.2,48.3,29.09,NNE,22,0.0,0.0,49,0.00,,---,0.00,VWS V14.01,2013-08-01 01:41:00,
2013-07-31 21:42:00,68.2,48.3,29.09,NNE,22,0.0,0.0,49,0.00,,---,0.00,VWS V14.01,2013-08-01 01:42:00,
2013-07-31 21:43:00,68.2,48.3,29.09,NNE,22,0.0,0.0,49,0.00,,---,0.00,VWS V14.01,2013-08-01 01:43:00,
2013-07-31 21:44:00,68.2,48.3,29.09,NNE,22,0.0,0.0,49,0.00,,---,0.00,VWS V14.01,2013-08-01 01:44:00,
2013-07-31 21:45:00,68.2,48.3,29.09,NNE,22,0.0,0.0,49,0.00,,---,0.00,VWS V14.01,2013-08-01 01:45:00,
2013-07-31 21:46:00,68.2,48.3,29.09,NNE,22,0.0,0.0,49,0.00,,---,0.00,VWS V14.01,2013-08-01 01:46:00,
2013-07-31 21:47:00,68.2,48.3,29.09,NNE,22,0.0,0.0,49,0.00,,---,0.00,VWS V14.01,2013-08-01 01:47:00,
2013-07-31 21:48:00,68.2,48.3,29.09,NNE,22,0.0,0.0,49,0.00,,---,0.00,VWS V14.01,2013-08-01 01:48:00,
2013-07-31 21:49:00,68.2,48.3,29.09,NNE,22,0.0,0.0,49,0.00,,---,0.00,VWS V14.01,2013-08-01 01:49:00,
2013-07-31 21:50:00,68.2,48.3,29.09,NNE,22,0.0,0.0,49,0.00,,---,0.00,VWS V14.01,2013-08-01 01:50:00,
2013-07-31 21:51:00,68.2,48.3,29.09,NNE,22,0.0,0.0,49,0.00,,---,0.00,VWS V14.01,2013-08-01 01:51:00,
2013-07-31 21:52:00,68.2,48.3,29.09,NE,45,0.0,0.0,49,0.00,,---,0.00,VWS V14.01,2013-08-01 01:52:00,
2013-07-31 21:53:00,68.2,48.3,29.09,NE,45,0.0,0.0,49,0.00,,---,0.00,VWS V14.01,2013-08-01 01:53:00,
2013-07-31 21:54:00,68.2,48.3,29.09,NE,45,0.0,0.0,49,0.00,,---,0.00,VWS V14.01,2013-08-01 01:54:00,
2013-07-31 21:55:00,68.2,48.3,29.09,NE,45,0.0,0.0,49,0.00,,---,0.00,VWS V14.01,2013-08-01 01:55:00,
2013-07-31 21:56:00,68.2,48.3,29.09,NE,45,0.0,0.0,49,0.00,,---,0.00,VWS V14.01,2013-08-01 01:56:00,
2013-07-31 21:57:00,68.2,48.3,29.09,NE,45,0.0,0.0,49,0.00,,---,0.00,VWS V14.01,2013-08-01 01:57:00,
2013-07-31 21:58:00,68.2,48.3,29.09,NE,45,0.0,0.0,49,0.00,,---,0.00,VWS V14.01,2013-08-01 01:58:00,
2013-07-31 21:59:00,68.2,48.3,29.09,NE,45,0.0,0.0,49,0.00,,---,0.00,VWS V14.01,2013-08-01 01:59:00,
2013-07-31 22:00:00,68.2,48.3,29.09,NE,45,0.0,0.0,49,0.00,,---,0.00,VWS V14.01,2013-08-01 02:00:00,
2013-07-31 22:01:00,68.2,48.3,29.09,NE,45,0.0,0.0,49,0.00,,---,0.00,VWS V14.01,2013-08-01 02:01:00,
2013-07-31 22:02:00,68.2,48.3,29.09,NE,45,0.0,0.0,49,0.00,,---,0.00,VWS V14.01,2013-08-01 02:02:00,
2013-07-31 22:03:00,68.2,48.3,29.09,NE,45,0.0,0.0,49,0.00,,---,0.00,VWS V14.01,2013-08-01 02:03:00,
2013-07-31 22:04:00,68.2,48.3,29.09,NE,45,0.0,0.0,49,0.00,,---,0.00,VWS V14.01,2013-08-01 02:04:00,
2013-07-31 22:05:00,68.2,48.3,29.09,NE,45,0.0,0.0,49,0.00,,---,0.00,VWS V14.01,2013-08-01 02:05:00,
2013-07-31 22:06:00,68.2,48.3,29.09,NE,45,0.0,0.0,49,0.00,,---,0.00,VWS V14.01,2013-08-01 02:06:00,
2013-07-31 22:07:00,68.2,48.3,29.09,NE,45,0.0,0.0,49,0.00,,---,0.00,VWS V14.01,2013-08-01 02:07:00,
2013-07-31 22:08:00,68.2,48.3,29.09,NE,45,0.0,0.0,49,0.00,,---,0.00,VWS V14.01,2013-08-01 02:08:00,
2013-07-31 22:09:00,68.2,48.3,29.09,NE,45,0.0,0.0,49,0.00,,---,0.00,VWS V14.01,2013-08-01 02:09:00,
2013-07-31 22:10:00,68.2,48.3,29.09,NE,45,0.0,0.0,49,0.00,,---,0.00,VWS V14.01,2013-08-01 02:10:00,
2013-07-31 22:11:00,68.2,48.3,29.09,NE,45,0.0,0.0,49,0.00,,---,0.00,VWS V14.01,2013-08-01 02:11:00,
2013-07-31 22:12:00,68.2,48.3,29.09,NE,45,0.0,0.0,49,0.00,,---,0.00,VWS V14.01,2013-08-01 02:12:00,
2013-07-31 22:13:00,68.2,48.3,29.09,NE,45,0.0,0.0,49,0.00,,---,0.00,VWS V14.01,2013-08-01 02:13:00,
2013-07-31 22:14:00,68.2,48.3,29.09,NE,45,0.0,0.0,49,0.00,,---,0.00,VWS V14.01,2013-08-01 02:14:00,
2013-07-31 22:15:00,68.2,48.3,29.09,NE,45,0.0,0.0,49,0.00,,---,0.00,VWS V14.01,2013-08-01 02:15:00,
2013-07-31 22:16:00,68.2,48.3,29.09,NNE,22,0.0,0.0,49,0.00,,---,0.00,VWS V14.01,2013-08-01 02:16:00,
2013-07-31 22:17:00,68.2,48.3,29.09,NNE,22,0.0,0.0,49,0.00,,---,0.00,VWS V14.01,2013-08-01 02:17:00,
2013-07-31 22:18:00,68.2,48.3,29.09,NNE,22,0.0,0.0,49,0.00,,---,0.00,VWS V14.01,2013-08-01 02:18:00,
2013-07-31 22:19:00,68.2,48.3,29.09,NNE,22,0.0,0.0,49,0.00,,---,0.00,VWS V14.01,2013-08-01 02:19:00,
2013-07-31 22:20:00,68.2,48.3,29.09,NNE,22,0.0,0.0,49,0.00,,---,0.00,VWS V14.01,2013-08-01 02:20:00,
2013-07-31 22:21:00,68.2,48.3,29.09,NNE,22,0.0,0.0,49,0.00,,---,0.00,VWS V14.01,2013-08-01 02:21:00,
2013-07-31 22:22:00,68.2,48.3,29.09,NNE,22,0.0,0.0,49,0.00,,---,0.00,VWS V14.01,2013-08-01 02:22:00,
2013-07-31 22:23:00,68.2,48.3,29.09,NNE,22,0.0,0.0,49,0.00,,---,0.00,VWS V14.01,2013-08-01 02:23:00,
2013-07-31 22:24:00,68.2,48.3,29.09,NNE,22,0.0,0.0,49,0.00,,---,0.00,VWS V14.01,2013-08-01 02:24:00,
2013-07-31 22:25:00,68.2,48.3,29.09,NNE,22,0.0,0.0,49,0.00,,---,0.00,VWS V14.01,2013-08-01 02:25:00,
2013-07-31 22:26:00,68.2,48.3,29.09,NNE,22,0.0,0.0,49,0.00,,---,0.00,VWS V14.01,2013-08-01 02:26:00,
2013-07-31 22:27:00,68.2,48.3,29.09,NNE,22,0.0,0.0,49,0.00,,---,0.00,VWS V14.01,2013-08-01 02:27:00,
2013-07-31 22:28:00,68.2,48.3,29.09,NNE,22,0.0,0.0,49,0.00,,---,0.00,VWS V14.01,2013-08-01 02:28:00,
2013-07-31 22:29:00,68.2,48.3,29.09,NNE,22,0.0,0.0,49,0.00,,---,0.00,VWS V14.01,2013-08-01 02:29:00,
2013-07-31 22:30:00,68.2,48.3,29.09,NNE,22,0.0,0.0,49,0.00,,---,0.00,VWS V14.01,2013-08-01 02:30:00,
2013-07-31 22:31:00,68.2,48.3,29.09,NNE,22,0.0,0.0,49,0.00,,---,0.00,VWS V14.01,2013-08-01 02:31:00,
2013-07-31 22:32:00,68.2,48.3,29.09,NNE,22,0.0,0.0,49,0.00,,---,0.00,VWS V14.01,2013-08-01 02:32:00,
2013-07-31 22:33:00,68.2,48.3,29.09,NNE,22,0.0,0.0,49,0.00,,---,0.00,VWS V14.01,2013-08-01 02:33:00,
2013-07-31 22:34:00,68.2,48.3,29.09,NNE,22,0.0,0.0,49,0.00,,---,0.00,VWS V14.01,2013-08-01 02:34:00,
2013-07-31 22:35:00,68.2,48.3,29.11,NNE,22,0.0,0.0,49,0.00,,---,0.00,VWS V14.01,2013-08-01 02:35:00,
2013-07-31 22:36:00,68.2,48.3,29.11,NNE,22,0.0,0.0,49,0.00,,---,0.00,VWS V14.01,2013-08-01 02:36:00,
2013-07-31 22:37:00,68.2,48.3,29.11,NNE,22,0.0,0.0,49,0.00,,---,0.00,VWS V14.01,2013-08-01 02:37:00,
2013-07-31 22:38:00,68.2,48.3,29.12,NNE,22,0.0,0.0,49,0.00,,---,0.00,VWS V14.01,2013-08-01 02:38:00,
2013-07-31 22:39:00,68.2,48.3,29.11,NNE,22,0.0,0.0,49,0.00,,---,0.00,VWS V14.01,2013-08-01 02:39:00,
2013-07-31 22:40:00,68.2,48.3,29.11,NNE,22,0.0,0.0,49,0.00,,---,0.00,VWS V14.01,2013-08-01 02:40:00,
2013-07-31 22:41:00,68.2,48.3,29.11,NNE,22,0.0,0.0,49,0.00,,---,0.00,VWS V14.01,2013-08-01 02:41:00,
2013-07-31 22:42:00,68.2,48.3,29.11,NNE,22,0.0,0.0,49,0.00,,---,0.00,VWS V14.01,2013-08-01 02:42:00,
2013-07-31 22:43:00,68.2,48.3,29.12,NNE,22,0.0,0.0,49,0.00,,---,0.00,VWS V14.01,2013-08-01 02:43:00,
2013-07-31 22:44:00,68.2,48.3,29.11,NNE,22,0.0,0.0,49,0.00,,---,0.00,VWS V14.01,2013-08-01 02:44:00,
2013-07-31 22:45:00,68.2,48.3,29.11,NNE,22,0.0,0.0,49,0.00,,---,0.00,VWS V14.01,2013-08-01 02:45:00,
2013-07-31 22:46:00,68.2,48.3,29.11,NNE,22,0.0,0.0,49,0.00,,---,0.00,VWS V14.01,2013-08-01 02:46:00,
2013-07-31 22:47:00,68.2,48.3,29.11,NNE,22,0.0,0.0,49,0.00,,---,0.00,VWS V14.01,2013-08-01 02:47:00,
2013-07-31 22:48:00,68.2,48.3,29.12,NNE,22,0.0,0.0,49,0.00,,---,0.00,VWS V14.01,2013-08-01 02:48:00,
2013-07-31 22:49:00,68.2,48.3,29.11,NNE,22,0.0,0.0,49,0.00,,---,0.00,VWS V14.01,2013-08-01 02:49:00,
2013-07-31 22:50:00,68.2,48.3,29.09,NNE,22,0.0,0.0,49,0.00,,---,0.00,VWS V14.01,2013-08-01 02:50:00,
2013-07-31 22:51:00,68.2,48.3,29.09,NNE,22,0.0,0.0,49,0.00,,---,0.00,VWS V14.01,2013-08-01 02:51:00,
2013-07-31 22:52:00,68.2,48.3,29.09,NNE,22,0.0,0.0,49,0.00,,---,0.00,VWS V14.01,2013-08-01 02:52:00,
2013-07-31 22:53:00,68.2,48.3,29.09,NNE,22,0.0,0.0,49,0.00,,---,0.00,VWS V14.01,2013-08-01 02:53:00,
2013-07-31 22:54:00,68.2,48.3,29.09,NNE,22,0.0,0.0,49,0.00,,---,0.00,VWS V14.01,2013-08-01 02:54:00,
2013-07-31 22:55:00,68.2,48.3,29.09,NNE,22,0.0,0.0,49,0.00,,---,0.00,VWS V14.01,2013-08-01 02:55:00,
2013-07-31 22:56:00,68.2,48.3,29.09,NNE,22,0.0,0.0,49,0.00,,---,0.00,VWS V14.01,2013-08-01 02:56:00,
2013-07-31 22:57:00,68.2,48.3,29.09,NNE,22,0.0,0.0,49,0.00,,---,0.00,VWS V14.01,2013-08-01 02:57:00,
2013-07-31 22:58:00,68.2,48.3,29.09,NNE,22,0.0,0.0,49,0.00,,---,0.00,VWS V14.01,2013-08-01 02:58:00,
2013-07-31 22:59:00,68.2,48.3,29.09,NNE,22,0.0,0.0,49,0.00,,---,0.00,VWS V14.01,2013-08-01 02:59:00,
2013-07-31 23:00:00,68.2,48.3,29.09,NNE,22,0.0,0.0,49,0.00,,---,0.00,VWS V14.01,2013-08-01 03:00:00,
2013-07-31 23:01:00,68.2,48.3,29.09,NNE,22,0.0,0.0,49,0.00,,---,0.00,VWS V14.01,2013-08-01 03:01:00,
2013-07-31 23:02:00,68.2,48.3,29.09,NNE,22,0.0,0.0,49,0.00,,---,0.00,VWS V14.01,2013-08-01 03:02:00,
2013-07-31 23:03:00,68.2,48.3,29.09,NNE,22,0.0,0.0,49,0.00,,---,0.00,VWS V14.01,2013-08-01 03:03:00,
2013-07-31 23:04:00,68.2,48.3,29.09,NNE,22,0.0,0.0,49,0.00,,---,0.00,VWS V14.01,2013-08-01 03:04:00,
2013-07-31 23:05:00,68.2,48.3,29.09,NNE,22,0.0,0.0,49,0.00,,---,0.00,VWS V14.01,2013-08-01 03:05:00,
2013-07-31 23:06:00,68.2,48.3,29.09,NNE,22,0.0,0.0,49,0.00,,---,0.00,VWS V14.01,2013-08-01 03:06:00,
2013-07-31 23:07:00,68.2,48.3,29.09,NNE,22,0.0,0.0,49,0.00,,---,0.00,VWS V14.01,2013-08-01 03:07:00,
2013-07-31 23:08:00,68.2,48.3,29.09,NNE,22,0.0,0.0,49,0.00,,---,0.00,VWS V14.01,2013-08-01 03:08:00,
2013-07-31 23:09:00,68.2,48.3,29.09,NNE,22,0.0,0.0,49,0.00,,---,0.00,VWS V14.01,2013-08-01 03:09:00,
2013-07-31 23:10:00,68.2,48.3,29.09,NNE,22,0.0,0.0,49,0.00,,---,0.00,VWS V14.01,2013-08-01 03:10:00,
2013-07-31 23:11:00,68.2,48.3,29.09,NNE,22,0.0,0.0,49,0.00,,---,0.00,VWS V14.01,2013-08-01 03:11:00,
2013-07-31 23:12:00,68.2,48.3,29.09,NNE,22,0.0,0.0,49,0.00,,---,0.00,VWS V14.01,2013-08-01 03:12:00,
2013-07-31 23:13:00,68.2,48.3,29.09,NNE,22,0.0,0.0,49,0.00,,---,0.00,VWS V14.01,2013-08-01 03:13:00,
2013-07-31 23:14:00,68.2,48.3,29.09,NNE,22,0.0,0.0,49,0.00,,---,0.00,VWS V14.01,2013-08-01 03:14:00,
2013-07-31 23:15:00,68.2,48.3,29.09,NNE,22,0.0,0.0,49,0.00,,---,0.00,VWS V14.01,2013-08-01 03:15:00,
2013-07-31 23:16:00,68.2,48.3,29.09,NNE,22,0.0,0.0,49,0.00,,---,0.00,VWS V14.01,2013-08-01 03:16:00,
2013-07-31 23:17:00,68.2,48.3,29.09,NNE,22,0.0,0.0,49,0.00,,---,0.00,VWS V14.01,2013-08-01 03:17:00,
2013-07-31 23:18:00,68.2,48.3,29.09,NNE,22,0.0,0.0,49,0.00,,---,0.00,VWS V14.01,2013-08-01 03:18:00,
2013-07-31 23:19:00,68.2,48.3,29.09,NNE,22,0.0,0.0,49,0.00,,---,0.00,VWS V14.01,2013-08-01 03:19:00,
2013-07-31 23:20:00,68.2,48.3,29.09,NNE,22,0.0,0.0,49,0.00,,---,0.00,VWS V14.01,2013-08-01 03:20:00,
2013-07-31 23:21:00,68.2,48.3,29.11,NNE,22,0.0,0.0,49,0.00,,---,0.00,VWS V14.01,2013-08-01 03:21:00,
2013-07-31 23:22:00,68.2,48.3,29.11,NNE,22,0.0,0.0,49,0.00,,---,0.00,VWS V14.01,2013-08-01 03:22:00,
2013-07-31 23:23:00,68.2,48.3,29.12,NNE,22,0.0,0.0,49,0.00,,---,0.00,VWS V14.01,2013-08-01 03:23:00,
2013-07-31 23:24:00,68.2,48.3,29.11,NNE,22,0.0,0.0,49,0.00,,---,0.00,VWS V14.01,2013-08-01 03:24:00,
2013-07-31 23:25:00,68.2,48.3,29.11,NNE,22,0.0,0.0,49,0.00,,---,0.00,VWS V14.01,2013-08-01 03:25:00,
2013-07-31 23:26:00,68.2,48.3,29.11,NNE,22,0.0,0.0,49,0.00,,---,0.00,VWS V14.01,2013-08-01 03:26:00,
2013-07-31 23:27:00,68.2,48.3,29.11,NNE,22,0.0,0.0,49,0.00,,---,0.00,VWS V14.01,2013-08-01 03:27:00,
2013-07-31 23:28:00,68.2,48.3,29.12,NNE,22,0.0,0.0,49,0.00,,---,0.00,VWS V14.01,2013-08-01 03:28:00,
2013-07-31 23:29:00,68.2,48.3,29.11,NNE,22,0.0,0.0,49,0.00,,---,0.00,VWS V14.01,2013-08-01 03:29:00,
2013-07-31 23:30:00,68.2,48.3,29.11,NNE,22,0.0,0.0,49,0.00,,---,0.00,VWS V14.01,2013-08-01 03:30:00,
2013-07-31 23:31:00,68.2,48.3,29.11,NNE,22,0.0,0.0,49,0.00,,---,0.00,VWS V14.01,2013-08-01 03:31:00,
2013-07-31 23:32:00,68.2,48.3,29.11,NNE,22,0.0,0.0,49,0.00,,---,0.00,VWS V14.01,2013-08-01 03:32:00,
2013-07-31 23:33:00,68.2,48.3,29.12,NNE,22,0.0,0.0,49,0.00,,---,0.00,VWS V14.01,2013-08-01 03:33:00,
2013-07-31 23:34:00,68.2,48.3,29.11,NNE,22,0.0,0.0,49,0.00,,---,0.00,VWS V14.01,2013-08-01 03:34:00,
2013-07-31 23:35:00,68.2,48.3,29.11,NNE,22,0.0,0.0,49,0.00,,---,0.00,VWS V14.01,2013-08-01 03:35:00,
2013-07-31 23:36:00,68.2,48.3,29.09,NNE,22,0.0,0.0,49,0.00,,---,0.00,VWS V14.01,2013-08-01 03:36:00,
2013-07-31 23:37:00,68.2,48.3,29.09,NNE,22,0.0,0.0,49,0.00,,---,0.00,VWS V14.01,2013-08-01 03:37:00,
2013-07-31 23:38:00,68.2,48.3,29.09,NNE,22,0.0,0.0,49,0.00,,---,0.00,VWS V14.01,2013-08-01 03:38:00,
2013-07-31 23:39:00,68.2,48.3,29.09,NNE,22,0.0,0.0,49,0.00,,---,0.00,VWS V14.01,2013-08-01 03:39:00,
2013-07-31 23:40:00,68.2,48.3,29.09,NNE,22,0.0,0.0,49,0.00,,---,0.00,VWS V14.01,2013-08-01 03:40:00,
2013-07-31 23:41:00,68.2,48.3,29.09,NNE,22,0.0,0.0,49,0.00,,---,0.00,VWS V14.01,2013-08-01 03:41:00,
2013-07-31 23:42:00,68.2,48.3,29.09,NNE,22,0.0,0.0,49,0.00,,---,0.00,VWS V14.01,2013-08-01 03:42:00,
2013-07-31 23:43:00,68.2,48.3,29.09,NNE,22,0.0,0.0,49,0.00,,---,0.00,VWS V14.01,2013-08-01 03:43:00,
2013-07-31 23:44:00,68.2,48.3,29.09,NNE,22,0.0,0.0,49,0.00,,---,0.00,VWS V14.01,2013-08-01 03:44:00,
2013-07-31 23:45:00,68.2,48.3,29.09,NNE,22,0.0,0.0,49,0.00,,---,0.00,VWS V14.01,2013-08-01 03:45:00,
2013-07-31 23:46:00,68.2,48.3,29.09,NNE,22,0.0,0.0,49,0.00,,---,0.00,VWS V14.01,2013-08-01 03:46:00,
2013-07-31 23:47:00,68.2,48.3,29.09,NNE,22,0.0,0.0,49,0.00,,---,0.00,VWS V14.01,2013-08-01 03:47:00,
2013-07-31 23:48:00,58.5,46.8,29.09,NNE,22,0.0,0.0,65,0.00,,---,0.00,VWS V14.01,2013-08-01 03:48:00,
2013-07-31 23:49:00,58.5,46.8,29.09,NNE,22,0.0,0.0,65,0.00,,---,0.00,VWS V14.01,2013-08-01 03:49:00,
2013-07-31 23:50:00,58.3,46.6,29.09,NNE,22,0.0,0.0,65,0.00,,---,0.00,VWS V14.01,2013-08-01 03:50:00,
2013-07-31 23:51:00,58.3,46.6,29.09,NNE,22,0.0,0.0,65,0.00,,---,0.00,VWS V14.01,2013-08-01 03:51:00,
2013-07-31 23:52:00,58.3,46.6,29.09,NNE,22,0.0,0.0,65,0.00,,---,0.00,VWS V14.01,2013-08-01 03:52:00,
2013-07-31 23:53:00,58.3,46.6,29.09,NNE,22,0.0,0.0,65,0.00,,---,0.00,VWS V14.01,2013-08-01 03:53:00,
2013-07-31 23:54:00,58.3,46.6,29.09,NNE,22,0.0,0.0,65,0.00,,---,0.00,VWS V14.01,2013-08-01 03:54:00,
2013-07-31 23:55:00,58.3,46.6,29.09,NNE,22,0.0,0.0,65,0.00,,---,0.00,VWS V14.01,2013-08-01 03:55:00,
2013-07-31 23:56:00,58.3,46.6,29.09,NNE,22,0.0,0.0,65,0.00,,---,0.00,VWS V14.01,2013-08-01 03:56:00,
2013-07-31 23:57:00,58.3,46.6,29.09,NNE,22,0.0,0.0,65,0.00,,---,0.00,VWS V14.01,2013-08-01 03:57:00,
2013-07-31 23:58:00,58.3,46.6,29.09,NNE,22,0.0,0.0,65,0.00,,---,0.00,VWS V14.01,2013-08-01 03:58:00,
2013-07-31 23:59:00,58.3,46.6,29.09,NNE,22,0.0,0.0,65,0.00,,---,0.00,VWS V14.01,2013-08-01 03:59:00,